<?xml version="1.0" encoding="UTF-8" standalone="no" ?>
<gpx xmlns="http://www.topografix.com/GPX/1/1" xmlns:xsi="http://www.w3.org/2001/XMLSchema-instance" xsi:schemaLocation="http://www.topografix.com/GPX/1/1 http://www.topografix.com/GPX/1/1/gpx.xsd" version="1.1" creator="VisuGPX - https://www.visugpx.com">
  <metadata>
    <name>2009 LAGAHL</name>
    <desc><![CDATA[Lozère-Aveyron-Gard-Ardèche-Haute Loire]]></desc>
  </metadata>
  <trk>
    <name><![CDATA[D01]]></name>
    <trkseg>
      <trkpt lat="44.11566" lon="3.41184">
        <ele>704</ele>
        <time>2009-07-09T06:30:22Z</time>
      </trkpt>
      <trkpt lat="44.11565" lon="3.41183">
        <ele>709</ele>
        <time>2009-07-09T06:30:38Z</time>
      </trkpt>
      <trkpt lat="44.11565" lon="3.41183">
        <ele>709</ele>
        <time>2009-07-09T06:30:39Z</time>
      </trkpt>
      <trkpt lat="44.11565" lon="3.41183">
        <ele>714</ele>
        <time>2009-07-09T06:30:47Z</time>
      </trkpt>
      <trkpt lat="44.11565" lon="3.41183">
        <ele>714</ele>
        <time>2009-07-09T06:30:48Z</time>
      </trkpt>
      <trkpt lat="44.11565" lon="3.41183">
        <ele>715</ele>
        <time>2009-07-09T06:30:53Z</time>
      </trkpt>
      <trkpt lat="44.11565" lon="3.41182">
        <ele>719</ele>
        <time>2009-07-09T06:31:06Z</time>
      </trkpt>
      <trkpt lat="44.11565" lon="3.41182">
        <ele>719</ele>
        <time>2009-07-09T06:31:07Z</time>
      </trkpt>
      <trkpt lat="44.11565" lon="3.41184">
        <ele>722</ele>
        <time>2009-07-09T06:31:36Z</time>
      </trkpt>
      <trkpt lat="44.11565" lon="3.41184">
        <ele>725</ele>
        <time>2009-07-09T06:31:47Z</time>
      </trkpt>
      <trkpt lat="44.11561" lon="3.41188">
        <ele>728</ele>
        <time>2009-07-09T06:32:07Z</time>
      </trkpt>
      <trkpt lat="44.11559" lon="3.41181">
        <ele>732</ele>
        <time>2009-07-09T06:32:40Z</time>
      </trkpt>
      <trkpt lat="44.11563" lon="3.41178">
        <ele>731</ele>
        <time>2009-07-09T06:35:29Z</time>
      </trkpt>
      <trkpt lat="44.11565" lon="3.41179">
        <ele>732</ele>
        <time>2009-07-09T06:37:52Z</time>
      </trkpt>
      <trkpt lat="44.11563" lon="3.41177">
        <ele>731</ele>
        <time>2009-07-09T06:38:28Z</time>
      </trkpt>
      <trkpt lat="44.11559" lon="3.41158">
        <ele>731</ele>
        <time>2009-07-09T06:38:38Z</time>
      </trkpt>
      <trkpt lat="44.11547" lon="3.41159">
        <ele>730</ele>
        <time>2009-07-09T06:38:46Z</time>
      </trkpt>
      <trkpt lat="44.11552" lon="3.41211">
        <ele>730</ele>
        <time>2009-07-09T06:39:03Z</time>
      </trkpt>
      <trkpt lat="44.11568" lon="3.41261">
        <ele>730</ele>
        <time>2009-07-09T06:39:18Z</time>
      </trkpt>
      <trkpt lat="44.11584" lon="3.4132">
        <ele>730</ele>
        <time>2009-07-09T06:39:35Z</time>
      </trkpt>
      <trkpt lat="44.11595" lon="3.41382">
        <ele>731</ele>
        <time>2009-07-09T06:39:52Z</time>
      </trkpt>
      <trkpt lat="44.11597" lon="3.41455">
        <ele>733</ele>
        <time>2009-07-09T06:40:12Z</time>
      </trkpt>
      <trkpt lat="44.1158" lon="3.41528">
        <ele>735</ele>
        <time>2009-07-09T06:40:32Z</time>
      </trkpt>
      <trkpt lat="44.11575" lon="3.416">
        <ele>735</ele>
        <time>2009-07-09T06:40:50Z</time>
      </trkpt>
      <trkpt lat="44.11602" lon="3.41666">
        <ele>736</ele>
        <time>2009-07-09T06:41:08Z</time>
      </trkpt>
      <trkpt lat="44.11643" lon="3.41727">
        <ele>740</ele>
        <time>2009-07-09T06:41:28Z</time>
      </trkpt>
      <trkpt lat="44.11632" lon="3.4177">
        <ele>740</ele>
        <time>2009-07-09T06:41:39Z</time>
      </trkpt>
      <trkpt lat="44.11606" lon="3.41762">
        <ele>741</ele>
        <time>2009-07-09T06:41:49Z</time>
      </trkpt>
      <trkpt lat="44.11568" lon="3.41706">
        <ele>742</ele>
        <time>2009-07-09T06:42:04Z</time>
      </trkpt>
      <trkpt lat="44.11538" lon="3.41663">
        <ele>743</ele>
        <time>2009-07-09T06:42:19Z</time>
      </trkpt>
      <trkpt lat="44.115" lon="3.41648">
        <ele>744</ele>
        <time>2009-07-09T06:42:31Z</time>
      </trkpt>
      <trkpt lat="44.11469" lon="3.4168">
        <ele>745</ele>
        <time>2009-07-09T06:42:43Z</time>
      </trkpt>
      <trkpt lat="44.11469" lon="3.41744">
        <ele>746</ele>
        <time>2009-07-09T06:42:56Z</time>
      </trkpt>
      <trkpt lat="44.11442" lon="3.41813">
        <ele>747</ele>
        <time>2009-07-09T06:43:14Z</time>
      </trkpt>
      <trkpt lat="44.11413" lon="3.41866">
        <ele>750</ele>
        <time>2009-07-09T06:43:29Z</time>
      </trkpt>
      <trkpt lat="44.11411" lon="3.41869">
        <ele>750</ele>
        <time>2009-07-09T06:43:30Z</time>
      </trkpt>
      <trkpt lat="44.11398" lon="3.41941">
        <ele>752</ele>
        <time>2009-07-09T06:43:47Z</time>
      </trkpt>
      <trkpt lat="44.11399" lon="3.42027">
        <ele>755</ele>
        <time>2009-07-09T06:44:08Z</time>
      </trkpt>
      <trkpt lat="44.11399" lon="3.42051">
        <ele>757</ele>
        <time>2009-07-09T06:44:14Z</time>
      </trkpt>
      <trkpt lat="44.11401" lon="3.42129">
        <ele>758</ele>
        <time>2009-07-09T06:44:35Z</time>
      </trkpt>
      <trkpt lat="44.11402" lon="3.4219">
        <ele>762</ele>
        <time>2009-07-09T06:44:51Z</time>
      </trkpt>
      <trkpt lat="44.11403" lon="3.42235">
        <ele>763</ele>
        <time>2009-07-09T06:45:04Z</time>
      </trkpt>
      <trkpt lat="44.11411" lon="3.42292">
        <ele>764</ele>
        <time>2009-07-09T06:45:19Z</time>
      </trkpt>
      <trkpt lat="44.11417" lon="3.42347">
        <ele>767</ele>
        <time>2009-07-09T06:45:33Z</time>
      </trkpt>
      <trkpt lat="44.11421" lon="3.42377">
        <ele>769</ele>
        <time>2009-07-09T06:45:41Z</time>
      </trkpt>
      <trkpt lat="44.11439" lon="3.42441">
        <ele>771</ele>
        <time>2009-07-09T06:45:59Z</time>
      </trkpt>
      <trkpt lat="44.11437" lon="3.42497">
        <ele>774</ele>
        <time>2009-07-09T06:46:14Z</time>
      </trkpt>
      <trkpt lat="44.11425" lon="3.42565">
        <ele>776</ele>
        <time>2009-07-09T06:46:33Z</time>
      </trkpt>
      <trkpt lat="44.11398" lon="3.42605">
        <ele>778</ele>
        <time>2009-07-09T06:46:48Z</time>
      </trkpt>
      <trkpt lat="44.11361" lon="3.42652">
        <ele>781</ele>
        <time>2009-07-09T06:47:08Z</time>
      </trkpt>
      <trkpt lat="44.11322" lon="3.42682">
        <ele>784</ele>
        <time>2009-07-09T06:47:25Z</time>
      </trkpt>
      <trkpt lat="44.11274" lon="3.42702">
        <ele>787</ele>
        <time>2009-07-09T06:47:44Z</time>
      </trkpt>
      <trkpt lat="44.11242" lon="3.42707">
        <ele>789</ele>
        <time>2009-07-09T06:47:56Z</time>
      </trkpt>
      <trkpt lat="44.11203" lon="3.42715">
        <ele>790</ele>
        <time>2009-07-09T06:48:11Z</time>
      </trkpt>
      <trkpt lat="44.11188" lon="3.42721">
        <ele>792</ele>
        <time>2009-07-09T06:48:24Z</time>
      </trkpt>
      <trkpt lat="44.11188" lon="3.42719">
        <ele>792</ele>
        <time>2009-07-09T06:49:01Z</time>
      </trkpt>
      <trkpt lat="44.11177" lon="3.42728">
        <ele>793</ele>
        <time>2009-07-09T06:49:15Z</time>
      </trkpt>
      <trkpt lat="44.11156" lon="3.42745">
        <ele>794</ele>
        <time>2009-07-09T06:49:25Z</time>
      </trkpt>
      <trkpt lat="44.11151" lon="3.42769">
        <ele>796</ele>
        <time>2009-07-09T06:49:34Z</time>
      </trkpt>
      <trkpt lat="44.11172" lon="3.4281">
        <ele>796</ele>
        <time>2009-07-09T06:49:49Z</time>
      </trkpt>
      <trkpt lat="44.11185" lon="3.4286">
        <ele>798</ele>
        <time>2009-07-09T06:50:06Z</time>
      </trkpt>
      <trkpt lat="44.11152" lon="3.42877">
        <ele>800</ele>
        <time>2009-07-09T06:50:20Z</time>
      </trkpt>
      <trkpt lat="44.11126" lon="3.42913">
        <ele>802</ele>
        <time>2009-07-09T06:50:35Z</time>
      </trkpt>
      <trkpt lat="44.11097" lon="3.42954">
        <ele>804</ele>
        <time>2009-07-09T06:50:52Z</time>
      </trkpt>
      <trkpt lat="44.11048" lon="3.42973">
        <ele>806</ele>
        <time>2009-07-09T06:51:11Z</time>
      </trkpt>
      <trkpt lat="44.11007" lon="3.43001">
        <ele>809</ele>
        <time>2009-07-09T06:51:28Z</time>
      </trkpt>
      <trkpt lat="44.10999" lon="3.43043">
        <ele>811</ele>
        <time>2009-07-09T06:51:41Z</time>
      </trkpt>
      <trkpt lat="44.11037" lon="3.43058">
        <ele>813</ele>
        <time>2009-07-09T06:51:55Z</time>
      </trkpt>
      <trkpt lat="44.11048" lon="3.43061">
        <ele>814</ele>
        <time>2009-07-09T06:51:59Z</time>
      </trkpt>
      <trkpt lat="44.11099" lon="3.43068">
        <ele>817</ele>
        <time>2009-07-09T06:52:18Z</time>
      </trkpt>
      <trkpt lat="44.11142" lon="3.4309">
        <ele>819</ele>
        <time>2009-07-09T06:52:35Z</time>
      </trkpt>
      <trkpt lat="44.11141" lon="3.43146">
        <ele>822</ele>
        <time>2009-07-09T06:52:49Z</time>
      </trkpt>
      <trkpt lat="44.11155" lon="3.43202">
        <ele>824</ele>
        <time>2009-07-09T06:53:05Z</time>
      </trkpt>
      <trkpt lat="44.11192" lon="3.43248">
        <ele>827</ele>
        <time>2009-07-09T06:53:24Z</time>
      </trkpt>
      <trkpt lat="44.11215" lon="3.43305">
        <ele>829</ele>
        <time>2009-07-09T06:53:41Z</time>
      </trkpt>
      <trkpt lat="44.11255" lon="3.43354">
        <ele>832</ele>
        <time>2009-07-09T06:54:01Z</time>
      </trkpt>
      <trkpt lat="44.11289" lon="3.43382">
        <ele>835</ele>
        <time>2009-07-09T06:54:16Z</time>
      </trkpt>
      <trkpt lat="44.11321" lon="3.43419">
        <ele>836</ele>
        <time>2009-07-09T06:54:32Z</time>
      </trkpt>
      <trkpt lat="44.11335" lon="3.43421">
        <ele>838</ele>
        <time>2009-07-09T06:54:37Z</time>
      </trkpt>
      <trkpt lat="44.11343" lon="3.43419">
        <ele>840</ele>
        <time>2009-07-09T06:54:40Z</time>
      </trkpt>
      <trkpt lat="44.11392" lon="3.434">
        <ele>840</ele>
        <time>2009-07-09T06:54:57Z</time>
      </trkpt>
      <trkpt lat="44.11436" lon="3.43384">
        <ele>841</ele>
        <time>2009-07-09T06:55:12Z</time>
      </trkpt>
      <trkpt lat="44.11479" lon="3.43367">
        <ele>842</ele>
        <time>2009-07-09T06:55:26Z</time>
      </trkpt>
      <trkpt lat="44.11532" lon="3.43348">
        <ele>844</ele>
        <time>2009-07-09T06:55:43Z</time>
      </trkpt>
      <trkpt lat="44.11542" lon="3.43346">
        <ele>845</ele>
        <time>2009-07-09T06:55:46Z</time>
      </trkpt>
      <trkpt lat="44.11584" lon="3.43329">
        <ele>848</ele>
        <time>2009-07-09T06:56:02Z</time>
      </trkpt>
      <trkpt lat="44.11627" lon="3.43315">
        <ele>849</ele>
        <time>2009-07-09T06:56:17Z</time>
      </trkpt>
      <trkpt lat="44.11655" lon="3.43298">
        <ele>851</ele>
        <time>2009-07-09T06:56:28Z</time>
      </trkpt>
      <trkpt lat="44.11688" lon="3.43283">
        <ele>852</ele>
        <time>2009-07-09T06:56:41Z</time>
      </trkpt>
      <trkpt lat="44.11722" lon="3.4328">
        <ele>855</ele>
        <time>2009-07-09T06:56:52Z</time>
      </trkpt>
      <trkpt lat="44.11751" lon="3.43279">
        <ele>856</ele>
        <time>2009-07-09T06:57:03Z</time>
      </trkpt>
      <trkpt lat="44.11758" lon="3.43278">
        <ele>856</ele>
        <time>2009-07-09T06:57:07Z</time>
      </trkpt>
      <trkpt lat="44.11782" lon="3.43272">
        <ele>856</ele>
        <time>2009-07-09T06:57:22Z</time>
      </trkpt>
      <trkpt lat="44.11802" lon="3.43281">
        <ele>856</ele>
        <time>2009-07-09T06:57:36Z</time>
      </trkpt>
      <trkpt lat="44.11831" lon="3.43291">
        <ele>858</ele>
        <time>2009-07-09T06:57:50Z</time>
      </trkpt>
      <trkpt lat="44.1187" lon="3.43295">
        <ele>860</ele>
        <time>2009-07-09T06:58:06Z</time>
      </trkpt>
      <trkpt lat="44.11883" lon="3.43299">
        <ele>862</ele>
        <time>2009-07-09T06:58:12Z</time>
      </trkpt>
      <trkpt lat="44.11912" lon="3.43306">
        <ele>866</ele>
        <time>2009-07-09T06:58:25Z</time>
      </trkpt>
      <trkpt lat="44.11947" lon="3.43319">
        <ele>868</ele>
        <time>2009-07-09T06:58:42Z</time>
      </trkpt>
      <trkpt lat="44.11974" lon="3.43332">
        <ele>871</ele>
        <time>2009-07-09T06:58:56Z</time>
      </trkpt>
      <trkpt lat="44.11988" lon="3.43346">
        <ele>873</ele>
        <time>2009-07-09T06:59:06Z</time>
      </trkpt>
      <trkpt lat="44.11988" lon="3.43351">
        <ele>874</ele>
        <time>2009-07-09T06:59:11Z</time>
      </trkpt>
      <trkpt lat="44.11962" lon="3.43344">
        <ele>875</ele>
        <time>2009-07-09T06:59:24Z</time>
      </trkpt>
      <trkpt lat="44.11922" lon="3.43338">
        <ele>876</ele>
        <time>2009-07-09T06:59:39Z</time>
      </trkpt>
      <trkpt lat="44.11888" lon="3.43345">
        <ele>878</ele>
        <time>2009-07-09T06:59:52Z</time>
      </trkpt>
      <trkpt lat="44.11839" lon="3.43362">
        <ele>880</ele>
        <time>2009-07-09T07:00:11Z</time>
      </trkpt>
      <trkpt lat="44.11816" lon="3.43377">
        <ele>883</ele>
        <time>2009-07-09T07:00:23Z</time>
      </trkpt>
      <trkpt lat="44.1179" lon="3.43402">
        <ele>886</ele>
        <time>2009-07-09T07:00:38Z</time>
      </trkpt>
      <trkpt lat="44.11788" lon="3.43404">
        <ele>886</ele>
        <time>2009-07-09T07:00:39Z</time>
      </trkpt>
      <trkpt lat="44.11764" lon="3.43422">
        <ele>889</ele>
        <time>2009-07-09T07:00:53Z</time>
      </trkpt>
      <trkpt lat="44.11735" lon="3.43434">
        <ele>890</ele>
        <time>2009-07-09T07:01:07Z</time>
      </trkpt>
      <trkpt lat="44.117" lon="3.43444">
        <ele>890</ele>
        <time>2009-07-09T07:01:20Z</time>
      </trkpt>
      <trkpt lat="44.11661" lon="3.43459">
        <ele>889</ele>
        <time>2009-07-09T07:01:32Z</time>
      </trkpt>
      <trkpt lat="44.11634" lon="3.43477">
        <ele>888</ele>
        <time>2009-07-09T07:01:42Z</time>
      </trkpt>
      <trkpt lat="44.116" lon="3.43501">
        <ele>889</ele>
        <time>2009-07-09T07:01:55Z</time>
      </trkpt>
      <trkpt lat="44.11569" lon="3.43525">
        <ele>890</ele>
        <time>2009-07-09T07:02:08Z</time>
      </trkpt>
      <trkpt lat="44.11549" lon="3.4354">
        <ele>893</ele>
        <time>2009-07-09T07:02:17Z</time>
      </trkpt>
      <trkpt lat="44.1152" lon="3.43562">
        <ele>894</ele>
        <time>2009-07-09T07:02:30Z</time>
      </trkpt>
      <trkpt lat="44.11489" lon="3.43584">
        <ele>895</ele>
        <time>2009-07-09T07:02:44Z</time>
      </trkpt>
      <trkpt lat="44.11462" lon="3.4361">
        <ele>898</ele>
        <time>2009-07-09T07:02:59Z</time>
      </trkpt>
      <trkpt lat="44.1145" lon="3.43623">
        <ele>900</ele>
        <time>2009-07-09T07:03:07Z</time>
      </trkpt>
      <trkpt lat="44.11443" lon="3.43629">
        <ele>902</ele>
        <time>2009-07-09T07:03:11Z</time>
      </trkpt>
      <trkpt lat="44.11421" lon="3.43646">
        <ele>902</ele>
        <time>2009-07-09T07:03:22Z</time>
      </trkpt>
      <trkpt lat="44.11413" lon="3.43659">
        <ele>904</ele>
        <time>2009-07-09T07:03:28Z</time>
      </trkpt>
      <trkpt lat="44.11387" lon="3.43697">
        <ele>904</ele>
        <time>2009-07-09T07:03:43Z</time>
      </trkpt>
      <trkpt lat="44.11384" lon="3.43734">
        <ele>904</ele>
        <time>2009-07-09T07:03:54Z</time>
      </trkpt>
      <trkpt lat="44.11396" lon="3.43786">
        <ele>904</ele>
        <time>2009-07-09T07:04:07Z</time>
      </trkpt>
      <trkpt lat="44.114" lon="3.4383">
        <ele>904</ele>
        <time>2009-07-09T07:04:19Z</time>
      </trkpt>
      <trkpt lat="44.11398" lon="3.43877">
        <ele>905</ele>
        <time>2009-07-09T07:04:31Z</time>
      </trkpt>
      <trkpt lat="44.11397" lon="3.43904">
        <ele>908</ele>
        <time>2009-07-09T07:04:41Z</time>
      </trkpt>
      <trkpt lat="44.11399" lon="3.4395">
        <ele>909</ele>
        <time>2009-07-09T07:04:54Z</time>
      </trkpt>
      <trkpt lat="44.11407" lon="3.4399">
        <ele>910</ele>
        <time>2009-07-09T07:05:07Z</time>
      </trkpt>
      <trkpt lat="44.11424" lon="3.44018">
        <ele>911</ele>
        <time>2009-07-09T07:05:18Z</time>
      </trkpt>
      <trkpt lat="44.11431" lon="3.44021">
        <ele>913</ele>
        <time>2009-07-09T07:05:23Z</time>
      </trkpt>
      <trkpt lat="44.11436" lon="3.44025">
        <ele>914</ele>
        <time>2009-07-09T07:05:27Z</time>
      </trkpt>
      <trkpt lat="44.11437" lon="3.44027">
        <ele>914</ele>
        <time>2009-07-09T07:05:29Z</time>
      </trkpt>
      <trkpt lat="44.11443" lon="3.44035">
        <ele>916</ele>
        <time>2009-07-09T07:05:40Z</time>
      </trkpt>
      <trkpt lat="44.11447" lon="3.4404">
        <ele>917</ele>
        <time>2009-07-09T07:05:48Z</time>
      </trkpt>
      <trkpt lat="44.11447" lon="3.44044">
        <ele>917</ele>
        <time>2009-07-09T07:06:09Z</time>
      </trkpt>
      <trkpt lat="44.11448" lon="3.44043">
        <ele>917</ele>
        <time>2009-07-09T07:08:27Z</time>
      </trkpt>
      <trkpt lat="44.11445" lon="3.4404">
        <ele>917</ele>
        <time>2009-07-09T07:09:58Z</time>
      </trkpt>
      <trkpt lat="44.11446" lon="3.44041">
        <ele>919</ele>
        <time>2009-07-09T07:11:00Z</time>
      </trkpt>
      <trkpt lat="44.11447" lon="3.44042">
        <ele>920</ele>
        <time>2009-07-09T07:11:48Z</time>
      </trkpt>
      <trkpt lat="44.1145" lon="3.4406">
        <ele>920</ele>
        <time>2009-07-09T07:12:00Z</time>
      </trkpt>
      <trkpt lat="44.11449" lon="3.44108">
        <ele>921</ele>
        <time>2009-07-09T07:12:13Z</time>
      </trkpt>
      <trkpt lat="44.11441" lon="3.44153">
        <ele>922</ele>
        <time>2009-07-09T07:12:23Z</time>
      </trkpt>
      <trkpt lat="44.11427" lon="3.4421">
        <ele>925</ele>
        <time>2009-07-09T07:12:36Z</time>
      </trkpt>
      <trkpt lat="44.11419" lon="3.44246">
        <ele>925</ele>
        <time>2009-07-09T07:12:46Z</time>
      </trkpt>
      <trkpt lat="44.11424" lon="3.44289">
        <ele>929</ele>
        <time>2009-07-09T07:12:58Z</time>
      </trkpt>
      <trkpt lat="44.11425" lon="3.44292">
        <ele>929</ele>
        <time>2009-07-09T07:12:59Z</time>
      </trkpt>
      <trkpt lat="44.1143" lon="3.44336">
        <ele>931</ele>
        <time>2009-07-09T07:13:16Z</time>
      </trkpt>
      <trkpt lat="44.11439" lon="3.44357">
        <ele>934</ele>
        <time>2009-07-09T07:13:27Z</time>
      </trkpt>
      <trkpt lat="44.11444" lon="3.44386">
        <ele>937</ele>
        <time>2009-07-09T07:13:41Z</time>
      </trkpt>
      <trkpt lat="44.11449" lon="3.4442">
        <ele>939</ele>
        <time>2009-07-09T07:13:56Z</time>
      </trkpt>
      <trkpt lat="44.11455" lon="3.44454">
        <ele>941</ele>
        <time>2009-07-09T07:14:09Z</time>
      </trkpt>
      <trkpt lat="44.11455" lon="3.44467">
        <ele>943</ele>
        <time>2009-07-09T07:14:14Z</time>
      </trkpt>
      <trkpt lat="44.11457" lon="3.44496">
        <ele>945</ele>
        <time>2009-07-09T07:14:26Z</time>
      </trkpt>
      <trkpt lat="44.11463" lon="3.44533">
        <ele>947</ele>
        <time>2009-07-09T07:14:40Z</time>
      </trkpt>
      <trkpt lat="44.11473" lon="3.44574">
        <ele>949</ele>
        <time>2009-07-09T07:14:57Z</time>
      </trkpt>
      <trkpt lat="44.11479" lon="3.4459">
        <ele>952</ele>
        <time>2009-07-09T07:15:04Z</time>
      </trkpt>
      <trkpt lat="44.11488" lon="3.44615">
        <ele>955</ele>
        <time>2009-07-09T07:15:16Z</time>
      </trkpt>
      <trkpt lat="44.11492" lon="3.44622">
        <ele>955</ele>
        <time>2009-07-09T07:15:20Z</time>
      </trkpt>
      <trkpt lat="44.1151" lon="3.44638">
        <ele>958</ele>
        <time>2009-07-09T07:15:31Z</time>
      </trkpt>
      <trkpt lat="44.11528" lon="3.44665">
        <ele>960</ele>
        <time>2009-07-09T07:15:45Z</time>
      </trkpt>
      <trkpt lat="44.11541" lon="3.44701">
        <ele>963</ele>
        <time>2009-07-09T07:16:01Z</time>
      </trkpt>
      <trkpt lat="44.11558" lon="3.44726">
        <ele>965</ele>
        <time>2009-07-09T07:16:17Z</time>
      </trkpt>
      <trkpt lat="44.11562" lon="3.44733">
        <ele>965</ele>
        <time>2009-07-09T07:16:21Z</time>
      </trkpt>
      <trkpt lat="44.11586" lon="3.44749">
        <ele>967</ele>
        <time>2009-07-09T07:16:38Z</time>
      </trkpt>
      <trkpt lat="44.11588" lon="3.4475">
        <ele>966</ele>
        <time>2009-07-09T07:17:13Z</time>
      </trkpt>
      <trkpt lat="44.11589" lon="3.44753">
        <ele>966</ele>
        <time>2009-07-09T07:17:29Z</time>
      </trkpt>
      <trkpt lat="44.11597" lon="3.44757">
        <ele>966</ele>
        <time>2009-07-09T07:17:33Z</time>
      </trkpt>
      <trkpt lat="44.11634" lon="3.44789">
        <ele>964</ele>
        <time>2009-07-09T07:17:46Z</time>
      </trkpt>
      <trkpt lat="44.11653" lon="3.44812">
        <ele>963</ele>
        <time>2009-07-09T07:17:52Z</time>
      </trkpt>
      <trkpt lat="44.11651" lon="3.44831">
        <ele>963</ele>
        <time>2009-07-09T07:17:56Z</time>
      </trkpt>
      <trkpt lat="44.11633" lon="3.44914">
        <ele>962</ele>
        <time>2009-07-09T07:18:08Z</time>
      </trkpt>
      <trkpt lat="44.11633" lon="3.44935">
        <ele>960</ele>
        <time>2009-07-09T07:18:11Z</time>
      </trkpt>
      <trkpt lat="44.11639" lon="3.44954">
        <ele>961</ele>
        <time>2009-07-09T07:18:14Z</time>
      </trkpt>
      <trkpt lat="44.11644" lon="3.44965">
        <ele>960</ele>
        <time>2009-07-09T07:18:16Z</time>
      </trkpt>
      <trkpt lat="44.1167" lon="3.44994">
        <ele>960</ele>
        <time>2009-07-09T07:18:23Z</time>
      </trkpt>
      <trkpt lat="44.11698" lon="3.45014">
        <ele>959</ele>
        <time>2009-07-09T07:18:29Z</time>
      </trkpt>
      <trkpt lat="44.11707" lon="3.45022">
        <ele>959</ele>
        <time>2009-07-09T07:18:31Z</time>
      </trkpt>
      <trkpt lat="44.11732" lon="3.4504">
        <ele>958</ele>
        <time>2009-07-09T07:18:36Z</time>
      </trkpt>
      <trkpt lat="44.11745" lon="3.45053">
        <ele>957</ele>
        <time>2009-07-09T07:18:39Z</time>
      </trkpt>
      <trkpt lat="44.11788" lon="3.45086">
        <ele>956</ele>
        <time>2009-07-09T07:18:48Z</time>
      </trkpt>
      <trkpt lat="44.11804" lon="3.45103">
        <ele>955</ele>
        <time>2009-07-09T07:18:52Z</time>
      </trkpt>
      <trkpt lat="44.11848" lon="3.45137">
        <ele>956</ele>
        <time>2009-07-09T07:19:04Z</time>
      </trkpt>
      <trkpt lat="44.11874" lon="3.45155">
        <ele>955</ele>
        <time>2009-07-09T07:19:11Z</time>
      </trkpt>
      <trkpt lat="44.11873" lon="3.45189">
        <ele>954</ele>
        <time>2009-07-09T07:19:18Z</time>
      </trkpt>
      <trkpt lat="44.11862" lon="3.45193">
        <ele>954</ele>
        <time>2009-07-09T07:19:21Z</time>
      </trkpt>
      <trkpt lat="44.11853" lon="3.45196">
        <ele>954</ele>
        <time>2009-07-09T07:19:25Z</time>
      </trkpt>
      <trkpt lat="44.11851" lon="3.45199">
        <ele>954</ele>
        <time>2009-07-09T07:19:27Z</time>
      </trkpt>
      <trkpt lat="44.11844" lon="3.45204">
        <ele>954</ele>
        <time>2009-07-09T07:19:31Z</time>
      </trkpt>
      <trkpt lat="44.11799" lon="3.45212">
        <ele>956</ele>
        <time>2009-07-09T07:19:45Z</time>
      </trkpt>
      <trkpt lat="44.11759" lon="3.45212">
        <ele>958</ele>
        <time>2009-07-09T07:19:59Z</time>
      </trkpt>
      <trkpt lat="44.11723" lon="3.45213">
        <ele>960</ele>
        <time>2009-07-09T07:20:11Z</time>
      </trkpt>
      <trkpt lat="44.11685" lon="3.45218">
        <ele>961</ele>
        <time>2009-07-09T07:20:24Z</time>
      </trkpt>
      <trkpt lat="44.11645" lon="3.4522">
        <ele>963</ele>
        <time>2009-07-09T07:20:38Z</time>
      </trkpt>
      <trkpt lat="44.11604" lon="3.45222">
        <ele>964</ele>
        <time>2009-07-09T07:20:52Z</time>
      </trkpt>
      <trkpt lat="44.11563" lon="3.45243">
        <ele>965</ele>
        <time>2009-07-09T07:21:08Z</time>
      </trkpt>
      <trkpt lat="44.11546" lon="3.45285">
        <ele>968</ele>
        <time>2009-07-09T07:21:24Z</time>
      </trkpt>
      <trkpt lat="44.11543" lon="3.45298">
        <ele>970</ele>
        <time>2009-07-09T07:21:29Z</time>
      </trkpt>
      <trkpt lat="44.11538" lon="3.45321">
        <ele>974</ele>
        <time>2009-07-09T07:21:38Z</time>
      </trkpt>
      <trkpt lat="44.11535" lon="3.45336">
        <ele>975</ele>
        <time>2009-07-09T07:21:43Z</time>
      </trkpt>
      <trkpt lat="44.11523" lon="3.45378">
        <ele>978</ele>
        <time>2009-07-09T07:21:59Z</time>
      </trkpt>
      <trkpt lat="44.11517" lon="3.45411">
        <ele>980</ele>
        <time>2009-07-09T07:22:11Z</time>
      </trkpt>
      <trkpt lat="44.11506" lon="3.4546">
        <ele>981</ele>
        <time>2009-07-09T07:22:26Z</time>
      </trkpt>
      <trkpt lat="44.11501" lon="3.45527">
        <ele>982</ele>
        <time>2009-07-09T07:22:43Z</time>
      </trkpt>
      <trkpt lat="44.11503" lon="3.45612">
        <ele>983</ele>
        <time>2009-07-09T07:23:04Z</time>
      </trkpt>
      <trkpt lat="44.11515" lon="3.45679">
        <ele>982</ele>
        <time>2009-07-09T07:23:21Z</time>
      </trkpt>
      <trkpt lat="44.11523" lon="3.45693">
        <ele>981</ele>
        <time>2009-07-09T07:23:25Z</time>
      </trkpt>
      <trkpt lat="44.11548" lon="3.45696">
        <ele>983</ele>
        <time>2009-07-09T07:23:38Z</time>
      </trkpt>
      <trkpt lat="44.1155" lon="3.45696">
        <ele>984</ele>
        <time>2009-07-09T07:23:39Z</time>
      </trkpt>
      <trkpt lat="44.11589" lon="3.45697">
        <ele>985</ele>
        <time>2009-07-09T07:23:56Z</time>
      </trkpt>
      <trkpt lat="44.11617" lon="3.4571">
        <ele>989</ele>
        <time>2009-07-09T07:24:08Z</time>
      </trkpt>
      <trkpt lat="44.11653" lon="3.45726">
        <ele>990</ele>
        <time>2009-07-09T07:24:24Z</time>
      </trkpt>
      <trkpt lat="44.11679" lon="3.45733">
        <ele>991</ele>
        <time>2009-07-09T07:24:36Z</time>
      </trkpt>
      <trkpt lat="44.11706" lon="3.45744">
        <ele>994</ele>
        <time>2009-07-09T07:24:48Z</time>
      </trkpt>
      <trkpt lat="44.11735" lon="3.45755">
        <ele>995</ele>
        <time>2009-07-09T07:25:00Z</time>
      </trkpt>
      <trkpt lat="44.11764" lon="3.45775">
        <ele>998</ele>
        <time>2009-07-09T07:25:14Z</time>
      </trkpt>
      <trkpt lat="44.11783" lon="3.45792">
        <ele>1001</ele>
        <time>2009-07-09T07:25:24Z</time>
      </trkpt>
      <trkpt lat="44.11806" lon="3.45809">
        <ele>1004</ele>
        <time>2009-07-09T07:25:36Z</time>
      </trkpt>
      <trkpt lat="44.11832" lon="3.45835">
        <ele>1005</ele>
        <time>2009-07-09T07:25:51Z</time>
      </trkpt>
      <trkpt lat="44.11858" lon="3.45861">
        <ele>1006</ele>
        <time>2009-07-09T07:26:05Z</time>
      </trkpt>
      <trkpt lat="44.11882" lon="3.4588">
        <ele>1010</ele>
        <time>2009-07-09T07:26:17Z</time>
      </trkpt>
      <trkpt lat="44.1189" lon="3.45893">
        <ele>1008</ele>
        <time>2009-07-09T07:26:26Z</time>
      </trkpt>
      <trkpt lat="44.11891" lon="3.45897">
        <ele>1007</ele>
        <time>2009-07-09T07:26:27Z</time>
      </trkpt>
      <trkpt lat="44.11902" lon="3.45921">
        <ele>1008</ele>
        <time>2009-07-09T07:26:33Z</time>
      </trkpt>
      <trkpt lat="44.11896" lon="3.45936">
        <ele>1009</ele>
        <time>2009-07-09T07:26:42Z</time>
      </trkpt>
      <trkpt lat="44.11896" lon="3.45943">
        <ele>1011</ele>
        <time>2009-07-09T07:26:46Z</time>
      </trkpt>
      <trkpt lat="44.11896" lon="3.45948">
        <ele>1011</ele>
        <time>2009-07-09T07:26:48Z</time>
      </trkpt>
      <trkpt lat="44.11893" lon="3.45973">
        <ele>1013</ele>
        <time>2009-07-09T07:27:00Z</time>
      </trkpt>
      <trkpt lat="44.11883" lon="3.45984">
        <ele>1017</ele>
        <time>2009-07-09T07:27:09Z</time>
      </trkpt>
      <trkpt lat="44.11857" lon="3.45984">
        <ele>1018</ele>
        <time>2009-07-09T07:27:23Z</time>
      </trkpt>
      <trkpt lat="44.11834" lon="3.45988">
        <ele>1019</ele>
        <time>2009-07-09T07:27:36Z</time>
      </trkpt>
      <trkpt lat="44.11808" lon="3.45993">
        <ele>1020</ele>
        <time>2009-07-09T07:27:48Z</time>
      </trkpt>
      <trkpt lat="44.11773" lon="3.46004">
        <ele>1021</ele>
        <time>2009-07-09T07:28:03Z</time>
      </trkpt>
      <trkpt lat="44.11742" lon="3.46017">
        <ele>1023</ele>
        <time>2009-07-09T07:28:17Z</time>
      </trkpt>
      <trkpt lat="44.11712" lon="3.46031">
        <ele>1024</ele>
        <time>2009-07-09T07:28:30Z</time>
      </trkpt>
      <trkpt lat="44.11677" lon="3.46045">
        <ele>1026</ele>
        <time>2009-07-09T07:28:45Z</time>
      </trkpt>
      <trkpt lat="44.11653" lon="3.46063">
        <ele>1027</ele>
        <time>2009-07-09T07:28:57Z</time>
      </trkpt>
      <trkpt lat="44.11631" lon="3.46094">
        <ele>1030</ele>
        <time>2009-07-09T07:29:10Z</time>
      </trkpt>
      <trkpt lat="44.11639" lon="3.46128">
        <ele>1030</ele>
        <time>2009-07-09T07:29:22Z</time>
      </trkpt>
      <trkpt lat="44.11667" lon="3.4616">
        <ele>1031</ele>
        <time>2009-07-09T07:29:38Z</time>
      </trkpt>
      <trkpt lat="44.11688" lon="3.46182">
        <ele>1033</ele>
        <time>2009-07-09T07:29:51Z</time>
      </trkpt>
      <trkpt lat="44.11716" lon="3.46205">
        <ele>1035</ele>
        <time>2009-07-09T07:30:05Z</time>
      </trkpt>
      <trkpt lat="44.11749" lon="3.46229">
        <ele>1036</ele>
        <time>2009-07-09T07:30:21Z</time>
      </trkpt>
      <trkpt lat="44.1177" lon="3.46251">
        <ele>1038</ele>
        <time>2009-07-09T07:30:33Z</time>
      </trkpt>
      <trkpt lat="44.11792" lon="3.46273">
        <ele>1039</ele>
        <time>2009-07-09T07:30:45Z</time>
      </trkpt>
      <trkpt lat="44.11819" lon="3.46301">
        <ele>1041</ele>
        <time>2009-07-09T07:31:00Z</time>
      </trkpt>
      <trkpt lat="44.11837" lon="3.46331">
        <ele>1043</ele>
        <time>2009-07-09T07:31:12Z</time>
      </trkpt>
      <trkpt lat="44.11846" lon="3.46356">
        <ele>1044</ele>
        <time>2009-07-09T07:31:20Z</time>
      </trkpt>
      <trkpt lat="44.1186" lon="3.4638">
        <ele>1044</ele>
        <time>2009-07-09T07:31:32Z</time>
      </trkpt>
      <trkpt lat="44.11867" lon="3.46378">
        <ele>1044</ele>
        <time>2009-07-09T07:31:57Z</time>
      </trkpt>
      <trkpt lat="44.11861" lon="3.46386">
        <ele>1044</ele>
        <time>2009-07-09T07:32:34Z</time>
      </trkpt>
      <trkpt lat="44.11875" lon="3.46402">
        <ele>1046</ele>
        <time>2009-07-09T07:35:08Z</time>
      </trkpt>
      <trkpt lat="44.11897" lon="3.46428">
        <ele>1048</ele>
        <time>2009-07-09T07:35:22Z</time>
      </trkpt>
      <trkpt lat="44.11919" lon="3.4645">
        <ele>1049</ele>
        <time>2009-07-09T07:35:34Z</time>
      </trkpt>
      <trkpt lat="44.11945" lon="3.46463">
        <ele>1050</ele>
        <time>2009-07-09T07:35:44Z</time>
      </trkpt>
      <trkpt lat="44.11973" lon="3.4648">
        <ele>1051</ele>
        <time>2009-07-09T07:35:56Z</time>
      </trkpt>
      <trkpt lat="44.11986" lon="3.46484">
        <ele>1056</ele>
        <time>2009-07-09T07:36:06Z</time>
      </trkpt>
      <trkpt lat="44.11986" lon="3.46484">
        <ele>1052</ele>
        <time>2009-07-09T07:36:07Z</time>
      </trkpt>
      <trkpt lat="44.11991" lon="3.46484">
        <ele>1053</ele>
        <time>2009-07-09T07:36:21Z</time>
      </trkpt>
      <trkpt lat="44.12005" lon="3.46483">
        <ele>1054</ele>
        <time>2009-07-09T07:36:32Z</time>
      </trkpt>
      <trkpt lat="44.12024" lon="3.46482">
        <ele>1055</ele>
        <time>2009-07-09T07:36:42Z</time>
      </trkpt>
      <trkpt lat="44.12051" lon="3.46473">
        <ele>1056</ele>
        <time>2009-07-09T07:36:53Z</time>
      </trkpt>
      <trkpt lat="44.12067" lon="3.46469">
        <ele>1057</ele>
        <time>2009-07-09T07:36:59Z</time>
      </trkpt>
      <trkpt lat="44.12099" lon="3.4647">
        <ele>1059</ele>
        <time>2009-07-09T07:37:12Z</time>
      </trkpt>
      <trkpt lat="44.12126" lon="3.46468">
        <ele>1060</ele>
        <time>2009-07-09T07:37:22Z</time>
      </trkpt>
      <trkpt lat="44.12155" lon="3.46469">
        <ele>1062</ele>
        <time>2009-07-09T07:37:33Z</time>
      </trkpt>
      <trkpt lat="44.12183" lon="3.46471">
        <ele>1062</ele>
        <time>2009-07-09T07:37:44Z</time>
      </trkpt>
      <trkpt lat="44.12203" lon="3.46472">
        <ele>1062</ele>
        <time>2009-07-09T07:37:52Z</time>
      </trkpt>
      <trkpt lat="44.12208" lon="3.46473">
        <ele>1064</ele>
        <time>2009-07-09T07:37:55Z</time>
      </trkpt>
      <trkpt lat="44.12222" lon="3.4648">
        <ele>1065</ele>
        <time>2009-07-09T07:38:02Z</time>
      </trkpt>
      <trkpt lat="44.12228" lon="3.46485">
        <ele>1066</ele>
        <time>2009-07-09T07:38:06Z</time>
      </trkpt>
      <trkpt lat="44.12232" lon="3.4649">
        <ele>1068</ele>
        <time>2009-07-09T07:38:09Z</time>
      </trkpt>
      <trkpt lat="44.12247" lon="3.46504">
        <ele>1070</ele>
        <time>2009-07-09T07:38:19Z</time>
      </trkpt>
      <trkpt lat="44.12236" lon="3.46537">
        <ele>1071</ele>
        <time>2009-07-09T07:38:35Z</time>
      </trkpt>
      <trkpt lat="44.1223" lon="3.46547">
        <ele>1071</ele>
        <time>2009-07-09T07:38:39Z</time>
      </trkpt>
      <trkpt lat="44.12212" lon="3.4658">
        <ele>1072</ele>
        <time>2009-07-09T07:38:52Z</time>
      </trkpt>
      <trkpt lat="44.12211" lon="3.46582">
        <ele>1072</ele>
        <time>2009-07-09T07:38:53Z</time>
      </trkpt>
      <trkpt lat="44.12218" lon="3.46592">
        <ele>1075</ele>
        <time>2009-07-09T07:39:01Z</time>
      </trkpt>
      <trkpt lat="44.12222" lon="3.4659">
        <ele>1078</ele>
        <time>2009-07-09T07:39:04Z</time>
      </trkpt>
      <trkpt lat="44.12233" lon="3.46602">
        <ele>1078</ele>
        <time>2009-07-09T07:39:14Z</time>
      </trkpt>
      <trkpt lat="44.12235" lon="3.46601">
        <ele>1078</ele>
        <time>2009-07-09T07:39:29Z</time>
      </trkpt>
      <trkpt lat="44.12235" lon="3.46604">
        <ele>1078</ele>
        <time>2009-07-09T07:39:51Z</time>
      </trkpt>
      <trkpt lat="44.12246" lon="3.46604">
        <ele>1078</ele>
        <time>2009-07-09T07:40:45Z</time>
      </trkpt>
      <trkpt lat="44.12248" lon="3.46597">
        <ele>1078</ele>
        <time>2009-07-09T07:41:02Z</time>
      </trkpt>
      <trkpt lat="44.12242" lon="3.46599">
        <ele>1078</ele>
        <time>2009-07-09T07:41:42Z</time>
      </trkpt>
      <trkpt lat="44.12238" lon="3.46605">
        <ele>1078</ele>
        <time>2009-07-09T07:42:01Z</time>
      </trkpt>
      <trkpt lat="44.12243" lon="3.46618">
        <ele>1077</ele>
        <time>2009-07-09T07:42:05Z</time>
      </trkpt>
      <trkpt lat="44.12245" lon="3.46623">
        <ele>1076</ele>
        <time>2009-07-09T07:42:06Z</time>
      </trkpt>
      <trkpt lat="44.12256" lon="3.46636">
        <ele>1074</ele>
        <time>2009-07-09T07:42:09Z</time>
      </trkpt>
      <trkpt lat="44.12265" lon="3.46643">
        <ele>1074</ele>
        <time>2009-07-09T07:42:11Z</time>
      </trkpt>
      <trkpt lat="44.12284" lon="3.46646">
        <ele>1074</ele>
        <time>2009-07-09T07:42:15Z</time>
      </trkpt>
      <trkpt lat="44.12313" lon="3.46658">
        <ele>1074</ele>
        <time>2009-07-09T07:42:25Z</time>
      </trkpt>
      <trkpt lat="44.12304" lon="3.46691">
        <ele>1074</ele>
        <time>2009-07-09T07:42:33Z</time>
      </trkpt>
      <trkpt lat="44.12315" lon="3.46712">
        <ele>1075</ele>
        <time>2009-07-09T07:42:40Z</time>
      </trkpt>
      <trkpt lat="44.12323" lon="3.46726">
        <ele>1075</ele>
        <time>2009-07-09T07:42:45Z</time>
      </trkpt>
      <trkpt lat="44.12331" lon="3.46738">
        <ele>1075</ele>
        <time>2009-07-09T07:42:50Z</time>
      </trkpt>
      <trkpt lat="44.1233" lon="3.46747">
        <ele>1075</ele>
        <time>2009-07-09T07:42:53Z</time>
      </trkpt>
      <trkpt lat="44.12315" lon="3.46768">
        <ele>1077</ele>
        <time>2009-07-09T07:43:04Z</time>
      </trkpt>
      <trkpt lat="44.12311" lon="3.46775">
        <ele>1076</ele>
        <time>2009-07-09T07:43:10Z</time>
      </trkpt>
      <trkpt lat="44.12323" lon="3.46794">
        <ele>1077</ele>
        <time>2009-07-09T07:43:16Z</time>
      </trkpt>
      <trkpt lat="44.1233" lon="3.46809">
        <ele>1077</ele>
        <time>2009-07-09T07:43:23Z</time>
      </trkpt>
      <trkpt lat="44.12328" lon="3.46816">
        <ele>1077</ele>
        <time>2009-07-09T07:43:26Z</time>
      </trkpt>
      <trkpt lat="44.12308" lon="3.46844">
        <ele>1079</ele>
        <time>2009-07-09T07:43:35Z</time>
      </trkpt>
      <trkpt lat="44.12306" lon="3.4685">
        <ele>1079</ele>
        <time>2009-07-09T07:43:37Z</time>
      </trkpt>
      <trkpt lat="44.12309" lon="3.46863">
        <ele>1080</ele>
        <time>2009-07-09T07:43:41Z</time>
      </trkpt>
      <trkpt lat="44.12331" lon="3.46903">
        <ele>1081</ele>
        <time>2009-07-09T07:43:55Z</time>
      </trkpt>
      <trkpt lat="44.12332" lon="3.46906">
        <ele>1081</ele>
        <time>2009-07-09T07:43:56Z</time>
      </trkpt>
      <trkpt lat="44.12344" lon="3.46922">
        <ele>1082</ele>
        <time>2009-07-09T07:44:03Z</time>
      </trkpt>
      <trkpt lat="44.12344" lon="3.4693">
        <ele>1082</ele>
        <time>2009-07-09T07:44:06Z</time>
      </trkpt>
      <trkpt lat="44.12328" lon="3.46941">
        <ele>1081</ele>
        <time>2009-07-09T07:44:12Z</time>
      </trkpt>
      <trkpt lat="44.12323" lon="3.46969">
        <ele>1082</ele>
        <time>2009-07-09T07:44:19Z</time>
      </trkpt>
      <trkpt lat="44.12321" lon="3.47019">
        <ele>1083</ele>
        <time>2009-07-09T07:44:31Z</time>
      </trkpt>
      <trkpt lat="44.12321" lon="3.47028">
        <ele>1083</ele>
        <time>2009-07-09T07:44:33Z</time>
      </trkpt>
      <trkpt lat="44.12318" lon="3.47044">
        <ele>1084</ele>
        <time>2009-07-09T07:44:37Z</time>
      </trkpt>
      <trkpt lat="44.12308" lon="3.47057">
        <ele>1084</ele>
        <time>2009-07-09T07:44:42Z</time>
      </trkpt>
      <trkpt lat="44.12294" lon="3.47085">
        <ele>1085</ele>
        <time>2009-07-09T07:44:50Z</time>
      </trkpt>
      <trkpt lat="44.12293" lon="3.47112">
        <ele>1086</ele>
        <time>2009-07-09T07:44:58Z</time>
      </trkpt>
      <trkpt lat="44.1231" lon="3.47144">
        <ele>1087</ele>
        <time>2009-07-09T07:45:08Z</time>
      </trkpt>
      <trkpt lat="44.12321" lon="3.47178">
        <ele>1088</ele>
        <time>2009-07-09T07:45:18Z</time>
      </trkpt>
      <trkpt lat="44.12333" lon="3.4719">
        <ele>1089</ele>
        <time>2009-07-09T07:45:23Z</time>
      </trkpt>
      <trkpt lat="44.12336" lon="3.47201">
        <ele>1089</ele>
        <time>2009-07-09T07:45:28Z</time>
      </trkpt>
      <trkpt lat="44.12313" lon="3.47236">
        <ele>1091</ele>
        <time>2009-07-09T07:45:38Z</time>
      </trkpt>
      <trkpt lat="44.12311" lon="3.4724">
        <ele>1090</ele>
        <time>2009-07-09T07:45:39Z</time>
      </trkpt>
      <trkpt lat="44.12314" lon="3.47271">
        <ele>1091</ele>
        <time>2009-07-09T07:45:46Z</time>
      </trkpt>
      <trkpt lat="44.12315" lon="3.47311">
        <ele>1092</ele>
        <time>2009-07-09T07:45:55Z</time>
      </trkpt>
      <trkpt lat="44.12314" lon="3.47318">
        <ele>1092</ele>
        <time>2009-07-09T07:45:56Z</time>
      </trkpt>
      <trkpt lat="44.12319" lon="3.47336">
        <ele>1092</ele>
        <time>2009-07-09T07:46:00Z</time>
      </trkpt>
      <trkpt lat="44.12336" lon="3.47351">
        <ele>1094</ele>
        <time>2009-07-09T07:46:07Z</time>
      </trkpt>
      <trkpt lat="44.1234" lon="3.47361">
        <ele>1094</ele>
        <time>2009-07-09T07:46:11Z</time>
      </trkpt>
      <trkpt lat="44.12342" lon="3.47377">
        <ele>1094</ele>
        <time>2009-07-09T07:46:15Z</time>
      </trkpt>
      <trkpt lat="44.12337" lon="3.47423">
        <ele>1095</ele>
        <time>2009-07-09T07:46:25Z</time>
      </trkpt>
      <trkpt lat="44.12335" lon="3.47468">
        <ele>1097</ele>
        <time>2009-07-09T07:46:35Z</time>
      </trkpt>
      <trkpt lat="44.12335" lon="3.47505">
        <ele>1097</ele>
        <time>2009-07-09T07:46:44Z</time>
      </trkpt>
      <trkpt lat="44.12338" lon="3.47507">
        <ele>1097</ele>
        <time>2009-07-09T07:46:45Z</time>
      </trkpt>
      <trkpt lat="44.12354" lon="3.47509">
        <ele>1097</ele>
        <time>2009-07-09T07:46:50Z</time>
      </trkpt>
      <trkpt lat="44.12374" lon="3.47521">
        <ele>1098</ele>
        <time>2009-07-09T07:46:58Z</time>
      </trkpt>
      <trkpt lat="44.12365" lon="3.47545">
        <ele>1098</ele>
        <time>2009-07-09T07:47:07Z</time>
      </trkpt>
      <trkpt lat="44.12345" lon="3.47588">
        <ele>1098</ele>
        <time>2009-07-09T07:47:19Z</time>
      </trkpt>
      <trkpt lat="44.12347" lon="3.47605">
        <ele>1099</ele>
        <time>2009-07-09T07:47:23Z</time>
      </trkpt>
      <trkpt lat="44.12348" lon="3.47627">
        <ele>1099</ele>
        <time>2009-07-09T07:47:28Z</time>
      </trkpt>
      <trkpt lat="44.12318" lon="3.47651">
        <ele>1101</ele>
        <time>2009-07-09T07:47:39Z</time>
      </trkpt>
      <trkpt lat="44.12317" lon="3.47666">
        <ele>1102</ele>
        <time>2009-07-09T07:47:43Z</time>
      </trkpt>
      <trkpt lat="44.12309" lon="3.47706">
        <ele>1103</ele>
        <time>2009-07-09T07:47:53Z</time>
      </trkpt>
      <trkpt lat="44.123" lon="3.47716">
        <ele>1103</ele>
        <time>2009-07-09T07:47:57Z</time>
      </trkpt>
      <trkpt lat="44.12272" lon="3.47744">
        <ele>1104</ele>
        <time>2009-07-09T07:48:08Z</time>
      </trkpt>
      <trkpt lat="44.12271" lon="3.47751">
        <ele>1104</ele>
        <time>2009-07-09T07:48:10Z</time>
      </trkpt>
      <trkpt lat="44.12276" lon="3.47762">
        <ele>1104</ele>
        <time>2009-07-09T07:48:14Z</time>
      </trkpt>
      <trkpt lat="44.12278" lon="3.47768">
        <ele>1104</ele>
        <time>2009-07-09T07:48:16Z</time>
      </trkpt>
      <trkpt lat="44.12274" lon="3.47782">
        <ele>1104</ele>
        <time>2009-07-09T07:48:20Z</time>
      </trkpt>
      <trkpt lat="44.12268" lon="3.47811">
        <ele>1106</ele>
        <time>2009-07-09T07:48:27Z</time>
      </trkpt>
      <trkpt lat="44.12261" lon="3.47822">
        <ele>1106</ele>
        <time>2009-07-09T07:48:30Z</time>
      </trkpt>
      <trkpt lat="44.12243" lon="3.47838">
        <ele>1107</ele>
        <time>2009-07-09T07:48:38Z</time>
      </trkpt>
      <trkpt lat="44.12233" lon="3.47849">
        <ele>1108</ele>
        <time>2009-07-09T07:48:43Z</time>
      </trkpt>
      <trkpt lat="44.12227" lon="3.47859">
        <ele>1109</ele>
        <time>2009-07-09T07:48:46Z</time>
      </trkpt>
      <trkpt lat="44.12203" lon="3.47859">
        <ele>1111</ele>
        <time>2009-07-09T07:48:57Z</time>
      </trkpt>
      <trkpt lat="44.12197" lon="3.47858">
        <ele>1111</ele>
        <time>2009-07-09T07:49:02Z</time>
      </trkpt>
      <trkpt lat="44.1219" lon="3.47856">
        <ele>1112</ele>
        <time>2009-07-09T07:49:08Z</time>
      </trkpt>
      <trkpt lat="44.12184" lon="3.47857">
        <ele>1111</ele>
        <time>2009-07-09T07:49:12Z</time>
      </trkpt>
      <trkpt lat="44.12159" lon="3.47881">
        <ele>1113</ele>
        <time>2009-07-09T07:49:24Z</time>
      </trkpt>
      <trkpt lat="44.12136" lon="3.47911">
        <ele>1114</ele>
        <time>2009-07-09T07:49:34Z</time>
      </trkpt>
      <trkpt lat="44.12132" lon="3.47921">
        <ele>1114</ele>
        <time>2009-07-09T07:49:37Z</time>
      </trkpt>
      <trkpt lat="44.12122" lon="3.47937">
        <ele>1114</ele>
        <time>2009-07-09T07:49:50Z</time>
      </trkpt>
      <trkpt lat="44.12118" lon="3.47954">
        <ele>1114</ele>
        <time>2009-07-09T07:50:26Z</time>
      </trkpt>
      <trkpt lat="44.12117" lon="3.4795">
        <ele>1114</ele>
        <time>2009-07-09T07:51:58Z</time>
      </trkpt>
      <trkpt lat="44.12116" lon="3.47945">
        <ele>1114</ele>
        <time>2009-07-09T07:52:46Z</time>
      </trkpt>
      <trkpt lat="44.12114" lon="3.47949">
        <ele>1114</ele>
        <time>2009-07-09T07:53:11Z</time>
      </trkpt>
      <trkpt lat="44.12101" lon="3.47947">
        <ele>1114</ele>
        <time>2009-07-09T07:53:18Z</time>
      </trkpt>
      <trkpt lat="44.12084" lon="3.47945">
        <ele>1110</ele>
        <time>2009-07-09T07:53:23Z</time>
      </trkpt>
      <trkpt lat="44.12079" lon="3.47944">
        <ele>1110</ele>
        <time>2009-07-09T07:53:24Z</time>
      </trkpt>
      <trkpt lat="44.12047" lon="3.47941">
        <ele>1109</ele>
        <time>2009-07-09T07:53:37Z</time>
      </trkpt>
      <trkpt lat="44.12043" lon="3.47941">
        <ele>1108</ele>
        <time>2009-07-09T07:53:49Z</time>
      </trkpt>
      <trkpt lat="44.12029" lon="3.47941">
        <ele>1107</ele>
        <time>2009-07-09T07:54:00Z</time>
      </trkpt>
      <trkpt lat="44.12022" lon="3.4794">
        <ele>1108</ele>
        <time>2009-07-09T07:54:03Z</time>
      </trkpt>
      <trkpt lat="44.12011" lon="3.47943">
        <ele>1106</ele>
        <time>2009-07-09T07:54:10Z</time>
      </trkpt>
      <trkpt lat="44.1199" lon="3.47959">
        <ele>1110</ele>
        <time>2009-07-09T07:54:21Z</time>
      </trkpt>
      <trkpt lat="44.11988" lon="3.47961">
        <ele>1110</ele>
        <time>2009-07-09T07:54:22Z</time>
      </trkpt>
      <trkpt lat="44.11964" lon="3.47978">
        <ele>1110</ele>
        <time>2009-07-09T07:54:34Z</time>
      </trkpt>
      <trkpt lat="44.11922" lon="3.47983">
        <ele>1109</ele>
        <time>2009-07-09T07:54:48Z</time>
      </trkpt>
      <trkpt lat="44.11912" lon="3.4799">
        <ele>1108</ele>
        <time>2009-07-09T07:54:52Z</time>
      </trkpt>
      <trkpt lat="44.11904" lon="3.48021">
        <ele>1107</ele>
        <time>2009-07-09T07:54:57Z</time>
      </trkpt>
      <trkpt lat="44.11897" lon="3.48063">
        <ele>1107</ele>
        <time>2009-07-09T07:55:06Z</time>
      </trkpt>
      <trkpt lat="44.11901" lon="3.48096">
        <ele>1108</ele>
        <time>2009-07-09T07:55:15Z</time>
      </trkpt>
      <trkpt lat="44.11915" lon="3.48135">
        <ele>1112</ele>
        <time>2009-07-09T07:55:28Z</time>
      </trkpt>
      <trkpt lat="44.11937" lon="3.48172">
        <ele>1113</ele>
        <time>2009-07-09T07:55:41Z</time>
      </trkpt>
      <trkpt lat="44.11964" lon="3.48204">
        <ele>1114</ele>
        <time>2009-07-09T07:55:55Z</time>
      </trkpt>
      <trkpt lat="44.12011" lon="3.48235">
        <ele>1115</ele>
        <time>2009-07-09T07:56:14Z</time>
      </trkpt>
      <trkpt lat="44.12052" lon="3.48252">
        <ele>1117</ele>
        <time>2009-07-09T07:56:30Z</time>
      </trkpt>
      <trkpt lat="44.1208" lon="3.48275">
        <ele>1120</ele>
        <time>2009-07-09T07:56:44Z</time>
      </trkpt>
      <trkpt lat="44.121" lon="3.48334">
        <ele>1122</ele>
        <time>2009-07-09T07:57:03Z</time>
      </trkpt>
      <trkpt lat="44.12109" lon="3.4836">
        <ele>1125</ele>
        <time>2009-07-09T07:57:12Z</time>
      </trkpt>
      <trkpt lat="44.12116" lon="3.48372">
        <ele>1126</ele>
        <time>2009-07-09T07:57:17Z</time>
      </trkpt>
      <trkpt lat="44.12119" lon="3.48391">
        <ele>1126</ele>
        <time>2009-07-09T07:57:23Z</time>
      </trkpt>
      <trkpt lat="44.12141" lon="3.48431">
        <ele>1128</ele>
        <time>2009-07-09T07:57:41Z</time>
      </trkpt>
      <trkpt lat="44.1216" lon="3.48457">
        <ele>1131</ele>
        <time>2009-07-09T07:57:53Z</time>
      </trkpt>
      <trkpt lat="44.12173" lon="3.48454">
        <ele>1134</ele>
        <time>2009-07-09T07:57:59Z</time>
      </trkpt>
      <trkpt lat="44.12175" lon="3.48453">
        <ele>1134</ele>
        <time>2009-07-09T07:58:00Z</time>
      </trkpt>
      <trkpt lat="44.12181" lon="3.48422">
        <ele>1135</ele>
        <time>2009-07-09T07:58:13Z</time>
      </trkpt>
      <trkpt lat="44.1217" lon="3.48393">
        <ele>1138</ele>
        <time>2009-07-09T07:58:25Z</time>
      </trkpt>
      <trkpt lat="44.12175" lon="3.48349">
        <ele>1139</ele>
        <time>2009-07-09T07:58:39Z</time>
      </trkpt>
      <trkpt lat="44.12179" lon="3.48335">
        <ele>1142</ele>
        <time>2009-07-09T07:58:44Z</time>
      </trkpt>
      <trkpt lat="44.12208" lon="3.48296">
        <ele>1145</ele>
        <time>2009-07-09T07:59:02Z</time>
      </trkpt>
      <trkpt lat="44.12228" lon="3.48287">
        <ele>1146</ele>
        <time>2009-07-09T07:59:12Z</time>
      </trkpt>
      <trkpt lat="44.12252" lon="3.48277">
        <ele>1149</ele>
        <time>2009-07-09T07:59:25Z</time>
      </trkpt>
      <trkpt lat="44.12266" lon="3.48291">
        <ele>1153</ele>
        <time>2009-07-09T07:59:35Z</time>
      </trkpt>
      <trkpt lat="44.1227" lon="3.48325">
        <ele>1156</ele>
        <time>2009-07-09T07:59:49Z</time>
      </trkpt>
      <trkpt lat="44.12271" lon="3.48335">
        <ele>1156</ele>
        <time>2009-07-09T08:00:01Z</time>
      </trkpt>
      <trkpt lat="44.12271" lon="3.48333">
        <ele>1156</ele>
        <time>2009-07-09T08:00:26Z</time>
      </trkpt>
      <trkpt lat="44.12269" lon="3.48335">
        <ele>1156</ele>
        <time>2009-07-09T08:00:47Z</time>
      </trkpt>
      <trkpt lat="44.1227" lon="3.48335">
        <ele>1157</ele>
        <time>2009-07-09T08:01:22Z</time>
      </trkpt>
      <trkpt lat="44.12272" lon="3.48336">
        <ele>1156</ele>
        <time>2009-07-09T08:03:52Z</time>
      </trkpt>
      <trkpt lat="44.12275" lon="3.48345">
        <ele>1156</ele>
        <time>2009-07-09T08:03:57Z</time>
      </trkpt>
      <trkpt lat="44.12283" lon="3.48391">
        <ele>1159</ele>
        <time>2009-07-09T08:04:14Z</time>
      </trkpt>
      <trkpt lat="44.12284" lon="3.4843">
        <ele>1162</ele>
        <time>2009-07-09T08:04:28Z</time>
      </trkpt>
      <trkpt lat="44.12294" lon="3.48455">
        <ele>1165</ele>
        <time>2009-07-09T08:04:40Z</time>
      </trkpt>
      <trkpt lat="44.12306" lon="3.48437">
        <ele>1165</ele>
        <time>2009-07-09T08:04:51Z</time>
      </trkpt>
      <trkpt lat="44.12305" lon="3.48415">
        <ele>1166</ele>
        <time>2009-07-09T08:04:59Z</time>
      </trkpt>
      <trkpt lat="44.12308" lon="3.48389">
        <ele>1169</ele>
        <time>2009-07-09T08:05:07Z</time>
      </trkpt>
      <trkpt lat="44.12319" lon="3.48333">
        <ele>1170</ele>
        <time>2009-07-09T08:05:26Z</time>
      </trkpt>
      <trkpt lat="44.1233" lon="3.483">
        <ele>1173</ele>
        <time>2009-07-09T08:05:39Z</time>
      </trkpt>
      <trkpt lat="44.12331" lon="3.48298">
        <ele>1173</ele>
        <time>2009-07-09T08:05:40Z</time>
      </trkpt>
      <trkpt lat="44.12347" lon="3.48248">
        <ele>1174</ele>
        <time>2009-07-09T08:05:58Z</time>
      </trkpt>
      <trkpt lat="44.1235" lon="3.48237">
        <ele>1175</ele>
        <time>2009-07-09T08:06:02Z</time>
      </trkpt>
      <trkpt lat="44.12364" lon="3.48204">
        <ele>1178</ele>
        <time>2009-07-09T08:06:15Z</time>
      </trkpt>
      <trkpt lat="44.12378" lon="3.48153">
        <ele>1179</ele>
        <time>2009-07-09T08:06:33Z</time>
      </trkpt>
      <trkpt lat="44.1239" lon="3.4811">
        <ele>1182</ele>
        <time>2009-07-09T08:06:49Z</time>
      </trkpt>
      <trkpt lat="44.124" lon="3.4808">
        <ele>1182</ele>
        <time>2009-07-09T08:07:01Z</time>
      </trkpt>
      <trkpt lat="44.12402" lon="3.48067">
        <ele>1183</ele>
        <time>2009-07-09T08:07:06Z</time>
      </trkpt>
      <trkpt lat="44.12409" lon="3.48055">
        <ele>1184</ele>
        <time>2009-07-09T08:07:11Z</time>
      </trkpt>
      <trkpt lat="44.12414" lon="3.48061">
        <ele>1184</ele>
        <time>2009-07-09T08:07:15Z</time>
      </trkpt>
      <trkpt lat="44.12417" lon="3.48067">
        <ele>1183</ele>
        <time>2009-07-09T08:07:28Z</time>
      </trkpt>
      <trkpt lat="44.12419" lon="3.48076">
        <ele>1184</ele>
        <time>2009-07-09T08:07:42Z</time>
      </trkpt>
      <trkpt lat="44.12417" lon="3.48078">
        <ele>1184</ele>
        <time>2009-07-09T08:08:00Z</time>
      </trkpt>
      <trkpt lat="44.12414" lon="3.48083">
        <ele>1184</ele>
        <time>2009-07-09T08:08:04Z</time>
      </trkpt>
      <trkpt lat="44.12413" lon="3.48094">
        <ele>1184</ele>
        <time>2009-07-09T08:08:08Z</time>
      </trkpt>
      <trkpt lat="44.12417" lon="3.48139">
        <ele>1185</ele>
        <time>2009-07-09T08:08:24Z</time>
      </trkpt>
      <trkpt lat="44.12416" lon="3.48187">
        <ele>1188</ele>
        <time>2009-07-09T08:08:40Z</time>
      </trkpt>
      <trkpt lat="44.12414" lon="3.48205">
        <ele>1188</ele>
        <time>2009-07-09T08:08:45Z</time>
      </trkpt>
      <trkpt lat="44.12402" lon="3.48237">
        <ele>1191</ele>
        <time>2009-07-09T08:08:58Z</time>
      </trkpt>
      <trkpt lat="44.12399" lon="3.48237">
        <ele>1191</ele>
        <time>2009-07-09T08:09:22Z</time>
      </trkpt>
      <trkpt lat="44.12403" lon="3.48233">
        <ele>1188</ele>
        <time>2009-07-09T08:09:37Z</time>
      </trkpt>
      <trkpt lat="44.12403" lon="3.48233">
        <ele>1194</ele>
        <time>2009-07-09T08:09:39Z</time>
      </trkpt>
      <trkpt lat="44.12402" lon="3.48233">
        <ele>1191</ele>
        <time>2009-07-09T08:09:40Z</time>
      </trkpt>
      <trkpt lat="44.12402" lon="3.48233">
        <ele>1190</ele>
        <time>2009-07-09T08:10:06Z</time>
      </trkpt>
      <trkpt lat="44.12404" lon="3.48228">
        <ele>1190</ele>
        <time>2009-07-09T08:10:27Z</time>
      </trkpt>
      <trkpt lat="44.12415" lon="3.48198">
        <ele>1188</ele>
        <time>2009-07-09T08:10:37Z</time>
      </trkpt>
      <trkpt lat="44.12418" lon="3.48168">
        <ele>1187</ele>
        <time>2009-07-09T08:10:45Z</time>
      </trkpt>
      <trkpt lat="44.12427" lon="3.48165">
        <ele>1187</ele>
        <time>2009-07-09T08:10:53Z</time>
      </trkpt>
      <trkpt lat="44.12421" lon="3.48168">
        <ele>1187</ele>
        <time>2009-07-09T08:10:59Z</time>
      </trkpt>
      <trkpt lat="44.12419" lon="3.48167">
        <ele>1187</ele>
        <time>2009-07-09T08:11:01Z</time>
      </trkpt>
      <trkpt lat="44.12418" lon="3.48156">
        <ele>1186</ele>
        <time>2009-07-09T08:11:05Z</time>
      </trkpt>
      <trkpt lat="44.12418" lon="3.48147">
        <ele>1185</ele>
        <time>2009-07-09T08:11:07Z</time>
      </trkpt>
      <trkpt lat="44.12413" lon="3.48118">
        <ele>1185</ele>
        <time>2009-07-09T08:11:13Z</time>
      </trkpt>
      <trkpt lat="44.12411" lon="3.48088">
        <ele>1183</ele>
        <time>2009-07-09T08:11:18Z</time>
      </trkpt>
      <trkpt lat="44.12422" lon="3.48091">
        <ele>1183</ele>
        <time>2009-07-09T08:11:24Z</time>
      </trkpt>
      <trkpt lat="44.12447" lon="3.4815">
        <ele>1182</ele>
        <time>2009-07-09T08:11:37Z</time>
      </trkpt>
      <trkpt lat="44.12469" lon="3.48208">
        <ele>1181</ele>
        <time>2009-07-09T08:11:50Z</time>
      </trkpt>
      <trkpt lat="44.12478" lon="3.48271">
        <ele>1181</ele>
        <time>2009-07-09T08:12:03Z</time>
      </trkpt>
      <trkpt lat="44.12463" lon="3.48342">
        <ele>1182</ele>
        <time>2009-07-09T08:12:16Z</time>
      </trkpt>
      <trkpt lat="44.12467" lon="3.48365">
        <ele>1179</ele>
        <time>2009-07-09T08:12:20Z</time>
      </trkpt>
      <trkpt lat="44.12485" lon="3.48346">
        <ele>1179</ele>
        <time>2009-07-09T08:12:25Z</time>
      </trkpt>
      <trkpt lat="44.12508" lon="3.48301">
        <ele>1182</ele>
        <time>2009-07-09T08:12:37Z</time>
      </trkpt>
      <trkpt lat="44.12509" lon="3.48298">
        <ele>1182</ele>
        <time>2009-07-09T08:12:38Z</time>
      </trkpt>
      <trkpt lat="44.12528" lon="3.48263">
        <ele>1185</ele>
        <time>2009-07-09T08:12:52Z</time>
      </trkpt>
      <trkpt lat="44.12547" lon="3.48227">
        <ele>1187</ele>
        <time>2009-07-09T08:13:07Z</time>
      </trkpt>
      <trkpt lat="44.12573" lon="3.48207">
        <ele>1187</ele>
        <time>2009-07-09T08:13:21Z</time>
      </trkpt>
      <trkpt lat="44.12612" lon="3.48191">
        <ele>1189</ele>
        <time>2009-07-09T08:13:39Z</time>
      </trkpt>
      <trkpt lat="44.12647" lon="3.4818">
        <ele>1190</ele>
        <time>2009-07-09T08:13:52Z</time>
      </trkpt>
      <trkpt lat="44.12696" lon="3.48178">
        <ele>1192</ele>
        <time>2009-07-09T08:14:12Z</time>
      </trkpt>
      <trkpt lat="44.12738" lon="3.48194">
        <ele>1195</ele>
        <time>2009-07-09T08:14:30Z</time>
      </trkpt>
      <trkpt lat="44.12765" lon="3.48224">
        <ele>1198</ele>
        <time>2009-07-09T08:14:44Z</time>
      </trkpt>
      <trkpt lat="44.12801" lon="3.4825">
        <ele>1200</ele>
        <time>2009-07-09T08:15:01Z</time>
      </trkpt>
      <trkpt lat="44.12849" lon="3.48269">
        <ele>1202</ele>
        <time>2009-07-09T08:15:21Z</time>
      </trkpt>
      <trkpt lat="44.1287" lon="3.48289">
        <ele>1205</ele>
        <time>2009-07-09T08:15:32Z</time>
      </trkpt>
      <trkpt lat="44.12871" lon="3.48292">
        <ele>1205</ele>
        <time>2009-07-09T08:15:33Z</time>
      </trkpt>
      <trkpt lat="44.12879" lon="3.48312">
        <ele>1206</ele>
        <time>2009-07-09T08:15:40Z</time>
      </trkpt>
      <trkpt lat="44.1287" lon="3.4835">
        <ele>1205</ele>
        <time>2009-07-09T08:15:50Z</time>
      </trkpt>
      <trkpt lat="44.12865" lon="3.48361">
        <ele>1205</ele>
        <time>2009-07-09T08:15:52Z</time>
      </trkpt>
      <trkpt lat="44.12855" lon="3.48388">
        <ele>1204</ele>
        <time>2009-07-09T08:15:56Z</time>
      </trkpt>
      <trkpt lat="44.12848" lon="3.48412">
        <ele>1204</ele>
        <time>2009-07-09T08:16:00Z</time>
      </trkpt>
      <trkpt lat="44.12847" lon="3.48456">
        <ele>1204</ele>
        <time>2009-07-09T08:16:09Z</time>
      </trkpt>
      <trkpt lat="44.1287" lon="3.48482">
        <ele>1204</ele>
        <time>2009-07-09T08:16:19Z</time>
      </trkpt>
      <trkpt lat="44.12893" lon="3.48478">
        <ele>1200</ele>
        <time>2009-07-09T08:16:25Z</time>
      </trkpt>
      <trkpt lat="44.1292" lon="3.48476">
        <ele>1196</ele>
        <time>2009-07-09T08:16:30Z</time>
      </trkpt>
      <trkpt lat="44.12979" lon="3.48489">
        <ele>1190</ele>
        <time>2009-07-09T08:16:38Z</time>
      </trkpt>
      <trkpt lat="44.12986" lon="3.48491">
        <ele>1190</ele>
        <time>2009-07-09T08:16:39Z</time>
      </trkpt>
      <trkpt lat="44.1302" lon="3.48513">
        <ele>1186</ele>
        <time>2009-07-09T08:16:44Z</time>
      </trkpt>
      <trkpt lat="44.13033" lon="3.48527">
        <ele>1185</ele>
        <time>2009-07-09T08:16:46Z</time>
      </trkpt>
      <trkpt lat="44.13046" lon="3.48541">
        <ele>1185</ele>
        <time>2009-07-09T08:16:48Z</time>
      </trkpt>
      <trkpt lat="44.13109" lon="3.4858">
        <ele>1185</ele>
        <time>2009-07-09T08:16:58Z</time>
      </trkpt>
      <trkpt lat="44.13118" lon="3.4858">
        <ele>1184</ele>
        <time>2009-07-09T08:17:06Z</time>
      </trkpt>
      <trkpt lat="44.13119" lon="3.48581">
        <ele>1184</ele>
        <time>2009-07-09T08:17:18Z</time>
      </trkpt>
      <trkpt lat="44.1314" lon="3.48581">
        <ele>1180</ele>
        <time>2009-07-09T08:17:24Z</time>
      </trkpt>
      <trkpt lat="44.13147" lon="3.48574">
        <ele>1181</ele>
        <time>2009-07-09T08:17:26Z</time>
      </trkpt>
      <trkpt lat="44.13157" lon="3.48562">
        <ele>1181</ele>
        <time>2009-07-09T08:17:29Z</time>
      </trkpt>
      <trkpt lat="44.13168" lon="3.48552">
        <ele>1180</ele>
        <time>2009-07-09T08:17:32Z</time>
      </trkpt>
      <trkpt lat="44.13175" lon="3.48546">
        <ele>1180</ele>
        <time>2009-07-09T08:17:34Z</time>
      </trkpt>
      <trkpt lat="44.13216" lon="3.48532">
        <ele>1179</ele>
        <time>2009-07-09T08:17:44Z</time>
      </trkpt>
      <trkpt lat="44.1325" lon="3.48527">
        <ele>1178</ele>
        <time>2009-07-09T08:17:52Z</time>
      </trkpt>
      <trkpt lat="44.13314" lon="3.48527">
        <ele>1179</ele>
        <time>2009-07-09T08:18:07Z</time>
      </trkpt>
      <trkpt lat="44.13383" lon="3.48517">
        <ele>1181</ele>
        <time>2009-07-09T08:18:25Z</time>
      </trkpt>
      <trkpt lat="44.13401" lon="3.48522">
        <ele>1181</ele>
        <time>2009-07-09T08:18:34Z</time>
      </trkpt>
      <trkpt lat="44.13432" lon="3.48544">
        <ele>1181</ele>
        <time>2009-07-09T08:18:45Z</time>
      </trkpt>
      <trkpt lat="44.13455" lon="3.48546">
        <ele>1180</ele>
        <time>2009-07-09T08:18:52Z</time>
      </trkpt>
      <trkpt lat="44.13476" lon="3.48573">
        <ele>1179</ele>
        <time>2009-07-09T08:19:00Z</time>
      </trkpt>
      <trkpt lat="44.13475" lon="3.48577">
        <ele>1179</ele>
        <time>2009-07-09T08:19:01Z</time>
      </trkpt>
      <trkpt lat="44.13469" lon="3.48615">
        <ele>1179</ele>
        <time>2009-07-09T08:19:12Z</time>
      </trkpt>
      <trkpt lat="44.13461" lon="3.48674">
        <ele>1179</ele>
        <time>2009-07-09T08:19:27Z</time>
      </trkpt>
      <trkpt lat="44.13468" lon="3.48732">
        <ele>1179</ele>
        <time>2009-07-09T08:19:39Z</time>
      </trkpt>
      <trkpt lat="44.13473" lon="3.48766">
        <ele>1179</ele>
        <time>2009-07-09T08:19:45Z</time>
      </trkpt>
      <trkpt lat="44.13484" lon="3.48836">
        <ele>1179</ele>
        <time>2009-07-09T08:19:57Z</time>
      </trkpt>
      <trkpt lat="44.13495" lon="3.48914">
        <ele>1181</ele>
        <time>2009-07-09T08:20:11Z</time>
      </trkpt>
      <trkpt lat="44.13498" lon="3.48919">
        <ele>1180</ele>
        <time>2009-07-09T08:20:12Z</time>
      </trkpt>
      <trkpt lat="44.13523" lon="3.4894">
        <ele>1180</ele>
        <time>2009-07-09T08:20:19Z</time>
      </trkpt>
      <trkpt lat="44.13539" lon="3.48945">
        <ele>1180</ele>
        <time>2009-07-09T08:20:23Z</time>
      </trkpt>
      <trkpt lat="44.13581" lon="3.48985">
        <ele>1181</ele>
        <time>2009-07-09T08:20:36Z</time>
      </trkpt>
      <trkpt lat="44.13596" lon="3.49017">
        <ele>1183</ele>
        <time>2009-07-09T08:20:44Z</time>
      </trkpt>
      <trkpt lat="44.13596" lon="3.4906">
        <ele>1186</ele>
        <time>2009-07-09T08:20:56Z</time>
      </trkpt>
      <trkpt lat="44.1358" lon="3.49096">
        <ele>1188</ele>
        <time>2009-07-09T08:21:08Z</time>
      </trkpt>
      <trkpt lat="44.13556" lon="3.49129">
        <ele>1189</ele>
        <time>2009-07-09T08:21:21Z</time>
      </trkpt>
      <trkpt lat="44.13525" lon="3.49155">
        <ele>1192</ele>
        <time>2009-07-09T08:21:34Z</time>
      </trkpt>
      <trkpt lat="44.13508" lon="3.49194">
        <ele>1194</ele>
        <time>2009-07-09T08:21:47Z</time>
      </trkpt>
      <trkpt lat="44.13536" lon="3.49251">
        <ele>1197</ele>
        <time>2009-07-09T08:22:05Z</time>
      </trkpt>
      <trkpt lat="44.13565" lon="3.4926">
        <ele>1198</ele>
        <time>2009-07-09T08:22:17Z</time>
      </trkpt>
      <trkpt lat="44.136" lon="3.49266">
        <ele>1199</ele>
        <time>2009-07-09T08:22:30Z</time>
      </trkpt>
      <trkpt lat="44.13622" lon="3.49309">
        <ele>1202</ele>
        <time>2009-07-09T08:22:44Z</time>
      </trkpt>
      <trkpt lat="44.13653" lon="3.49345">
        <ele>1204</ele>
        <time>2009-07-09T08:22:59Z</time>
      </trkpt>
      <trkpt lat="44.13689" lon="3.49395">
        <ele>1205</ele>
        <time>2009-07-09T08:23:16Z</time>
      </trkpt>
      <trkpt lat="44.1371" lon="3.49449">
        <ele>1207</ele>
        <time>2009-07-09T08:23:31Z</time>
      </trkpt>
      <trkpt lat="44.13708" lon="3.49491">
        <ele>1207</ele>
        <time>2009-07-09T08:23:41Z</time>
      </trkpt>
      <trkpt lat="44.1371" lon="3.49504">
        <ele>1207</ele>
        <time>2009-07-09T08:23:45Z</time>
      </trkpt>
      <trkpt lat="44.13709" lon="3.4951">
        <ele>1207</ele>
        <time>2009-07-09T08:24:04Z</time>
      </trkpt>
      <trkpt lat="44.1371" lon="3.49519">
        <ele>1207</ele>
        <time>2009-07-09T08:24:22Z</time>
      </trkpt>
      <trkpt lat="44.13715" lon="3.49514">
        <ele>1207</ele>
        <time>2009-07-09T08:25:16Z</time>
      </trkpt>
      <trkpt lat="44.13713" lon="3.49532">
        <ele>1208</ele>
        <time>2009-07-09T08:25:28Z</time>
      </trkpt>
      <trkpt lat="44.1371" lon="3.49602">
        <ele>1208</ele>
        <time>2009-07-09T08:25:43Z</time>
      </trkpt>
      <trkpt lat="44.13707" lon="3.49659">
        <ele>1208</ele>
        <time>2009-07-09T08:25:55Z</time>
      </trkpt>
      <trkpt lat="44.13702" lon="3.49711">
        <ele>1210</ele>
        <time>2009-07-09T08:26:05Z</time>
      </trkpt>
      <trkpt lat="44.13698" lon="3.49761">
        <ele>1212</ele>
        <time>2009-07-09T08:26:16Z</time>
      </trkpt>
      <trkpt lat="44.13686" lon="3.49801">
        <ele>1213</ele>
        <time>2009-07-09T08:26:27Z</time>
      </trkpt>
      <trkpt lat="44.13666" lon="3.49837">
        <ele>1217</ele>
        <time>2009-07-09T08:26:38Z</time>
      </trkpt>
      <trkpt lat="44.13636" lon="3.4987">
        <ele>1218</ele>
        <time>2009-07-09T08:26:51Z</time>
      </trkpt>
      <trkpt lat="44.13606" lon="3.49888">
        <ele>1218</ele>
        <time>2009-07-09T08:27:02Z</time>
      </trkpt>
      <trkpt lat="44.13567" lon="3.49895">
        <ele>1219</ele>
        <time>2009-07-09T08:27:15Z</time>
      </trkpt>
      <trkpt lat="44.13525" lon="3.49904">
        <ele>1221</ele>
        <time>2009-07-09T08:27:29Z</time>
      </trkpt>
      <trkpt lat="44.13497" lon="3.49913">
        <ele>1222</ele>
        <time>2009-07-09T08:27:40Z</time>
      </trkpt>
      <trkpt lat="44.13492" lon="3.49918">
        <ele>1223</ele>
        <time>2009-07-09T08:27:42Z</time>
      </trkpt>
      <trkpt lat="44.13476" lon="3.4993">
        <ele>1225</ele>
        <time>2009-07-09T08:27:48Z</time>
      </trkpt>
      <trkpt lat="44.13451" lon="3.49948">
        <ele>1227</ele>
        <time>2009-07-09T08:28:01Z</time>
      </trkpt>
      <trkpt lat="44.13424" lon="3.49961">
        <ele>1229</ele>
        <time>2009-07-09T08:28:13Z</time>
      </trkpt>
      <trkpt lat="44.13393" lon="3.49966">
        <ele>1232</ele>
        <time>2009-07-09T08:28:26Z</time>
      </trkpt>
      <trkpt lat="44.1336" lon="3.49968">
        <ele>1234</ele>
        <time>2009-07-09T08:28:40Z</time>
      </trkpt>
      <trkpt lat="44.13332" lon="3.49968">
        <ele>1237</ele>
        <time>2009-07-09T08:28:53Z</time>
      </trkpt>
      <trkpt lat="44.13328" lon="3.49967">
        <ele>1237</ele>
        <time>2009-07-09T08:28:55Z</time>
      </trkpt>
      <trkpt lat="44.13315" lon="3.4997">
        <ele>1238</ele>
        <time>2009-07-09T08:29:01Z</time>
      </trkpt>
      <trkpt lat="44.13282" lon="3.49981">
        <ele>1241</ele>
        <time>2009-07-09T08:29:16Z</time>
      </trkpt>
      <trkpt lat="44.13251" lon="3.49993">
        <ele>1242</ele>
        <time>2009-07-09T08:29:29Z</time>
      </trkpt>
      <trkpt lat="44.1323" lon="3.50026">
        <ele>1243</ele>
        <time>2009-07-09T08:29:41Z</time>
      </trkpt>
      <trkpt lat="44.13211" lon="3.50069">
        <ele>1242</ele>
        <time>2009-07-09T08:29:53Z</time>
      </trkpt>
      <trkpt lat="44.13194" lon="3.50095">
        <ele>1243</ele>
        <time>2009-07-09T08:30:03Z</time>
      </trkpt>
      <trkpt lat="44.13159" lon="3.50119">
        <ele>1244</ele>
        <time>2009-07-09T08:30:15Z</time>
      </trkpt>
      <trkpt lat="44.13141" lon="3.50148">
        <ele>1244</ele>
        <time>2009-07-09T08:30:25Z</time>
      </trkpt>
      <trkpt lat="44.13131" lon="3.50199">
        <ele>1246</ele>
        <time>2009-07-09T08:30:39Z</time>
      </trkpt>
      <trkpt lat="44.13133" lon="3.50266">
        <ele>1248</ele>
        <time>2009-07-09T08:30:54Z</time>
      </trkpt>
      <trkpt lat="44.13153" lon="3.50314">
        <ele>1251</ele>
        <time>2009-07-09T08:31:08Z</time>
      </trkpt>
      <trkpt lat="44.13154" lon="3.50318">
        <ele>1252</ele>
        <time>2009-07-09T08:31:09Z</time>
      </trkpt>
      <trkpt lat="44.13172" lon="3.50371">
        <ele>1255</ele>
        <time>2009-07-09T08:31:24Z</time>
      </trkpt>
      <trkpt lat="44.13163" lon="3.50383">
        <ele>1256</ele>
        <time>2009-07-09T08:31:30Z</time>
      </trkpt>
      <trkpt lat="44.13145" lon="3.50389">
        <ele>1258</ele>
        <time>2009-07-09T08:31:39Z</time>
      </trkpt>
      <trkpt lat="44.13139" lon="3.50387">
        <ele>1260</ele>
        <time>2009-07-09T08:31:42Z</time>
      </trkpt>
      <trkpt lat="44.13121" lon="3.50376">
        <ele>1262</ele>
        <time>2009-07-09T08:31:53Z</time>
      </trkpt>
      <trkpt lat="44.13113" lon="3.50376">
        <ele>1263</ele>
        <time>2009-07-09T08:31:57Z</time>
      </trkpt>
      <trkpt lat="44.13108" lon="3.50375">
        <ele>1263</ele>
        <time>2009-07-09T08:31:59Z</time>
      </trkpt>
      <trkpt lat="44.13082" lon="3.50365">
        <ele>1265</ele>
        <time>2009-07-09T08:32:12Z</time>
      </trkpt>
      <trkpt lat="44.13053" lon="3.5036">
        <ele>1268</ele>
        <time>2009-07-09T08:32:25Z</time>
      </trkpt>
      <trkpt lat="44.13048" lon="3.50359">
        <ele>1268</ele>
        <time>2009-07-09T08:32:27Z</time>
      </trkpt>
      <trkpt lat="44.13033" lon="3.50354">
        <ele>1271</ele>
        <time>2009-07-09T08:32:34Z</time>
      </trkpt>
      <trkpt lat="44.12996" lon="3.50337">
        <ele>1272</ele>
        <time>2009-07-09T08:32:51Z</time>
      </trkpt>
      <trkpt lat="44.12966" lon="3.50327">
        <ele>1273</ele>
        <time>2009-07-09T08:33:04Z</time>
      </trkpt>
      <trkpt lat="44.12925" lon="3.50318">
        <ele>1275</ele>
        <time>2009-07-09T08:33:20Z</time>
      </trkpt>
      <trkpt lat="44.12895" lon="3.5032">
        <ele>1276</ele>
        <time>2009-07-09T08:33:32Z</time>
      </trkpt>
      <trkpt lat="44.12893" lon="3.50321">
        <ele>1276</ele>
        <time>2009-07-09T08:33:33Z</time>
      </trkpt>
      <trkpt lat="44.12886" lon="3.50328">
        <ele>1277</ele>
        <time>2009-07-09T08:33:37Z</time>
      </trkpt>
      <trkpt lat="44.12858" lon="3.50362">
        <ele>1277</ele>
        <time>2009-07-09T08:33:50Z</time>
      </trkpt>
      <trkpt lat="44.12827" lon="3.50398">
        <ele>1280</ele>
        <time>2009-07-09T08:34:06Z</time>
      </trkpt>
      <trkpt lat="44.128" lon="3.50426">
        <ele>1283</ele>
        <time>2009-07-09T08:34:20Z</time>
      </trkpt>
      <trkpt lat="44.12769" lon="3.50463">
        <ele>1284</ele>
        <time>2009-07-09T08:34:36Z</time>
      </trkpt>
      <trkpt lat="44.12759" lon="3.50473">
        <ele>1285</ele>
        <time>2009-07-09T08:34:41Z</time>
      </trkpt>
      <trkpt lat="44.12743" lon="3.505">
        <ele>1287</ele>
        <time>2009-07-09T08:34:52Z</time>
      </trkpt>
      <trkpt lat="44.1274" lon="3.50543">
        <ele>1289</ele>
        <time>2009-07-09T08:35:04Z</time>
      </trkpt>
      <trkpt lat="44.12757" lon="3.50573">
        <ele>1292</ele>
        <time>2009-07-09T08:35:15Z</time>
      </trkpt>
      <trkpt lat="44.12773" lon="3.50621">
        <ele>1295</ele>
        <time>2009-07-09T08:35:30Z</time>
      </trkpt>
      <trkpt lat="44.12798" lon="3.50649">
        <ele>1296</ele>
        <time>2009-07-09T08:35:44Z</time>
      </trkpt>
      <trkpt lat="44.12803" lon="3.50649">
        <ele>1296</ele>
        <time>2009-07-09T08:35:46Z</time>
      </trkpt>
      <trkpt lat="44.1283" lon="3.50622">
        <ele>1299</ele>
        <time>2009-07-09T08:35:59Z</time>
      </trkpt>
      <trkpt lat="44.12865" lon="3.50604">
        <ele>1299</ele>
        <time>2009-07-09T08:36:12Z</time>
      </trkpt>
      <trkpt lat="44.12897" lon="3.50624">
        <ele>1301</ele>
        <time>2009-07-09T08:36:24Z</time>
      </trkpt>
      <trkpt lat="44.12919" lon="3.50666">
        <ele>1304</ele>
        <time>2009-07-09T08:36:38Z</time>
      </trkpt>
      <trkpt lat="44.12932" lon="3.50712">
        <ele>1305</ele>
        <time>2009-07-09T08:36:52Z</time>
      </trkpt>
      <trkpt lat="44.12953" lon="3.50765">
        <ele>1306</ele>
        <time>2009-07-09T08:37:09Z</time>
      </trkpt>
      <trkpt lat="44.12961" lon="3.50791">
        <ele>1309</ele>
        <time>2009-07-09T08:37:17Z</time>
      </trkpt>
      <trkpt lat="44.1297" lon="3.50833">
        <ele>1312</ele>
        <time>2009-07-09T08:37:29Z</time>
      </trkpt>
      <trkpt lat="44.12961" lon="3.50886">
        <ele>1314</ele>
        <time>2009-07-09T08:37:44Z</time>
      </trkpt>
      <trkpt lat="44.12956" lon="3.50906">
        <ele>1315</ele>
        <time>2009-07-09T08:37:50Z</time>
      </trkpt>
      <trkpt lat="44.1295" lon="3.50927">
        <ele>1318</ele>
        <time>2009-07-09T08:37:56Z</time>
      </trkpt>
      <trkpt lat="44.12929" lon="3.50968">
        <ele>1322</ele>
        <time>2009-07-09T08:38:11Z</time>
      </trkpt>
      <trkpt lat="44.12891" lon="3.51001">
        <ele>1323</ele>
        <time>2009-07-09T08:38:28Z</time>
      </trkpt>
      <trkpt lat="44.12865" lon="3.51018">
        <ele>1326</ele>
        <time>2009-07-09T08:38:39Z</time>
      </trkpt>
      <trkpt lat="44.12835" lon="3.51032">
        <ele>1327</ele>
        <time>2009-07-09T08:38:51Z</time>
      </trkpt>
      <trkpt lat="44.12804" lon="3.51041">
        <ele>1329</ele>
        <time>2009-07-09T08:39:02Z</time>
      </trkpt>
      <trkpt lat="44.12773" lon="3.51041">
        <ele>1332</ele>
        <time>2009-07-09T08:39:13Z</time>
      </trkpt>
      <trkpt lat="44.12744" lon="3.50999">
        <ele>1332</ele>
        <time>2009-07-09T08:39:28Z</time>
      </trkpt>
      <trkpt lat="44.12717" lon="3.50937">
        <ele>1335</ele>
        <time>2009-07-09T08:39:47Z</time>
      </trkpt>
      <trkpt lat="44.12704" lon="3.5091">
        <ele>1338</ele>
        <time>2009-07-09T08:39:56Z</time>
      </trkpt>
      <trkpt lat="44.12683" lon="3.50872">
        <ele>1341</ele>
        <time>2009-07-09T08:40:10Z</time>
      </trkpt>
      <trkpt lat="44.12664" lon="3.50828">
        <ele>1344</ele>
        <time>2009-07-09T08:40:24Z</time>
      </trkpt>
      <trkpt lat="44.12656" lon="3.50803">
        <ele>1345</ele>
        <time>2009-07-09T08:40:33Z</time>
      </trkpt>
      <trkpt lat="44.12648" lon="3.50807">
        <ele>1346</ele>
        <time>2009-07-09T08:40:44Z</time>
      </trkpt>
      <trkpt lat="44.12646" lon="3.50806">
        <ele>1344</ele>
        <time>2009-07-09T08:41:08Z</time>
      </trkpt>
      <trkpt lat="44.12645" lon="3.50805">
        <ele>1348</ele>
        <time>2009-07-09T08:41:18Z</time>
      </trkpt>
      <trkpt lat="44.12645" lon="3.50805">
        <ele>1346</ele>
        <time>2009-07-09T08:41:19Z</time>
      </trkpt>
      <trkpt lat="44.12646" lon="3.50805">
        <ele>1342</ele>
        <time>2009-07-09T08:41:22Z</time>
      </trkpt>
      <trkpt lat="44.12646" lon="3.50805">
        <ele>1345</ele>
        <time>2009-07-09T08:41:23Z</time>
      </trkpt>
      <trkpt lat="44.12646" lon="3.50805">
        <ele>1342</ele>
        <time>2009-07-09T08:41:29Z</time>
      </trkpt>
      <trkpt lat="44.12647" lon="3.50804">
        <ele>1346</ele>
        <time>2009-07-09T08:41:30Z</time>
      </trkpt>
      <trkpt lat="44.12647" lon="3.50804">
        <ele>1344</ele>
        <time>2009-07-09T08:41:44Z</time>
      </trkpt>
      <trkpt lat="44.12644" lon="3.50811">
        <ele>1343</ele>
        <time>2009-07-09T08:42:09Z</time>
      </trkpt>
      <trkpt lat="44.12643" lon="3.50811">
        <ele>1344</ele>
        <time>2009-07-09T08:42:13Z</time>
      </trkpt>
      <trkpt lat="44.12644" lon="3.50814">
        <ele>1344</ele>
        <time>2009-07-09T08:42:47Z</time>
      </trkpt>
      <trkpt lat="44.12644" lon="3.50812">
        <ele>1345</ele>
        <time>2009-07-09T08:43:03Z</time>
      </trkpt>
      <trkpt lat="44.12643" lon="3.50809">
        <ele>1345</ele>
        <time>2009-07-09T08:44:16Z</time>
      </trkpt>
      <trkpt lat="44.12644" lon="3.50809">
        <ele>1346</ele>
        <time>2009-07-09T08:45:08Z</time>
      </trkpt>
      <trkpt lat="44.12645" lon="3.50808">
        <ele>1346</ele>
        <time>2009-07-09T08:45:54Z</time>
      </trkpt>
      <trkpt lat="44.12644" lon="3.50812">
        <ele>1346</ele>
        <time>2009-07-09T08:47:01Z</time>
      </trkpt>
      <trkpt lat="44.12644" lon="3.50815">
        <ele>1345</ele>
        <time>2009-07-09T08:47:18Z</time>
      </trkpt>
      <trkpt lat="44.12647" lon="3.50835">
        <ele>1345</ele>
        <time>2009-07-09T08:47:26Z</time>
      </trkpt>
      <trkpt lat="44.12655" lon="3.50873">
        <ele>1347</ele>
        <time>2009-07-09T08:47:36Z</time>
      </trkpt>
      <trkpt lat="44.12652" lon="3.50932">
        <ele>1350</ele>
        <time>2009-07-09T08:47:52Z</time>
      </trkpt>
      <trkpt lat="44.12639" lon="3.50983">
        <ele>1353</ele>
        <time>2009-07-09T08:48:08Z</time>
      </trkpt>
      <trkpt lat="44.12623" lon="3.51019">
        <ele>1354</ele>
        <time>2009-07-09T08:48:22Z</time>
      </trkpt>
      <trkpt lat="44.12608" lon="3.51051">
        <ele>1357</ele>
        <time>2009-07-09T08:48:35Z</time>
      </trkpt>
      <trkpt lat="44.12606" lon="3.51057">
        <ele>1357</ele>
        <time>2009-07-09T08:48:37Z</time>
      </trkpt>
      <trkpt lat="44.12602" lon="3.51083">
        <ele>1360</ele>
        <time>2009-07-09T08:48:46Z</time>
      </trkpt>
      <trkpt lat="44.12599" lon="3.51116">
        <ele>1363</ele>
        <time>2009-07-09T08:48:57Z</time>
      </trkpt>
      <trkpt lat="44.12597" lon="3.51162">
        <ele>1364</ele>
        <time>2009-07-09T08:49:12Z</time>
      </trkpt>
      <trkpt lat="44.12589" lon="3.51201">
        <ele>1366</ele>
        <time>2009-07-09T08:49:25Z</time>
      </trkpt>
      <trkpt lat="44.12588" lon="3.51204">
        <ele>1366</ele>
        <time>2009-07-09T08:49:26Z</time>
      </trkpt>
      <trkpt lat="44.1258" lon="3.51227">
        <ele>1369</ele>
        <time>2009-07-09T08:49:34Z</time>
      </trkpt>
      <trkpt lat="44.12566" lon="3.5126">
        <ele>1373</ele>
        <time>2009-07-09T08:49:46Z</time>
      </trkpt>
      <trkpt lat="44.12546" lon="3.51302">
        <ele>1374</ele>
        <time>2009-07-09T08:50:02Z</time>
      </trkpt>
      <trkpt lat="44.12532" lon="3.51334">
        <ele>1377</ele>
        <time>2009-07-09T08:50:14Z</time>
      </trkpt>
      <trkpt lat="44.12518" lon="3.51369">
        <ele>1380</ele>
        <time>2009-07-09T08:50:27Z</time>
      </trkpt>
      <trkpt lat="44.12506" lon="3.51413">
        <ele>1382</ele>
        <time>2009-07-09T08:50:43Z</time>
      </trkpt>
      <trkpt lat="44.12498" lon="3.51449">
        <ele>1385</ele>
        <time>2009-07-09T08:50:55Z</time>
      </trkpt>
      <trkpt lat="44.12499" lon="3.51458">
        <ele>1385</ele>
        <time>2009-07-09T08:50:59Z</time>
      </trkpt>
      <trkpt lat="44.12502" lon="3.51475">
        <ele>1385</ele>
        <time>2009-07-09T08:51:06Z</time>
      </trkpt>
      <trkpt lat="44.12497" lon="3.51538">
        <ele>1385</ele>
        <time>2009-07-09T08:51:20Z</time>
      </trkpt>
      <trkpt lat="44.12497" lon="3.51576">
        <ele>1386</ele>
        <time>2009-07-09T08:51:29Z</time>
      </trkpt>
      <trkpt lat="44.12487" lon="3.51624">
        <ele>1387</ele>
        <time>2009-07-09T08:51:43Z</time>
      </trkpt>
      <trkpt lat="44.12485" lon="3.5163">
        <ele>1388</ele>
        <time>2009-07-09T08:51:45Z</time>
      </trkpt>
      <trkpt lat="44.12475" lon="3.51652">
        <ele>1390</ele>
        <time>2009-07-09T08:51:53Z</time>
      </trkpt>
      <trkpt lat="44.1247" lon="3.51664">
        <ele>1392</ele>
        <time>2009-07-09T08:51:57Z</time>
      </trkpt>
      <trkpt lat="44.12455" lon="3.51689">
        <ele>1394</ele>
        <time>2009-07-09T08:52:08Z</time>
      </trkpt>
      <trkpt lat="44.12436" lon="3.51694">
        <ele>1396</ele>
        <time>2009-07-09T08:52:19Z</time>
      </trkpt>
      <trkpt lat="44.1243" lon="3.51697">
        <ele>1398</ele>
        <time>2009-07-09T08:52:23Z</time>
      </trkpt>
      <trkpt lat="44.12418" lon="3.51707">
        <ele>1399</ele>
        <time>2009-07-09T08:52:32Z</time>
      </trkpt>
      <trkpt lat="44.12403" lon="3.51721">
        <ele>1402</ele>
        <time>2009-07-09T08:52:45Z</time>
      </trkpt>
      <trkpt lat="44.12402" lon="3.51722">
        <ele>1402</ele>
        <time>2009-07-09T08:52:46Z</time>
      </trkpt>
      <trkpt lat="44.12399" lon="3.51723">
        <ele>1403</ele>
        <time>2009-07-09T08:52:49Z</time>
      </trkpt>
      <trkpt lat="44.12393" lon="3.5173">
        <ele>1404</ele>
        <time>2009-07-09T08:52:53Z</time>
      </trkpt>
      <trkpt lat="44.12389" lon="3.51734">
        <ele>1404</ele>
        <time>2009-07-09T08:52:57Z</time>
      </trkpt>
      <trkpt lat="44.12382" lon="3.5175">
        <ele>1406</ele>
        <time>2009-07-09T08:53:05Z</time>
      </trkpt>
      <trkpt lat="44.12375" lon="3.5176">
        <ele>1407</ele>
        <time>2009-07-09T08:53:11Z</time>
      </trkpt>
      <trkpt lat="44.12374" lon="3.51764">
        <ele>1408</ele>
        <time>2009-07-09T08:53:13Z</time>
      </trkpt>
      <trkpt lat="44.12367" lon="3.51782">
        <ele>1411</ele>
        <time>2009-07-09T08:53:22Z</time>
      </trkpt>
      <trkpt lat="44.12362" lon="3.51801">
        <ele>1413</ele>
        <time>2009-07-09T08:53:32Z</time>
      </trkpt>
      <trkpt lat="44.1236" lon="3.51805">
        <ele>1413</ele>
        <time>2009-07-09T08:53:34Z</time>
      </trkpt>
      <trkpt lat="44.12353" lon="3.51839">
        <ele>1414</ele>
        <time>2009-07-09T08:53:49Z</time>
      </trkpt>
      <trkpt lat="44.12351" lon="3.51853">
        <ele>1417</ele>
        <time>2009-07-09T08:53:56Z</time>
      </trkpt>
      <trkpt lat="44.12353" lon="3.51873">
        <ele>1419</ele>
        <time>2009-07-09T08:54:05Z</time>
      </trkpt>
      <trkpt lat="44.12347" lon="3.51878">
        <ele>1420</ele>
        <time>2009-07-09T08:54:17Z</time>
      </trkpt>
      <trkpt lat="44.12344" lon="3.51881">
        <ele>1422</ele>
        <time>2009-07-09T08:54:22Z</time>
      </trkpt>
      <trkpt lat="44.12342" lon="3.51884">
        <ele>1422</ele>
        <time>2009-07-09T08:54:24Z</time>
      </trkpt>
      <trkpt lat="44.12341" lon="3.51893">
        <ele>1421</ele>
        <time>2009-07-09T08:54:45Z</time>
      </trkpt>
      <trkpt lat="44.12341" lon="3.51904">
        <ele>1420</ele>
        <time>2009-07-09T08:55:17Z</time>
      </trkpt>
      <trkpt lat="44.12344" lon="3.51902">
        <ele>1421</ele>
        <time>2009-07-09T08:55:40Z</time>
      </trkpt>
      <trkpt lat="44.1234" lon="3.51906">
        <ele>1422</ele>
        <time>2009-07-09T08:56:30Z</time>
      </trkpt>
      <trkpt lat="44.12343" lon="3.51912">
        <ele>1423</ele>
        <time>2009-07-09T08:56:49Z</time>
      </trkpt>
      <trkpt lat="44.12349" lon="3.51943">
        <ele>1425</ele>
        <time>2009-07-09T08:57:03Z</time>
      </trkpt>
      <trkpt lat="44.12357" lon="3.51976">
        <ele>1428</ele>
        <time>2009-07-09T08:57:16Z</time>
      </trkpt>
      <trkpt lat="44.12368" lon="3.52012">
        <ele>1430</ele>
        <time>2009-07-09T08:57:31Z</time>
      </trkpt>
      <trkpt lat="44.12357" lon="3.52057">
        <ele>1430</ele>
        <time>2009-07-09T08:57:46Z</time>
      </trkpt>
      <trkpt lat="44.12332" lon="3.5209">
        <ele>1433</ele>
        <time>2009-07-09T08:58:00Z</time>
      </trkpt>
      <trkpt lat="44.12303" lon="3.52119">
        <ele>1434</ele>
        <time>2009-07-09T08:58:13Z</time>
      </trkpt>
      <trkpt lat="44.12276" lon="3.52154">
        <ele>1436</ele>
        <time>2009-07-09T08:58:27Z</time>
      </trkpt>
      <trkpt lat="44.12247" lon="3.52189">
        <ele>1438</ele>
        <time>2009-07-09T08:58:41Z</time>
      </trkpt>
      <trkpt lat="44.1222" lon="3.5222">
        <ele>1439</ele>
        <time>2009-07-09T08:58:56Z</time>
      </trkpt>
      <trkpt lat="44.12214" lon="3.52262">
        <ele>1439</ele>
        <time>2009-07-09T08:59:07Z</time>
      </trkpt>
      <trkpt lat="44.12222" lon="3.5233">
        <ele>1442</ele>
        <time>2009-07-09T08:59:24Z</time>
      </trkpt>
      <trkpt lat="44.12223" lon="3.52385">
        <ele>1443</ele>
        <time>2009-07-09T08:59:38Z</time>
      </trkpt>
      <trkpt lat="44.12221" lon="3.52448">
        <ele>1444</ele>
        <time>2009-07-09T08:59:53Z</time>
      </trkpt>
      <trkpt lat="44.12214" lon="3.52513">
        <ele>1448</ele>
        <time>2009-07-09T09:00:09Z</time>
      </trkpt>
      <trkpt lat="44.12201" lon="3.52563">
        <ele>1450</ele>
        <time>2009-07-09T09:00:21Z</time>
      </trkpt>
      <trkpt lat="44.12192" lon="3.52626">
        <ele>1452</ele>
        <time>2009-07-09T09:00:35Z</time>
      </trkpt>
      <trkpt lat="44.12182" lon="3.52682">
        <ele>1453</ele>
        <time>2009-07-09T09:00:48Z</time>
      </trkpt>
      <trkpt lat="44.12172" lon="3.52728">
        <ele>1456</ele>
        <time>2009-07-09T09:00:58Z</time>
      </trkpt>
      <trkpt lat="44.12154" lon="3.5279">
        <ele>1459</ele>
        <time>2009-07-09T09:01:13Z</time>
      </trkpt>
      <trkpt lat="44.12127" lon="3.52872">
        <ele>1462</ele>
        <time>2009-07-09T09:01:34Z</time>
      </trkpt>
      <trkpt lat="44.1212" lon="3.52912">
        <ele>1463</ele>
        <time>2009-07-09T09:01:47Z</time>
      </trkpt>
      <trkpt lat="44.1212" lon="3.52919">
        <ele>1463</ele>
        <time>2009-07-09T09:02:02Z</time>
      </trkpt>
      <trkpt lat="44.12118" lon="3.52918">
        <ele>1463</ele>
        <time>2009-07-09T09:02:46Z</time>
      </trkpt>
      <trkpt lat="44.12119" lon="3.52921">
        <ele>1462</ele>
        <time>2009-07-09T09:03:02Z</time>
      </trkpt>
      <trkpt lat="44.12119" lon="3.52929">
        <ele>1462</ele>
        <time>2009-07-09T09:03:06Z</time>
      </trkpt>
      <trkpt lat="44.12117" lon="3.52968">
        <ele>1463</ele>
        <time>2009-07-09T09:03:18Z</time>
      </trkpt>
      <trkpt lat="44.12113" lon="3.53007">
        <ele>1465</ele>
        <time>2009-07-09T09:03:29Z</time>
      </trkpt>
      <trkpt lat="44.12111" lon="3.53068">
        <ele>1465</ele>
        <time>2009-07-09T09:03:43Z</time>
      </trkpt>
      <trkpt lat="44.12123" lon="3.53145">
        <ele>1463</ele>
        <time>2009-07-09T09:03:58Z</time>
      </trkpt>
      <trkpt lat="44.12112" lon="3.53225">
        <ele>1463</ele>
        <time>2009-07-09T09:04:13Z</time>
      </trkpt>
      <trkpt lat="44.12108" lon="3.53247">
        <ele>1462</ele>
        <time>2009-07-09T09:04:17Z</time>
      </trkpt>
      <trkpt lat="44.12106" lon="3.53259">
        <ele>1462</ele>
        <time>2009-07-09T09:04:19Z</time>
      </trkpt>
      <trkpt lat="44.12102" lon="3.53272">
        <ele>1461</ele>
        <time>2009-07-09T09:04:21Z</time>
      </trkpt>
      <trkpt lat="44.12097" lon="3.53309">
        <ele>1462</ele>
        <time>2009-07-09T09:04:26Z</time>
      </trkpt>
      <trkpt lat="44.12095" lon="3.53372">
        <ele>1461</ele>
        <time>2009-07-09T09:04:37Z</time>
      </trkpt>
      <trkpt lat="44.12109" lon="3.5343">
        <ele>1460</ele>
        <time>2009-07-09T09:04:48Z</time>
      </trkpt>
      <trkpt lat="44.12125" lon="3.53487">
        <ele>1461</ele>
        <time>2009-07-09T09:05:02Z</time>
      </trkpt>
      <trkpt lat="44.12125" lon="3.53525">
        <ele>1459</ele>
        <time>2009-07-09T09:05:10Z</time>
      </trkpt>
      <trkpt lat="44.12119" lon="3.53553">
        <ele>1459</ele>
        <time>2009-07-09T09:05:15Z</time>
      </trkpt>
      <trkpt lat="44.12107" lon="3.53589">
        <ele>1458</ele>
        <time>2009-07-09T09:05:22Z</time>
      </trkpt>
      <trkpt lat="44.12086" lon="3.5364">
        <ele>1457</ele>
        <time>2009-07-09T09:05:32Z</time>
      </trkpt>
      <trkpt lat="44.12081" lon="3.53656">
        <ele>1457</ele>
        <time>2009-07-09T09:05:35Z</time>
      </trkpt>
      <trkpt lat="44.12078" lon="3.53666">
        <ele>1456</ele>
        <time>2009-07-09T09:05:37Z</time>
      </trkpt>
      <trkpt lat="44.12073" lon="3.5369">
        <ele>1455</ele>
        <time>2009-07-09T09:05:41Z</time>
      </trkpt>
      <trkpt lat="44.1207" lon="3.53708">
        <ele>1454</ele>
        <time>2009-07-09T09:05:44Z</time>
      </trkpt>
      <trkpt lat="44.12065" lon="3.53784">
        <ele>1454</ele>
        <time>2009-07-09T09:05:57Z</time>
      </trkpt>
      <trkpt lat="44.12064" lon="3.5379">
        <ele>1454</ele>
        <time>2009-07-09T09:05:58Z</time>
      </trkpt>
      <trkpt lat="44.12048" lon="3.53853">
        <ele>1454</ele>
        <time>2009-07-09T09:06:09Z</time>
      </trkpt>
      <trkpt lat="44.12035" lon="3.53915">
        <ele>1453</ele>
        <time>2009-07-09T09:06:23Z</time>
      </trkpt>
      <trkpt lat="44.12031" lon="3.53956">
        <ele>1453</ele>
        <time>2009-07-09T09:06:35Z</time>
      </trkpt>
      <trkpt lat="44.1203" lon="3.53966">
        <ele>1453</ele>
        <time>2009-07-09T09:06:45Z</time>
      </trkpt>
      <trkpt lat="44.12027" lon="3.53987">
        <ele>1451</ele>
        <time>2009-07-09T09:07:05Z</time>
      </trkpt>
      <trkpt lat="44.12025" lon="3.54006">
        <ele>1453</ele>
        <time>2009-07-09T09:07:12Z</time>
      </trkpt>
      <trkpt lat="44.12037" lon="3.54011">
        <ele>1451</ele>
        <time>2009-07-09T09:07:19Z</time>
      </trkpt>
      <trkpt lat="44.12054" lon="3.54006">
        <ele>1451</ele>
        <time>2009-07-09T09:07:30Z</time>
      </trkpt>
      <trkpt lat="44.12042" lon="3.54007">
        <ele>1451</ele>
        <time>2009-07-09T09:07:54Z</time>
      </trkpt>
      <trkpt lat="44.12035" lon="3.54011">
        <ele>1450</ele>
        <time>2009-07-09T09:08:20Z</time>
      </trkpt>
      <trkpt lat="44.12027" lon="3.54014">
        <ele>1451</ele>
        <time>2009-07-09T09:08:36Z</time>
      </trkpt>
      <trkpt lat="44.12025" lon="3.54022">
        <ele>1451</ele>
        <time>2009-07-09T09:08:40Z</time>
      </trkpt>
      <trkpt lat="44.12006" lon="3.5409">
        <ele>1449</ele>
        <time>2009-07-09T09:08:55Z</time>
      </trkpt>
      <trkpt lat="44.12002" lon="3.541">
        <ele>1448</ele>
        <time>2009-07-09T09:08:57Z</time>
      </trkpt>
      <trkpt lat="44.11998" lon="3.54124">
        <ele>1448</ele>
        <time>2009-07-09T09:09:02Z</time>
      </trkpt>
      <trkpt lat="44.11978" lon="3.54141">
        <ele>1448</ele>
        <time>2009-07-09T09:09:07Z</time>
      </trkpt>
      <trkpt lat="44.11954" lon="3.54153">
        <ele>1446</ele>
        <time>2009-07-09T09:09:12Z</time>
      </trkpt>
      <trkpt lat="44.11929" lon="3.5416">
        <ele>1446</ele>
        <time>2009-07-09T09:09:17Z</time>
      </trkpt>
      <trkpt lat="44.11909" lon="3.54178">
        <ele>1445</ele>
        <time>2009-07-09T09:09:21Z</time>
      </trkpt>
      <trkpt lat="44.11867" lon="3.54233">
        <ele>1444</ele>
        <time>2009-07-09T09:09:31Z</time>
      </trkpt>
      <trkpt lat="44.11834" lon="3.54257">
        <ele>1442</ele>
        <time>2009-07-09T09:09:37Z</time>
      </trkpt>
      <trkpt lat="44.1182" lon="3.54275">
        <ele>1442</ele>
        <time>2009-07-09T09:09:40Z</time>
      </trkpt>
      <trkpt lat="44.11821" lon="3.54306">
        <ele>1441</ele>
        <time>2009-07-09T09:09:44Z</time>
      </trkpt>
      <trkpt lat="44.11825" lon="3.5433">
        <ele>1440</ele>
        <time>2009-07-09T09:09:47Z</time>
      </trkpt>
      <trkpt lat="44.1183" lon="3.54354">
        <ele>1440</ele>
        <time>2009-07-09T09:09:50Z</time>
      </trkpt>
      <trkpt lat="44.11843" lon="3.54429">
        <ele>1437</ele>
        <time>2009-07-09T09:09:59Z</time>
      </trkpt>
      <trkpt lat="44.11845" lon="3.54438">
        <ele>1437</ele>
        <time>2009-07-09T09:10:00Z</time>
      </trkpt>
      <trkpt lat="44.11862" lon="3.54545">
        <ele>1436</ele>
        <time>2009-07-09T09:10:13Z</time>
      </trkpt>
      <trkpt lat="44.11865" lon="3.54563">
        <ele>1436</ele>
        <time>2009-07-09T09:10:15Z</time>
      </trkpt>
      <trkpt lat="44.11856" lon="3.5465">
        <ele>1434</ele>
        <time>2009-07-09T09:10:25Z</time>
      </trkpt>
      <trkpt lat="44.1185" lon="3.54667">
        <ele>1432</ele>
        <time>2009-07-09T09:10:27Z</time>
      </trkpt>
      <trkpt lat="44.11846" lon="3.54675">
        <ele>1433</ele>
        <time>2009-07-09T09:10:28Z</time>
      </trkpt>
      <trkpt lat="44.1182" lon="3.54716">
        <ele>1431</ele>
        <time>2009-07-09T09:10:34Z</time>
      </trkpt>
      <trkpt lat="44.11777" lon="3.54765">
        <ele>1430</ele>
        <time>2009-07-09T09:10:42Z</time>
      </trkpt>
      <trkpt lat="44.1174" lon="3.54846">
        <ele>1428</ele>
        <time>2009-07-09T09:10:52Z</time>
      </trkpt>
      <trkpt lat="44.11726" lon="3.54926">
        <ele>1426</ele>
        <time>2009-07-09T09:11:01Z</time>
      </trkpt>
      <trkpt lat="44.11728" lon="3.54945">
        <ele>1425</ele>
        <time>2009-07-09T09:11:03Z</time>
      </trkpt>
      <trkpt lat="44.11732" lon="3.5497">
        <ele>1425</ele>
        <time>2009-07-09T09:11:06Z</time>
      </trkpt>
      <trkpt lat="44.1172" lon="3.55024">
        <ele>1422</ele>
        <time>2009-07-09T09:11:12Z</time>
      </trkpt>
      <trkpt lat="44.11716" lon="3.55032">
        <ele>1422</ele>
        <time>2009-07-09T09:11:13Z</time>
      </trkpt>
      <trkpt lat="44.11698" lon="3.55075">
        <ele>1421</ele>
        <time>2009-07-09T09:11:18Z</time>
      </trkpt>
      <trkpt lat="44.11663" lon="3.5514">
        <ele>1419</ele>
        <time>2009-07-09T09:11:27Z</time>
      </trkpt>
      <trkpt lat="44.11658" lon="3.55174">
        <ele>1421</ele>
        <time>2009-07-09T09:11:34Z</time>
      </trkpt>
      <trkpt lat="44.11659" lon="3.55185">
        <ele>1422</ele>
        <time>2009-07-09T09:11:37Z</time>
      </trkpt>
      <trkpt lat="44.11659" lon="3.55188">
        <ele>1422</ele>
        <time>2009-07-09T09:11:38Z</time>
      </trkpt>
      <trkpt lat="44.11656" lon="3.55193">
        <ele>1422</ele>
        <time>2009-07-09T09:11:47Z</time>
      </trkpt>
      <trkpt lat="44.11664" lon="3.55193">
        <ele>1422</ele>
        <time>2009-07-09T09:14:45Z</time>
      </trkpt>
      <trkpt lat="44.11671" lon="3.55248">
        <ele>1421</ele>
        <time>2009-07-09T09:14:56Z</time>
      </trkpt>
      <trkpt lat="44.11674" lon="3.55273">
        <ele>1417</ele>
        <time>2009-07-09T09:14:59Z</time>
      </trkpt>
      <trkpt lat="44.11699" lon="3.55366">
        <ele>1414</ele>
        <time>2009-07-09T09:15:09Z</time>
      </trkpt>
      <trkpt lat="44.11708" lon="3.55389">
        <ele>1418</ele>
        <time>2009-07-09T09:15:12Z</time>
      </trkpt>
      <trkpt lat="44.11711" lon="3.55397">
        <ele>1417</ele>
        <time>2009-07-09T09:15:13Z</time>
      </trkpt>
      <trkpt lat="44.11716" lon="3.55411">
        <ele>1416</ele>
        <time>2009-07-09T09:15:15Z</time>
      </trkpt>
      <trkpt lat="44.11728" lon="3.55443">
        <ele>1415</ele>
        <time>2009-07-09T09:15:20Z</time>
      </trkpt>
      <trkpt lat="44.11732" lon="3.55456">
        <ele>1418</ele>
        <time>2009-07-09T09:15:22Z</time>
      </trkpt>
      <trkpt lat="44.11752" lon="3.55507">
        <ele>1422</ele>
        <time>2009-07-09T09:15:32Z</time>
      </trkpt>
      <trkpt lat="44.11764" lon="3.5554">
        <ele>1420</ele>
        <time>2009-07-09T09:15:39Z</time>
      </trkpt>
      <trkpt lat="44.11794" lon="3.5562">
        <ele>1422</ele>
        <time>2009-07-09T09:15:56Z</time>
      </trkpt>
      <trkpt lat="44.11828" lon="3.55688">
        <ele>1425</ele>
        <time>2009-07-09T09:16:12Z</time>
      </trkpt>
      <trkpt lat="44.11865" lon="3.55757">
        <ele>1426</ele>
        <time>2009-07-09T09:16:30Z</time>
      </trkpt>
      <trkpt lat="44.11883" lon="3.55789">
        <ele>1430</ele>
        <time>2009-07-09T09:16:39Z</time>
      </trkpt>
      <trkpt lat="44.11885" lon="3.55793">
        <ele>1429</ele>
        <time>2009-07-09T09:16:40Z</time>
      </trkpt>
      <trkpt lat="44.11902" lon="3.55826">
        <ele>1429</ele>
        <time>2009-07-09T09:16:50Z</time>
      </trkpt>
      <trkpt lat="44.1193" lon="3.55873">
        <ele>1432</ele>
        <time>2009-07-09T09:17:07Z</time>
      </trkpt>
      <trkpt lat="44.11932" lon="3.55876">
        <ele>1434</ele>
        <time>2009-07-09T09:17:09Z</time>
      </trkpt>
      <trkpt lat="44.11934" lon="3.5588">
        <ele>1433</ele>
        <time>2009-07-09T09:17:24Z</time>
      </trkpt>
      <trkpt lat="44.11933" lon="3.5588">
        <ele>1433</ele>
        <time>2009-07-09T09:17:31Z</time>
      </trkpt>
      <trkpt lat="44.11923" lon="3.55866">
        <ele>1432</ele>
        <time>2009-07-09T09:17:37Z</time>
      </trkpt>
      <trkpt lat="44.1191" lon="3.55868">
        <ele>1432</ele>
        <time>2009-07-09T09:17:46Z</time>
      </trkpt>
      <trkpt lat="44.11912" lon="3.55866">
        <ele>1431</ele>
        <time>2009-07-09T09:17:51Z</time>
      </trkpt>
      <trkpt lat="44.11916" lon="3.55863">
        <ele>1431</ele>
        <time>2009-07-09T09:17:54Z</time>
      </trkpt>
      <trkpt lat="44.11907" lon="3.55835">
        <ele>1430</ele>
        <time>2009-07-09T09:18:02Z</time>
      </trkpt>
      <trkpt lat="44.11886" lon="3.55799">
        <ele>1425</ele>
        <time>2009-07-09T09:18:08Z</time>
      </trkpt>
      <trkpt lat="44.11882" lon="3.55791">
        <ele>1426</ele>
        <time>2009-07-09T09:18:09Z</time>
      </trkpt>
      <trkpt lat="44.11861" lon="3.55752">
        <ele>1425</ele>
        <time>2009-07-09T09:18:14Z</time>
      </trkpt>
      <trkpt lat="44.11819" lon="3.55676">
        <ele>1424</ele>
        <time>2009-07-09T09:18:26Z</time>
      </trkpt>
      <trkpt lat="44.11799" lon="3.55631">
        <ele>1422</ele>
        <time>2009-07-09T09:18:36Z</time>
      </trkpt>
      <trkpt lat="44.11775" lon="3.55582">
        <ele>1421</ele>
        <time>2009-07-09T09:18:48Z</time>
      </trkpt>
      <trkpt lat="44.11749" lon="3.55544">
        <ele>1421</ele>
        <time>2009-07-09T09:19:00Z</time>
      </trkpt>
      <trkpt lat="44.11734" lon="3.55528">
        <ele>1423</ele>
        <time>2009-07-09T09:19:06Z</time>
      </trkpt>
      <trkpt lat="44.11734" lon="3.55545">
        <ele>1422</ele>
        <time>2009-07-09T09:19:14Z</time>
      </trkpt>
      <trkpt lat="44.11747" lon="3.55565">
        <ele>1422</ele>
        <time>2009-07-09T09:19:24Z</time>
      </trkpt>
      <trkpt lat="44.11761" lon="3.55588">
        <ele>1421</ele>
        <time>2009-07-09T09:19:38Z</time>
      </trkpt>
      <trkpt lat="44.11784" lon="3.55637">
        <ele>1422</ele>
        <time>2009-07-09T09:19:52Z</time>
      </trkpt>
      <trkpt lat="44.11798" lon="3.55658">
        <ele>1422</ele>
        <time>2009-07-09T09:19:59Z</time>
      </trkpt>
      <trkpt lat="44.11816" lon="3.5571">
        <ele>1424</ele>
        <time>2009-07-09T09:20:13Z</time>
      </trkpt>
      <trkpt lat="44.11845" lon="3.55764">
        <ele>1426</ele>
        <time>2009-07-09T09:20:31Z</time>
      </trkpt>
      <trkpt lat="44.1186" lon="3.55797">
        <ele>1428</ele>
        <time>2009-07-09T09:20:44Z</time>
      </trkpt>
      <trkpt lat="44.11861" lon="3.55825">
        <ele>1429</ele>
        <time>2009-07-09T09:20:56Z</time>
      </trkpt>
      <trkpt lat="44.1187" lon="3.55861">
        <ele>1429</ele>
        <time>2009-07-09T09:21:09Z</time>
      </trkpt>
      <trkpt lat="44.1188" lon="3.55896">
        <ele>1432</ele>
        <time>2009-07-09T09:21:21Z</time>
      </trkpt>
      <trkpt lat="44.11896" lon="3.55927">
        <ele>1434</ele>
        <time>2009-07-09T09:21:35Z</time>
      </trkpt>
      <trkpt lat="44.11907" lon="3.55948">
        <ele>1436</ele>
        <time>2009-07-09T09:21:44Z</time>
      </trkpt>
      <trkpt lat="44.11931" lon="3.5597">
        <ele>1438</ele>
        <time>2009-07-09T09:21:59Z</time>
      </trkpt>
      <trkpt lat="44.11953" lon="3.55987">
        <ele>1442</ele>
        <time>2009-07-09T09:22:13Z</time>
      </trkpt>
      <trkpt lat="44.11986" lon="3.56006">
        <ele>1445</ele>
        <time>2009-07-09T09:22:30Z</time>
      </trkpt>
      <trkpt lat="44.1199" lon="3.56012">
        <ele>1445</ele>
        <time>2009-07-09T09:22:33Z</time>
      </trkpt>
      <trkpt lat="44.11992" lon="3.5602">
        <ele>1446</ele>
        <time>2009-07-09T09:22:36Z</time>
      </trkpt>
      <trkpt lat="44.11991" lon="3.56025">
        <ele>1447</ele>
        <time>2009-07-09T09:22:38Z</time>
      </trkpt>
      <trkpt lat="44.11965" lon="3.56047">
        <ele>1444</ele>
        <time>2009-07-09T09:22:50Z</time>
      </trkpt>
      <trkpt lat="44.11958" lon="3.56052">
        <ele>1444</ele>
        <time>2009-07-09T09:22:52Z</time>
      </trkpt>
      <trkpt lat="44.11944" lon="3.56096">
        <ele>1443</ele>
        <time>2009-07-09T09:23:02Z</time>
      </trkpt>
      <trkpt lat="44.1195" lon="3.56107">
        <ele>1443</ele>
        <time>2009-07-09T09:23:12Z</time>
      </trkpt>
      <trkpt lat="44.11956" lon="3.5611">
        <ele>1444</ele>
        <time>2009-07-09T09:23:37Z</time>
      </trkpt>
      <trkpt lat="44.11951" lon="3.56117">
        <ele>1444</ele>
        <time>2009-07-09T09:23:44Z</time>
      </trkpt>
      <trkpt lat="44.11937" lon="3.56125">
        <ele>1440</ele>
        <time>2009-07-09T09:23:51Z</time>
      </trkpt>
      <trkpt lat="44.11939" lon="3.56127">
        <ele>1439</ele>
        <time>2009-07-09T09:23:52Z</time>
      </trkpt>
      <trkpt lat="44.11964" lon="3.5617">
        <ele>1440</ele>
        <time>2009-07-09T09:24:06Z</time>
      </trkpt>
      <trkpt lat="44.11978" lon="3.56198">
        <ele>1443</ele>
        <time>2009-07-09T09:24:16Z</time>
      </trkpt>
      <trkpt lat="44.11986" lon="3.5625">
        <ele>1440</ele>
        <time>2009-07-09T09:24:30Z</time>
      </trkpt>
      <trkpt lat="44.11985" lon="3.56271">
        <ele>1438</ele>
        <time>2009-07-09T09:24:33Z</time>
      </trkpt>
      <trkpt lat="44.11995" lon="3.56297">
        <ele>1439</ele>
        <time>2009-07-09T09:24:38Z</time>
      </trkpt>
      <trkpt lat="44.11998" lon="3.56302">
        <ele>1440</ele>
        <time>2009-07-09T09:24:40Z</time>
      </trkpt>
      <trkpt lat="44.12007" lon="3.56306">
        <ele>1441</ele>
        <time>2009-07-09T09:24:44Z</time>
      </trkpt>
      <trkpt lat="44.12024" lon="3.56308">
        <ele>1444</ele>
        <time>2009-07-09T09:24:52Z</time>
      </trkpt>
      <trkpt lat="44.12034" lon="3.56312">
        <ele>1446</ele>
        <time>2009-07-09T09:24:57Z</time>
      </trkpt>
      <trkpt lat="44.12061" lon="3.56336">
        <ele>1449</ele>
        <time>2009-07-09T09:25:12Z</time>
      </trkpt>
      <trkpt lat="44.12081" lon="3.56367">
        <ele>1451</ele>
        <time>2009-07-09T09:25:26Z</time>
      </trkpt>
      <trkpt lat="44.12107" lon="3.56406">
        <ele>1452</ele>
        <time>2009-07-09T09:25:43Z</time>
      </trkpt>
      <trkpt lat="44.12111" lon="3.56453">
        <ele>1453</ele>
        <time>2009-07-09T09:25:57Z</time>
      </trkpt>
      <trkpt lat="44.12108" lon="3.56502">
        <ele>1453</ele>
        <time>2009-07-09T09:26:11Z</time>
      </trkpt>
      <trkpt lat="44.12081" lon="3.56515">
        <ele>1450</ele>
        <time>2009-07-09T09:26:20Z</time>
      </trkpt>
      <trkpt lat="44.12075" lon="3.56516">
        <ele>1450</ele>
        <time>2009-07-09T09:26:21Z</time>
      </trkpt>
      <trkpt lat="44.12056" lon="3.56532">
        <ele>1445</ele>
        <time>2009-07-09T09:26:25Z</time>
      </trkpt>
      <trkpt lat="44.12046" lon="3.56552">
        <ele>1444</ele>
        <time>2009-07-09T09:26:27Z</time>
      </trkpt>
      <trkpt lat="44.12035" lon="3.56575">
        <ele>1447</ele>
        <time>2009-07-09T09:26:31Z</time>
      </trkpt>
      <trkpt lat="44.12036" lon="3.56585">
        <ele>1449</ele>
        <time>2009-07-09T09:26:34Z</time>
      </trkpt>
      <trkpt lat="44.12038" lon="3.56621">
        <ele>1452</ele>
        <time>2009-07-09T09:26:46Z</time>
      </trkpt>
      <trkpt lat="44.12038" lon="3.56663">
        <ele>1454</ele>
        <time>2009-07-09T09:27:01Z</time>
      </trkpt>
      <trkpt lat="44.12038" lon="3.5668">
        <ele>1457</ele>
        <time>2009-07-09T09:27:08Z</time>
      </trkpt>
      <trkpt lat="44.12042" lon="3.56693">
        <ele>1457</ele>
        <time>2009-07-09T09:27:14Z</time>
      </trkpt>
      <trkpt lat="44.1204" lon="3.567">
        <ele>1459</ele>
        <time>2009-07-09T09:27:17Z</time>
      </trkpt>
      <trkpt lat="44.12038" lon="3.56704">
        <ele>1460</ele>
        <time>2009-07-09T09:27:19Z</time>
      </trkpt>
      <trkpt lat="44.12034" lon="3.56736">
        <ele>1463</ele>
        <time>2009-07-09T09:27:32Z</time>
      </trkpt>
      <trkpt lat="44.12031" lon="3.56771">
        <ele>1466</ele>
        <time>2009-07-09T09:27:47Z</time>
      </trkpt>
      <trkpt lat="44.12033" lon="3.56793">
        <ele>1469</ele>
        <time>2009-07-09T09:27:57Z</time>
      </trkpt>
      <trkpt lat="44.12045" lon="3.56817">
        <ele>1472</ele>
        <time>2009-07-09T09:28:10Z</time>
      </trkpt>
      <trkpt lat="44.12053" lon="3.56836">
        <ele>1475</ele>
        <time>2009-07-09T09:28:20Z</time>
      </trkpt>
      <trkpt lat="44.12054" lon="3.56838">
        <ele>1475</ele>
        <time>2009-07-09T09:28:21Z</time>
      </trkpt>
      <trkpt lat="44.12065" lon="3.56873">
        <ele>1478</ele>
        <time>2009-07-09T09:28:38Z</time>
      </trkpt>
      <trkpt lat="44.12059" lon="3.5689">
        <ele>1479</ele>
        <time>2009-07-09T09:28:45Z</time>
      </trkpt>
      <trkpt lat="44.12051" lon="3.56897">
        <ele>1479</ele>
        <time>2009-07-09T09:28:49Z</time>
      </trkpt>
      <trkpt lat="44.12041" lon="3.56897">
        <ele>1481</ele>
        <time>2009-07-09T09:28:56Z</time>
      </trkpt>
      <trkpt lat="44.12024" lon="3.56913">
        <ele>1483</ele>
        <time>2009-07-09T09:29:09Z</time>
      </trkpt>
      <trkpt lat="44.12017" lon="3.56921">
        <ele>1483</ele>
        <time>2009-07-09T09:29:14Z</time>
      </trkpt>
      <trkpt lat="44.12006" lon="3.56933">
        <ele>1485</ele>
        <time>2009-07-09T09:29:22Z</time>
      </trkpt>
      <trkpt lat="44.12001" lon="3.56945">
        <ele>1487</ele>
        <time>2009-07-09T09:29:29Z</time>
      </trkpt>
      <trkpt lat="44.1199" lon="3.56958">
        <ele>1489</ele>
        <time>2009-07-09T09:29:36Z</time>
      </trkpt>
      <trkpt lat="44.11978" lon="3.5698">
        <ele>1491</ele>
        <time>2009-07-09T09:29:49Z</time>
      </trkpt>
      <trkpt lat="44.11977" lon="3.56981">
        <ele>1491</ele>
        <time>2009-07-09T09:29:50Z</time>
      </trkpt>
      <trkpt lat="44.11967" lon="3.57">
        <ele>1494</ele>
        <time>2009-07-09T09:30:00Z</time>
      </trkpt>
      <trkpt lat="44.11953" lon="3.57029">
        <ele>1497</ele>
        <time>2009-07-09T09:30:15Z</time>
      </trkpt>
      <trkpt lat="44.11952" lon="3.57031">
        <ele>1498</ele>
        <time>2009-07-09T09:30:16Z</time>
      </trkpt>
      <trkpt lat="44.11946" lon="3.57062">
        <ele>1500</ele>
        <time>2009-07-09T09:30:30Z</time>
      </trkpt>
      <trkpt lat="44.11946" lon="3.57064">
        <ele>1500</ele>
        <time>2009-07-09T09:30:31Z</time>
      </trkpt>
      <trkpt lat="44.11942" lon="3.5708">
        <ele>1501</ele>
        <time>2009-07-09T09:30:38Z</time>
      </trkpt>
      <trkpt lat="44.11937" lon="3.57096">
        <ele>1504</ele>
        <time>2009-07-09T09:30:46Z</time>
      </trkpt>
      <trkpt lat="44.11929" lon="3.57124">
        <ele>1507</ele>
        <time>2009-07-09T09:30:59Z</time>
      </trkpt>
      <trkpt lat="44.11923" lon="3.57147">
        <ele>1510</ele>
        <time>2009-07-09T09:31:10Z</time>
      </trkpt>
      <trkpt lat="44.11917" lon="3.57176">
        <ele>1511</ele>
        <time>2009-07-09T09:31:24Z</time>
      </trkpt>
      <trkpt lat="44.11916" lon="3.57185">
        <ele>1513</ele>
        <time>2009-07-09T09:31:28Z</time>
      </trkpt>
      <trkpt lat="44.11913" lon="3.57219">
        <ele>1516</ele>
        <time>2009-07-09T09:31:43Z</time>
      </trkpt>
      <trkpt lat="44.11913" lon="3.5724">
        <ele>1519</ele>
        <time>2009-07-09T09:31:52Z</time>
      </trkpt>
      <trkpt lat="44.11916" lon="3.57261">
        <ele>1521</ele>
        <time>2009-07-09T09:32:01Z</time>
      </trkpt>
      <trkpt lat="44.11925" lon="3.57296">
        <ele>1523</ele>
        <time>2009-07-09T09:32:17Z</time>
      </trkpt>
      <trkpt lat="44.11937" lon="3.5733">
        <ele>1527</ele>
        <time>2009-07-09T09:32:32Z</time>
      </trkpt>
      <trkpt lat="44.11953" lon="3.5736">
        <ele>1528</ele>
        <time>2009-07-09T09:32:47Z</time>
      </trkpt>
      <trkpt lat="44.11975" lon="3.57388">
        <ele>1530</ele>
        <time>2009-07-09T09:33:03Z</time>
      </trkpt>
      <trkpt lat="44.11998" lon="3.5741">
        <ele>1532</ele>
        <time>2009-07-09T09:33:18Z</time>
      </trkpt>
      <trkpt lat="44.12024" lon="3.57431">
        <ele>1535</ele>
        <time>2009-07-09T09:33:34Z</time>
      </trkpt>
      <trkpt lat="44.12035" lon="3.57449">
        <ele>1538</ele>
        <time>2009-07-09T09:33:43Z</time>
      </trkpt>
      <trkpt lat="44.12036" lon="3.57451">
        <ele>1538</ele>
        <time>2009-07-09T09:33:44Z</time>
      </trkpt>
      <trkpt lat="44.12046" lon="3.57485">
        <ele>1540</ele>
        <time>2009-07-09T09:33:58Z</time>
      </trkpt>
      <trkpt lat="44.12055" lon="3.57524">
        <ele>1542</ele>
        <time>2009-07-09T09:34:14Z</time>
      </trkpt>
      <trkpt lat="44.12056" lon="3.57546">
        <ele>1544</ele>
        <time>2009-07-09T09:34:22Z</time>
      </trkpt>
      <trkpt lat="44.12058" lon="3.57578">
        <ele>1547</ele>
        <time>2009-07-09T09:34:35Z</time>
      </trkpt>
      <trkpt lat="44.12063" lon="3.57622">
        <ele>1550</ele>
        <time>2009-07-09T09:34:51Z</time>
      </trkpt>
      <trkpt lat="44.12064" lon="3.57624">
        <ele>1551</ele>
        <time>2009-07-09T09:34:52Z</time>
      </trkpt>
      <trkpt lat="44.12068" lon="3.57675">
        <ele>1553</ele>
        <time>2009-07-09T09:35:10Z</time>
      </trkpt>
      <trkpt lat="44.12069" lon="3.57712">
        <ele>1556</ele>
        <time>2009-07-09T09:35:23Z</time>
      </trkpt>
      <trkpt lat="44.12069" lon="3.57714">
        <ele>1556</ele>
        <time>2009-07-09T09:35:24Z</time>
      </trkpt>
      <trkpt lat="44.12066" lon="3.5775">
        <ele>1558</ele>
        <time>2009-07-09T09:35:37Z</time>
      </trkpt>
      <trkpt lat="44.12066" lon="3.5779">
        <ele>1561</ele>
        <time>2009-07-09T09:35:52Z</time>
      </trkpt>
      <trkpt lat="44.12072" lon="3.57835">
        <ele>1563</ele>
        <time>2009-07-09T09:36:08Z</time>
      </trkpt>
      <trkpt lat="44.12076" lon="3.57842">
        <ele>1564</ele>
        <time>2009-07-09T09:36:11Z</time>
      </trkpt>
      <trkpt lat="44.12089" lon="3.57844">
        <ele>1563</ele>
        <time>2009-07-09T09:36:17Z</time>
      </trkpt>
      <trkpt lat="44.12112" lon="3.57888">
        <ele>1565</ele>
        <time>2009-07-09T09:36:31Z</time>
      </trkpt>
      <trkpt lat="44.12118" lon="3.57897">
        <ele>1567</ele>
        <time>2009-07-09T09:36:37Z</time>
      </trkpt>
      <trkpt lat="44.12121" lon="3.57896">
        <ele>1565</ele>
        <time>2009-07-09T09:36:40Z</time>
      </trkpt>
      <trkpt lat="44.12119" lon="3.579">
        <ele>1566</ele>
        <time>2009-07-09T09:36:47Z</time>
      </trkpt>
      <trkpt lat="44.12122" lon="3.57968">
        <ele>1563</ele>
        <time>2009-07-09T09:37:02Z</time>
      </trkpt>
      <trkpt lat="44.12122" lon="3.57974">
        <ele>1563</ele>
        <time>2009-07-09T09:37:03Z</time>
      </trkpt>
      <trkpt lat="44.12137" lon="3.57997">
        <ele>1562</ele>
        <time>2009-07-09T09:37:09Z</time>
      </trkpt>
      <trkpt lat="44.12152" lon="3.57999">
        <ele>1563</ele>
        <time>2009-07-09T09:37:16Z</time>
      </trkpt>
      <trkpt lat="44.12154" lon="3.57994">
        <ele>1564</ele>
        <time>2009-07-09T09:37:20Z</time>
      </trkpt>
      <trkpt lat="44.12149" lon="3.57993">
        <ele>1564</ele>
        <time>2009-07-09T09:37:22Z</time>
      </trkpt>
      <trkpt lat="44.12141" lon="3.57999">
        <ele>1564</ele>
        <time>2009-07-09T09:37:25Z</time>
      </trkpt>
      <trkpt lat="44.12138" lon="3.58027">
        <ele>1562</ele>
        <time>2009-07-09T09:37:30Z</time>
      </trkpt>
      <trkpt lat="44.12156" lon="3.58091">
        <ele>1564</ele>
        <time>2009-07-09T09:37:42Z</time>
      </trkpt>
      <trkpt lat="44.12148" lon="3.58115">
        <ele>1568</ele>
        <time>2009-07-09T09:37:47Z</time>
      </trkpt>
      <trkpt lat="44.12137" lon="3.58118">
        <ele>1569</ele>
        <time>2009-07-09T09:37:50Z</time>
      </trkpt>
      <trkpt lat="44.12131" lon="3.58142">
        <ele>1569</ele>
        <time>2009-07-09T09:37:59Z</time>
      </trkpt>
      <trkpt lat="44.12125" lon="3.58144">
        <ele>1569</ele>
        <time>2009-07-09T09:38:03Z</time>
      </trkpt>
      <trkpt lat="44.12112" lon="3.58142">
        <ele>1570</ele>
        <time>2009-07-09T09:38:14Z</time>
      </trkpt>
      <trkpt lat="44.1211" lon="3.58139">
        <ele>1569</ele>
        <time>2009-07-09T09:39:05Z</time>
      </trkpt>
      <trkpt lat="44.12111" lon="3.58138">
        <ele>1570</ele>
        <time>2009-07-09T09:39:36Z</time>
      </trkpt>
      <trkpt lat="44.12111" lon="3.58138">
        <ele>1570</ele>
        <time>2009-07-09T09:40:05Z</time>
      </trkpt>
      <trkpt lat="44.12111" lon="3.58137">
        <ele>1572</ele>
        <time>2009-07-09T09:40:13Z</time>
      </trkpt>
      <trkpt lat="44.12112" lon="3.58139">
        <ele>1569</ele>
        <time>2009-07-09T09:41:30Z</time>
      </trkpt>
      <trkpt lat="44.1213" lon="3.5814">
        <ele>1569</ele>
        <time>2009-07-09T09:41:42Z</time>
      </trkpt>
      <trkpt lat="44.12133" lon="3.58133">
        <ele>1569</ele>
        <time>2009-07-09T09:41:47Z</time>
      </trkpt>
      <trkpt lat="44.12132" lon="3.58119">
        <ele>1569</ele>
        <time>2009-07-09T09:41:55Z</time>
      </trkpt>
      <trkpt lat="44.12154" lon="3.5811">
        <ele>1565</ele>
        <time>2009-07-09T09:42:05Z</time>
      </trkpt>
      <trkpt lat="44.12159" lon="3.5811">
        <ele>1567</ele>
        <time>2009-07-09T09:42:15Z</time>
      </trkpt>
      <trkpt lat="44.12162" lon="3.58141">
        <ele>1568</ele>
        <time>2009-07-09T09:42:26Z</time>
      </trkpt>
      <trkpt lat="44.12162" lon="3.58148">
        <ele>1568</ele>
        <time>2009-07-09T09:42:28Z</time>
      </trkpt>
      <trkpt lat="44.12168" lon="3.58166">
        <ele>1567</ele>
        <time>2009-07-09T09:42:35Z</time>
      </trkpt>
      <trkpt lat="44.12166" lon="3.58185">
        <ele>1566</ele>
        <time>2009-07-09T09:42:39Z</time>
      </trkpt>
      <trkpt lat="44.12158" lon="3.58191">
        <ele>1567</ele>
        <time>2009-07-09T09:42:48Z</time>
      </trkpt>
      <trkpt lat="44.12155" lon="3.58187">
        <ele>1567</ele>
        <time>2009-07-09T09:43:07Z</time>
      </trkpt>
      <trkpt lat="44.12155" lon="3.58184">
        <ele>1567</ele>
        <time>2009-07-09T09:43:22Z</time>
      </trkpt>
      <trkpt lat="44.12155" lon="3.58184">
        <ele>1567</ele>
        <time>2009-07-09T09:43:57Z</time>
      </trkpt>
      <trkpt lat="44.12155" lon="3.58192">
        <ele>1567</ele>
        <time>2009-07-09T09:44:35Z</time>
      </trkpt>
      <trkpt lat="44.12155" lon="3.58193">
        <ele>1567</ele>
        <time>2009-07-09T09:45:08Z</time>
      </trkpt>
      <trkpt lat="44.12156" lon="3.58186">
        <ele>1568</ele>
        <time>2009-07-09T09:45:48Z</time>
      </trkpt>
      <trkpt lat="44.12156" lon="3.58187">
        <ele>1568</ele>
        <time>2009-07-09T09:46:39Z</time>
      </trkpt>
      <trkpt lat="44.12157" lon="3.58189">
        <ele>1567</ele>
        <time>2009-07-09T09:47:21Z</time>
      </trkpt>
      <trkpt lat="44.12157" lon="3.58189">
        <ele>1567</ele>
        <time>2009-07-09T09:47:29Z</time>
      </trkpt>
      <trkpt lat="44.12157" lon="3.58187">
        <ele>1569</ele>
        <time>2009-07-09T09:48:03Z</time>
      </trkpt>
      <trkpt lat="44.12157" lon="3.58187">
        <ele>1569</ele>
        <time>2009-07-09T09:48:04Z</time>
      </trkpt>
      <trkpt lat="44.12159" lon="3.58185">
        <ele>1567</ele>
        <time>2009-07-09T09:48:24Z</time>
      </trkpt>
      <trkpt lat="44.12159" lon="3.58185">
        <ele>1568</ele>
        <time>2009-07-09T09:48:42Z</time>
      </trkpt>
      <trkpt lat="44.1216" lon="3.58187">
        <ele>1568</ele>
        <time>2009-07-09T09:48:54Z</time>
      </trkpt>
      <trkpt lat="44.12166" lon="3.58187">
        <ele>1566</ele>
        <time>2009-07-09T09:48:58Z</time>
      </trkpt>
      <trkpt lat="44.12167" lon="3.5818">
        <ele>1567</ele>
        <time>2009-07-09T09:49:01Z</time>
      </trkpt>
      <trkpt lat="44.12177" lon="3.5813">
        <ele>1568</ele>
        <time>2009-07-09T09:49:14Z</time>
      </trkpt>
      <trkpt lat="44.12175" lon="3.58109">
        <ele>1567</ele>
        <time>2009-07-09T09:49:18Z</time>
      </trkpt>
      <trkpt lat="44.12155" lon="3.58067">
        <ele>1566</ele>
        <time>2009-07-09T09:49:25Z</time>
      </trkpt>
      <trkpt lat="44.12151" lon="3.5806">
        <ele>1566</ele>
        <time>2009-07-09T09:49:26Z</time>
      </trkpt>
      <trkpt lat="44.12138" lon="3.58013">
        <ele>1564</ele>
        <time>2009-07-09T09:49:32Z</time>
      </trkpt>
      <trkpt lat="44.12152" lon="3.57972">
        <ele>1565</ele>
        <time>2009-07-09T09:49:40Z</time>
      </trkpt>
      <trkpt lat="44.12152" lon="3.57967">
        <ele>1565</ele>
        <time>2009-07-09T09:49:41Z</time>
      </trkpt>
      <trkpt lat="44.1215" lon="3.57952">
        <ele>1565</ele>
        <time>2009-07-09T09:49:44Z</time>
      </trkpt>
      <trkpt lat="44.12126" lon="3.57884">
        <ele>1567</ele>
        <time>2009-07-09T09:49:58Z</time>
      </trkpt>
      <trkpt lat="44.12121" lon="3.57867">
        <ele>1565</ele>
        <time>2009-07-09T09:50:01Z</time>
      </trkpt>
      <trkpt lat="44.12121" lon="3.57861">
        <ele>1564</ele>
        <time>2009-07-09T09:50:02Z</time>
      </trkpt>
      <trkpt lat="44.12123" lon="3.57836">
        <ele>1563</ele>
        <time>2009-07-09T09:50:06Z</time>
      </trkpt>
      <trkpt lat="44.12136" lon="3.57753">
        <ele>1563</ele>
        <time>2009-07-09T09:50:19Z</time>
      </trkpt>
      <trkpt lat="44.12143" lon="3.57735">
        <ele>1561</ele>
        <time>2009-07-09T09:50:22Z</time>
      </trkpt>
      <trkpt lat="44.1215" lon="3.57719">
        <ele>1561</ele>
        <time>2009-07-09T09:50:25Z</time>
      </trkpt>
      <trkpt lat="44.12156" lon="3.57689">
        <ele>1563</ele>
        <time>2009-07-09T09:50:30Z</time>
      </trkpt>
      <trkpt lat="44.12162" lon="3.57576">
        <ele>1564</ele>
        <time>2009-07-09T09:50:49Z</time>
      </trkpt>
      <trkpt lat="44.12163" lon="3.57527">
        <ele>1563</ele>
        <time>2009-07-09T09:51:01Z</time>
      </trkpt>
      <trkpt lat="44.12165" lon="3.57467">
        <ele>1560</ele>
        <time>2009-07-09T09:51:11Z</time>
      </trkpt>
      <trkpt lat="44.12164" lon="3.57407">
        <ele>1559</ele>
        <time>2009-07-09T09:51:19Z</time>
      </trkpt>
      <trkpt lat="44.12164" lon="3.57379">
        <ele>1559</ele>
        <time>2009-07-09T09:51:23Z</time>
      </trkpt>
      <trkpt lat="44.12164" lon="3.57283">
        <ele>1555</ele>
        <time>2009-07-09T09:51:37Z</time>
      </trkpt>
      <trkpt lat="44.12173" lon="3.57222">
        <ele>1552</ele>
        <time>2009-07-09T09:51:45Z</time>
      </trkpt>
      <trkpt lat="44.12209" lon="3.57087">
        <ele>1550</ele>
        <time>2009-07-09T09:52:03Z</time>
      </trkpt>
      <trkpt lat="44.12231" lon="3.57019">
        <ele>1547</ele>
        <time>2009-07-09T09:52:13Z</time>
      </trkpt>
      <trkpt lat="44.12268" lon="3.57004">
        <ele>1548</ele>
        <time>2009-07-09T09:52:21Z</time>
      </trkpt>
      <trkpt lat="44.12297" lon="3.57023">
        <ele>1546</ele>
        <time>2009-07-09T09:52:26Z</time>
      </trkpt>
      <trkpt lat="44.12336" lon="3.57027">
        <ele>1546</ele>
        <time>2009-07-09T09:52:33Z</time>
      </trkpt>
      <trkpt lat="44.12344" lon="3.57032">
        <ele>1545</ele>
        <time>2009-07-09T09:52:43Z</time>
      </trkpt>
      <trkpt lat="44.12344" lon="3.57031">
        <ele>1544</ele>
        <time>2009-07-09T09:52:46Z</time>
      </trkpt>
      <trkpt lat="44.12346" lon="3.5703">
        <ele>1544</ele>
        <time>2009-07-09T09:52:48Z</time>
      </trkpt>
      <trkpt lat="44.12357" lon="3.57027">
        <ele>1544</ele>
        <time>2009-07-09T09:52:53Z</time>
      </trkpt>
      <trkpt lat="44.12378" lon="3.57027">
        <ele>1544</ele>
        <time>2009-07-09T09:53:06Z</time>
      </trkpt>
      <trkpt lat="44.12379" lon="3.57026">
        <ele>1544</ele>
        <time>2009-07-09T09:53:08Z</time>
      </trkpt>
      <trkpt lat="44.12385" lon="3.57025">
        <ele>1544</ele>
        <time>2009-07-09T09:53:21Z</time>
      </trkpt>
      <trkpt lat="44.12426" lon="3.57024">
        <ele>1544</ele>
        <time>2009-07-09T09:53:33Z</time>
      </trkpt>
      <trkpt lat="44.12439" lon="3.57023">
        <ele>1541</ele>
        <time>2009-07-09T09:53:36Z</time>
      </trkpt>
      <trkpt lat="44.12464" lon="3.57023">
        <ele>1542</ele>
        <time>2009-07-09T09:53:41Z</time>
      </trkpt>
      <trkpt lat="44.12487" lon="3.57023">
        <ele>1540</ele>
        <time>2009-07-09T09:53:46Z</time>
      </trkpt>
      <trkpt lat="44.12516" lon="3.57022">
        <ele>1537</ele>
        <time>2009-07-09T09:53:52Z</time>
      </trkpt>
      <trkpt lat="44.12536" lon="3.57018">
        <ele>1536</ele>
        <time>2009-07-09T09:53:56Z</time>
      </trkpt>
      <trkpt lat="44.12552" lon="3.57015">
        <ele>1535</ele>
        <time>2009-07-09T09:53:59Z</time>
      </trkpt>
      <trkpt lat="44.12569" lon="3.57011">
        <ele>1533</ele>
        <time>2009-07-09T09:54:02Z</time>
      </trkpt>
      <trkpt lat="44.12592" lon="3.57007">
        <ele>1531</ele>
        <time>2009-07-09T09:54:06Z</time>
      </trkpt>
      <trkpt lat="44.1261" lon="3.57005">
        <ele>1530</ele>
        <time>2009-07-09T09:54:09Z</time>
      </trkpt>
      <trkpt lat="44.12621" lon="3.57003">
        <ele>1530</ele>
        <time>2009-07-09T09:54:11Z</time>
      </trkpt>
      <trkpt lat="44.12634" lon="3.57006">
        <ele>1529</ele>
        <time>2009-07-09T09:54:14Z</time>
      </trkpt>
      <trkpt lat="44.12661" lon="3.57021">
        <ele>1526</ele>
        <time>2009-07-09T09:54:20Z</time>
      </trkpt>
      <trkpt lat="44.1268" lon="3.57032">
        <ele>1526</ele>
        <time>2009-07-09T09:54:25Z</time>
      </trkpt>
      <trkpt lat="44.12716" lon="3.57045">
        <ele>1524</ele>
        <time>2009-07-09T09:54:34Z</time>
      </trkpt>
      <trkpt lat="44.12748" lon="3.57045">
        <ele>1525</ele>
        <time>2009-07-09T09:54:44Z</time>
      </trkpt>
      <trkpt lat="44.12797" lon="3.57034">
        <ele>1522</ele>
        <time>2009-07-09T09:54:57Z</time>
      </trkpt>
      <trkpt lat="44.12802" lon="3.57032">
        <ele>1521</ele>
        <time>2009-07-09T09:54:58Z</time>
      </trkpt>
      <trkpt lat="44.12825" lon="3.57024">
        <ele>1518</ele>
        <time>2009-07-09T09:55:03Z</time>
      </trkpt>
      <trkpt lat="44.12868" lon="3.57009">
        <ele>1518</ele>
        <time>2009-07-09T09:55:14Z</time>
      </trkpt>
      <trkpt lat="44.12893" lon="3.56996">
        <ele>1519</ele>
        <time>2009-07-09T09:55:23Z</time>
      </trkpt>
      <trkpt lat="44.12912" lon="3.56984">
        <ele>1517</ele>
        <time>2009-07-09T09:55:31Z</time>
      </trkpt>
      <trkpt lat="44.12958" lon="3.56964">
        <ele>1516</ele>
        <time>2009-07-09T09:55:45Z</time>
      </trkpt>
      <trkpt lat="44.12996" lon="3.56942">
        <ele>1516</ele>
        <time>2009-07-09T09:55:58Z</time>
      </trkpt>
      <trkpt lat="44.13002" lon="3.56938">
        <ele>1514</ele>
        <time>2009-07-09T09:56:01Z</time>
      </trkpt>
      <trkpt lat="44.13012" lon="3.56933">
        <ele>1515</ele>
        <time>2009-07-09T09:56:06Z</time>
      </trkpt>
      <trkpt lat="44.13026" lon="3.56925">
        <ele>1517</ele>
        <time>2009-07-09T09:56:11Z</time>
      </trkpt>
      <trkpt lat="44.13036" lon="3.56919">
        <ele>1517</ele>
        <time>2009-07-09T09:56:17Z</time>
      </trkpt>
      <trkpt lat="44.13045" lon="3.56909">
        <ele>1515</ele>
        <time>2009-07-09T09:56:22Z</time>
      </trkpt>
      <trkpt lat="44.13063" lon="3.56879">
        <ele>1516</ele>
        <time>2009-07-09T09:56:33Z</time>
      </trkpt>
      <trkpt lat="44.1307" lon="3.56841">
        <ele>1514</ele>
        <time>2009-07-09T09:56:44Z</time>
      </trkpt>
      <trkpt lat="44.13073" lon="3.5682">
        <ele>1515</ele>
        <time>2009-07-09T09:56:56Z</time>
      </trkpt>
      <trkpt lat="44.13072" lon="3.56818">
        <ele>1516</ele>
        <time>2009-07-09T09:57:10Z</time>
      </trkpt>
      <trkpt lat="44.13067" lon="3.56808">
        <ele>1513</ele>
        <time>2009-07-09T09:57:15Z</time>
      </trkpt>
      <trkpt lat="44.13075" lon="3.56759">
        <ele>1514</ele>
        <time>2009-07-09T09:57:28Z</time>
      </trkpt>
      <trkpt lat="44.1309" lon="3.56703">
        <ele>1514</ele>
        <time>2009-07-09T09:57:41Z</time>
      </trkpt>
      <trkpt lat="44.13112" lon="3.56648">
        <ele>1513</ele>
        <time>2009-07-09T09:57:55Z</time>
      </trkpt>
      <trkpt lat="44.13146" lon="3.56599">
        <ele>1513</ele>
        <time>2009-07-09T09:58:10Z</time>
      </trkpt>
      <trkpt lat="44.13186" lon="3.56548">
        <ele>1513</ele>
        <time>2009-07-09T09:58:29Z</time>
      </trkpt>
      <trkpt lat="44.13218" lon="3.56512">
        <ele>1512</ele>
        <time>2009-07-09T09:58:44Z</time>
      </trkpt>
      <trkpt lat="44.13247" lon="3.56487">
        <ele>1511</ele>
        <time>2009-07-09T09:58:56Z</time>
      </trkpt>
      <trkpt lat="44.13292" lon="3.56477">
        <ele>1509</ele>
        <time>2009-07-09T09:59:09Z</time>
      </trkpt>
      <trkpt lat="44.13328" lon="3.56475">
        <ele>1506</ele>
        <time>2009-07-09T09:59:20Z</time>
      </trkpt>
      <trkpt lat="44.13368" lon="3.56474">
        <ele>1509</ele>
        <time>2009-07-09T09:59:32Z</time>
      </trkpt>
      <trkpt lat="44.13377" lon="3.56473">
        <ele>1507</ele>
        <time>2009-07-09T09:59:35Z</time>
      </trkpt>
      <trkpt lat="44.13396" lon="3.5647">
        <ele>1508</ele>
        <time>2009-07-09T09:59:46Z</time>
      </trkpt>
      <trkpt lat="44.13403" lon="3.56467">
        <ele>1509</ele>
        <time>2009-07-09T10:00:02Z</time>
      </trkpt>
      <trkpt lat="44.13413" lon="3.56461">
        <ele>1509</ele>
        <time>2009-07-09T10:00:15Z</time>
      </trkpt>
      <trkpt lat="44.13445" lon="3.56441">
        <ele>1509</ele>
        <time>2009-07-09T10:00:26Z</time>
      </trkpt>
      <trkpt lat="44.13462" lon="3.56436">
        <ele>1510</ele>
        <time>2009-07-09T10:00:32Z</time>
      </trkpt>
      <trkpt lat="44.13476" lon="3.56442">
        <ele>1510</ele>
        <time>2009-07-09T10:00:38Z</time>
      </trkpt>
      <trkpt lat="44.13485" lon="3.56447">
        <ele>1511</ele>
        <time>2009-07-09T10:00:42Z</time>
      </trkpt>
      <trkpt lat="44.13493" lon="3.56449">
        <ele>1508</ele>
        <time>2009-07-09T10:00:46Z</time>
      </trkpt>
      <trkpt lat="44.13528" lon="3.56472">
        <ele>1508</ele>
        <time>2009-07-09T10:01:02Z</time>
      </trkpt>
      <trkpt lat="44.13531" lon="3.56474">
        <ele>1508</ele>
        <time>2009-07-09T10:01:03Z</time>
      </trkpt>
      <trkpt lat="44.13567" lon="3.56497">
        <ele>1508</ele>
        <time>2009-07-09T10:01:16Z</time>
      </trkpt>
      <trkpt lat="44.13582" lon="3.56506">
        <ele>1509</ele>
        <time>2009-07-09T10:01:22Z</time>
      </trkpt>
      <trkpt lat="44.13594" lon="3.56516">
        <ele>1511</ele>
        <time>2009-07-09T10:01:28Z</time>
      </trkpt>
      <trkpt lat="44.13607" lon="3.56517">
        <ele>1510</ele>
        <time>2009-07-09T10:01:34Z</time>
      </trkpt>
      <trkpt lat="44.13645" lon="3.56528">
        <ele>1510</ele>
        <time>2009-07-09T10:01:49Z</time>
      </trkpt>
      <trkpt lat="44.13685" lon="3.56548">
        <ele>1512</ele>
        <time>2009-07-09T10:02:05Z</time>
      </trkpt>
      <trkpt lat="44.13717" lon="3.56562">
        <ele>1514</ele>
        <time>2009-07-09T10:02:19Z</time>
      </trkpt>
      <trkpt lat="44.13758" lon="3.56573">
        <ele>1514</ele>
        <time>2009-07-09T10:02:35Z</time>
      </trkpt>
      <trkpt lat="44.138" lon="3.56585">
        <ele>1515</ele>
        <time>2009-07-09T10:02:52Z</time>
      </trkpt>
      <trkpt lat="44.13837" lon="3.56601">
        <ele>1516</ele>
        <time>2009-07-09T10:03:06Z</time>
      </trkpt>
      <trkpt lat="44.13878" lon="3.56624">
        <ele>1515</ele>
        <time>2009-07-09T10:03:21Z</time>
      </trkpt>
      <trkpt lat="44.13886" lon="3.56628">
        <ele>1513</ele>
        <time>2009-07-09T10:03:24Z</time>
      </trkpt>
      <trkpt lat="44.13904" lon="3.56633">
        <ele>1511</ele>
        <time>2009-07-09T10:03:29Z</time>
      </trkpt>
      <trkpt lat="44.13916" lon="3.56637">
        <ele>1509</ele>
        <time>2009-07-09T10:03:32Z</time>
      </trkpt>
      <trkpt lat="44.13934" lon="3.56645">
        <ele>1508</ele>
        <time>2009-07-09T10:03:36Z</time>
      </trkpt>
      <trkpt lat="44.13944" lon="3.56647">
        <ele>1507</ele>
        <time>2009-07-09T10:03:38Z</time>
      </trkpt>
      <trkpt lat="44.13962" lon="3.56648">
        <ele>1503</ele>
        <time>2009-07-09T10:03:41Z</time>
      </trkpt>
      <trkpt lat="44.13975" lon="3.56649">
        <ele>1501</ele>
        <time>2009-07-09T10:03:43Z</time>
      </trkpt>
      <trkpt lat="44.14" lon="3.56651">
        <ele>1499</ele>
        <time>2009-07-09T10:03:47Z</time>
      </trkpt>
      <trkpt lat="44.14006" lon="3.5665">
        <ele>1498</ele>
        <time>2009-07-09T10:03:48Z</time>
      </trkpt>
      <trkpt lat="44.14027" lon="3.56644">
        <ele>1492</ele>
        <time>2009-07-09T10:03:51Z</time>
      </trkpt>
      <trkpt lat="44.14034" lon="3.56643">
        <ele>1492</ele>
        <time>2009-07-09T10:03:52Z</time>
      </trkpt>
      <trkpt lat="44.14045" lon="3.56641">
        <ele>1491</ele>
        <time>2009-07-09T10:03:54Z</time>
      </trkpt>
      <trkpt lat="44.14058" lon="3.56628">
        <ele>1490</ele>
        <time>2009-07-09T10:03:59Z</time>
      </trkpt>
      <trkpt lat="44.14066" lon="3.5662">
        <ele>1489</ele>
        <time>2009-07-09T10:04:03Z</time>
      </trkpt>
      <trkpt lat="44.14082" lon="3.56612">
        <ele>1486</ele>
        <time>2009-07-09T10:04:07Z</time>
      </trkpt>
      <trkpt lat="44.14112" lon="3.56604">
        <ele>1481</ele>
        <time>2009-07-09T10:04:15Z</time>
      </trkpt>
      <trkpt lat="44.14125" lon="3.56599">
        <ele>1479</ele>
        <time>2009-07-09T10:04:19Z</time>
      </trkpt>
      <trkpt lat="44.1415" lon="3.56594">
        <ele>1477</ele>
        <time>2009-07-09T10:04:26Z</time>
      </trkpt>
      <trkpt lat="44.14156" lon="3.5659">
        <ele>1475</ele>
        <time>2009-07-09T10:04:28Z</time>
      </trkpt>
      <trkpt lat="44.14165" lon="3.56587">
        <ele>1473</ele>
        <time>2009-07-09T10:04:31Z</time>
      </trkpt>
      <trkpt lat="44.1417" lon="3.5658">
        <ele>1472</ele>
        <time>2009-07-09T10:04:33Z</time>
      </trkpt>
      <trkpt lat="44.14181" lon="3.56576">
        <ele>1471</ele>
        <time>2009-07-09T10:04:38Z</time>
      </trkpt>
      <trkpt lat="44.1418" lon="3.56575">
        <ele>1472</ele>
        <time>2009-07-09T10:04:46Z</time>
      </trkpt>
      <trkpt lat="44.14173" lon="3.56576">
        <ele>1472</ele>
        <time>2009-07-09T10:05:00Z</time>
      </trkpt>
      <trkpt lat="44.14173" lon="3.56576">
        <ele>1472</ele>
        <time>2009-07-09T10:05:15Z</time>
      </trkpt>
      <trkpt lat="44.14174" lon="3.56576">
        <ele>1472</ele>
        <time>2009-07-09T10:05:41Z</time>
      </trkpt>
      <trkpt lat="44.14175" lon="3.56576">
        <ele>1472</ele>
        <time>2009-07-09T10:05:42Z</time>
      </trkpt>
      <trkpt lat="44.14185" lon="3.56577">
        <ele>1471</ele>
        <time>2009-07-09T10:05:56Z</time>
      </trkpt>
      <trkpt lat="44.14188" lon="3.56575">
        <ele>1471</ele>
        <time>2009-07-09T10:06:10Z</time>
      </trkpt>
      <trkpt lat="44.14195" lon="3.56571">
        <ele>1470</ele>
        <time>2009-07-09T10:06:45Z</time>
      </trkpt>
      <trkpt lat="44.14198" lon="3.56565">
        <ele>1467</ele>
        <time>2009-07-09T10:06:52Z</time>
      </trkpt>
      <trkpt lat="44.142" lon="3.56563">
        <ele>1466</ele>
        <time>2009-07-09T10:06:54Z</time>
      </trkpt>
      <trkpt lat="44.14202" lon="3.5656">
        <ele>1465</ele>
        <time>2009-07-09T10:06:57Z</time>
      </trkpt>
      <trkpt lat="44.14206" lon="3.56553">
        <ele>1463</ele>
        <time>2009-07-09T10:07:08Z</time>
      </trkpt>
      <trkpt lat="44.14217" lon="3.5654">
        <ele>1460</ele>
        <time>2009-07-09T10:07:17Z</time>
      </trkpt>
      <trkpt lat="44.14223" lon="3.5653">
        <ele>1457</ele>
        <time>2009-07-09T10:07:20Z</time>
      </trkpt>
      <trkpt lat="44.14232" lon="3.5652">
        <ele>1453</ele>
        <time>2009-07-09T10:07:24Z</time>
      </trkpt>
      <trkpt lat="44.14234" lon="3.56517">
        <ele>1453</ele>
        <time>2009-07-09T10:07:25Z</time>
      </trkpt>
      <trkpt lat="44.14247" lon="3.56501">
        <ele>1450</ele>
        <time>2009-07-09T10:07:30Z</time>
      </trkpt>
      <trkpt lat="44.14249" lon="3.56498">
        <ele>1450</ele>
        <time>2009-07-09T10:07:31Z</time>
      </trkpt>
      <trkpt lat="44.14263" lon="3.56481">
        <ele>1446</ele>
        <time>2009-07-09T10:07:37Z</time>
      </trkpt>
      <trkpt lat="44.14271" lon="3.56472">
        <ele>1443</ele>
        <time>2009-07-09T10:07:41Z</time>
      </trkpt>
      <trkpt lat="44.14273" lon="3.5647">
        <ele>1442</ele>
        <time>2009-07-09T10:07:42Z</time>
      </trkpt>
      <trkpt lat="44.14294" lon="3.56461">
        <ele>1440</ele>
        <time>2009-07-09T10:07:50Z</time>
      </trkpt>
      <trkpt lat="44.14304" lon="3.56457">
        <ele>1436</ele>
        <time>2009-07-09T10:07:53Z</time>
      </trkpt>
      <trkpt lat="44.14317" lon="3.56452">
        <ele>1434</ele>
        <time>2009-07-09T10:07:56Z</time>
      </trkpt>
      <trkpt lat="44.14327" lon="3.56447">
        <ele>1433</ele>
        <time>2009-07-09T10:07:58Z</time>
      </trkpt>
      <trkpt lat="44.14343" lon="3.56433">
        <ele>1432</ele>
        <time>2009-07-09T10:08:03Z</time>
      </trkpt>
      <trkpt lat="44.14355" lon="3.56411">
        <ele>1429</ele>
        <time>2009-07-09T10:08:07Z</time>
      </trkpt>
      <trkpt lat="44.14365" lon="3.56399">
        <ele>1428</ele>
        <time>2009-07-09T10:08:09Z</time>
      </trkpt>
      <trkpt lat="44.1437" lon="3.56393">
        <ele>1426</ele>
        <time>2009-07-09T10:08:10Z</time>
      </trkpt>
      <trkpt lat="44.14383" lon="3.56382">
        <ele>1422</ele>
        <time>2009-07-09T10:08:12Z</time>
      </trkpt>
      <trkpt lat="44.1439" lon="3.56377">
        <ele>1424</ele>
        <time>2009-07-09T10:08:13Z</time>
      </trkpt>
      <trkpt lat="44.14409" lon="3.5636">
        <ele>1422</ele>
        <time>2009-07-09T10:08:16Z</time>
      </trkpt>
      <trkpt lat="44.14415" lon="3.56354">
        <ele>1422</ele>
        <time>2009-07-09T10:08:17Z</time>
      </trkpt>
      <trkpt lat="44.14427" lon="3.56346">
        <ele>1420</ele>
        <time>2009-07-09T10:08:19Z</time>
      </trkpt>
      <trkpt lat="44.14432" lon="3.56342">
        <ele>1420</ele>
        <time>2009-07-09T10:08:20Z</time>
      </trkpt>
      <trkpt lat="44.14442" lon="3.56337">
        <ele>1418</ele>
        <time>2009-07-09T10:08:22Z</time>
      </trkpt>
      <trkpt lat="44.14466" lon="3.56319">
        <ele>1414</ele>
        <time>2009-07-09T10:08:28Z</time>
      </trkpt>
      <trkpt lat="44.14484" lon="3.563">
        <ele>1411</ele>
        <time>2009-07-09T10:08:32Z</time>
      </trkpt>
      <trkpt lat="44.14496" lon="3.56293">
        <ele>1410</ele>
        <time>2009-07-09T10:08:34Z</time>
      </trkpt>
      <trkpt lat="44.14527" lon="3.56274">
        <ele>1410</ele>
        <time>2009-07-09T10:08:40Z</time>
      </trkpt>
      <trkpt lat="44.14538" lon="3.56268">
        <ele>1411</ele>
        <time>2009-07-09T10:08:43Z</time>
      </trkpt>
      <trkpt lat="44.14578" lon="3.56234">
        <ele>1413</ele>
        <time>2009-07-09T10:08:57Z</time>
      </trkpt>
      <trkpt lat="44.14623" lon="3.56185">
        <ele>1416</ele>
        <time>2009-07-09T10:09:15Z</time>
      </trkpt>
      <trkpt lat="44.14654" lon="3.56159">
        <ele>1419</ele>
        <time>2009-07-09T10:09:28Z</time>
      </trkpt>
      <trkpt lat="44.14671" lon="3.56145">
        <ele>1420</ele>
        <time>2009-07-09T10:09:35Z</time>
      </trkpt>
      <trkpt lat="44.14683" lon="3.56137">
        <ele>1419</ele>
        <time>2009-07-09T10:09:47Z</time>
      </trkpt>
      <trkpt lat="44.14686" lon="3.56135">
        <ele>1419</ele>
        <time>2009-07-09T10:10:00Z</time>
      </trkpt>
      <trkpt lat="44.14711" lon="3.56121">
        <ele>1421</ele>
        <time>2009-07-09T10:10:13Z</time>
      </trkpt>
      <trkpt lat="44.14736" lon="3.56097">
        <ele>1424</ele>
        <time>2009-07-09T10:10:27Z</time>
      </trkpt>
      <trkpt lat="44.14748" lon="3.56086">
        <ele>1427</ele>
        <time>2009-07-09T10:10:35Z</time>
      </trkpt>
      <trkpt lat="44.14749" lon="3.56084">
        <ele>1427</ele>
        <time>2009-07-09T10:10:36Z</time>
      </trkpt>
      <trkpt lat="44.14764" lon="3.5607">
        <ele>1431</ele>
        <time>2009-07-09T10:10:46Z</time>
      </trkpt>
      <trkpt lat="44.1478" lon="3.56047">
        <ele>1434</ele>
        <time>2009-07-09T10:11:01Z</time>
      </trkpt>
      <trkpt lat="44.14786" lon="3.56036">
        <ele>1436</ele>
        <time>2009-07-09T10:11:08Z</time>
      </trkpt>
      <trkpt lat="44.14802" lon="3.56012">
        <ele>1439</ele>
        <time>2009-07-09T10:11:23Z</time>
      </trkpt>
      <trkpt lat="44.14816" lon="3.55991">
        <ele>1442</ele>
        <time>2009-07-09T10:11:38Z</time>
      </trkpt>
      <trkpt lat="44.14824" lon="3.55985">
        <ele>1444</ele>
        <time>2009-07-09T10:11:45Z</time>
      </trkpt>
      <trkpt lat="44.14825" lon="3.55985">
        <ele>1443</ele>
        <time>2009-07-09T10:11:46Z</time>
      </trkpt>
      <trkpt lat="44.14832" lon="3.55979">
        <ele>1445</ele>
        <time>2009-07-09T10:11:52Z</time>
      </trkpt>
      <trkpt lat="44.14837" lon="3.55976">
        <ele>1447</ele>
        <time>2009-07-09T10:11:56Z</time>
      </trkpt>
      <trkpt lat="44.14865" lon="3.55965">
        <ele>1450</ele>
        <time>2009-07-09T10:12:17Z</time>
      </trkpt>
      <trkpt lat="44.1487" lon="3.55961">
        <ele>1452</ele>
        <time>2009-07-09T10:12:20Z</time>
      </trkpt>
      <trkpt lat="44.14894" lon="3.55942">
        <ele>1455</ele>
        <time>2009-07-09T10:12:35Z</time>
      </trkpt>
      <trkpt lat="44.14918" lon="3.55924">
        <ele>1457</ele>
        <time>2009-07-09T10:12:50Z</time>
      </trkpt>
      <trkpt lat="44.14949" lon="3.55904">
        <ele>1459</ele>
        <time>2009-07-09T10:13:08Z</time>
      </trkpt>
      <trkpt lat="44.1497" lon="3.55894">
        <ele>1461</ele>
        <time>2009-07-09T10:13:20Z</time>
      </trkpt>
      <trkpt lat="44.14995" lon="3.55885">
        <ele>1463</ele>
        <time>2009-07-09T10:13:33Z</time>
      </trkpt>
      <trkpt lat="44.15019" lon="3.55878">
        <ele>1465</ele>
        <time>2009-07-09T10:13:46Z</time>
      </trkpt>
      <trkpt lat="44.15048" lon="3.55871">
        <ele>1465</ele>
        <time>2009-07-09T10:13:59Z</time>
      </trkpt>
      <trkpt lat="44.15096" lon="3.55853">
        <ele>1468</ele>
        <time>2009-07-09T10:14:16Z</time>
      </trkpt>
      <trkpt lat="44.15144" lon="3.55832">
        <ele>1469</ele>
        <time>2009-07-09T10:14:33Z</time>
      </trkpt>
      <trkpt lat="44.15176" lon="3.5581">
        <ele>1469</ele>
        <time>2009-07-09T10:14:46Z</time>
      </trkpt>
      <trkpt lat="44.15219" lon="3.55785">
        <ele>1467</ele>
        <time>2009-07-09T10:15:00Z</time>
      </trkpt>
      <trkpt lat="44.15241" lon="3.55773">
        <ele>1466</ele>
        <time>2009-07-09T10:15:05Z</time>
      </trkpt>
      <trkpt lat="44.15259" lon="3.55766">
        <ele>1463</ele>
        <time>2009-07-09T10:15:08Z</time>
      </trkpt>
      <trkpt lat="44.15288" lon="3.55753">
        <ele>1458</ele>
        <time>2009-07-09T10:15:12Z</time>
      </trkpt>
      <trkpt lat="44.15303" lon="3.55744">
        <ele>1456</ele>
        <time>2009-07-09T10:15:14Z</time>
      </trkpt>
      <trkpt lat="44.15317" lon="3.55735">
        <ele>1455</ele>
        <time>2009-07-09T10:15:16Z</time>
      </trkpt>
      <trkpt lat="44.1535" lon="3.55721">
        <ele>1452</ele>
        <time>2009-07-09T10:15:20Z</time>
      </trkpt>
      <trkpt lat="44.15394" lon="3.55681">
        <ele>1452</ele>
        <time>2009-07-09T10:15:28Z</time>
      </trkpt>
      <trkpt lat="44.15404" lon="3.55664">
        <ele>1451</ele>
        <time>2009-07-09T10:15:31Z</time>
      </trkpt>
      <trkpt lat="44.1541" lon="3.55653">
        <ele>1451</ele>
        <time>2009-07-09T10:15:33Z</time>
      </trkpt>
      <trkpt lat="44.15416" lon="3.55641">
        <ele>1452</ele>
        <time>2009-07-09T10:15:35Z</time>
      </trkpt>
      <trkpt lat="44.15435" lon="3.55589">
        <ele>1452</ele>
        <time>2009-07-09T10:15:46Z</time>
      </trkpt>
      <trkpt lat="44.15448" lon="3.5552">
        <ele>1453</ele>
        <time>2009-07-09T10:16:00Z</time>
      </trkpt>
      <trkpt lat="44.15462" lon="3.5546">
        <ele>1453</ele>
        <time>2009-07-09T10:16:13Z</time>
      </trkpt>
      <trkpt lat="44.15491" lon="3.55425">
        <ele>1451</ele>
        <time>2009-07-09T10:16:25Z</time>
      </trkpt>
      <trkpt lat="44.15504" lon="3.55421">
        <ele>1451</ele>
        <time>2009-07-09T10:16:33Z</time>
      </trkpt>
      <trkpt lat="44.15505" lon="3.55421">
        <ele>1451</ele>
        <time>2009-07-09T10:17:00Z</time>
      </trkpt>
      <trkpt lat="44.15508" lon="3.55421">
        <ele>1449</ele>
        <time>2009-07-09T10:17:10Z</time>
      </trkpt>
      <trkpt lat="44.15515" lon="3.55425">
        <ele>1450</ele>
        <time>2009-07-09T10:17:51Z</time>
      </trkpt>
      <trkpt lat="44.15512" lon="3.55421">
        <ele>1451</ele>
        <time>2009-07-09T10:18:41Z</time>
      </trkpt>
      <trkpt lat="44.15511" lon="3.55421">
        <ele>1450</ele>
        <time>2009-07-09T10:19:08Z</time>
      </trkpt>
      <trkpt lat="44.1551" lon="3.5542">
        <ele>1450</ele>
        <time>2009-07-09T10:19:28Z</time>
      </trkpt>
      <trkpt lat="44.15515" lon="3.55416">
        <ele>1448</ele>
        <time>2009-07-09T10:19:48Z</time>
      </trkpt>
      <trkpt lat="44.15529" lon="3.55405">
        <ele>1446</ele>
        <time>2009-07-09T10:19:52Z</time>
      </trkpt>
      <trkpt lat="44.15533" lon="3.55401">
        <ele>1446</ele>
        <time>2009-07-09T10:19:53Z</time>
      </trkpt>
      <trkpt lat="44.15549" lon="3.55371">
        <ele>1441</ele>
        <time>2009-07-09T10:19:58Z</time>
      </trkpt>
      <trkpt lat="44.15554" lon="3.55366">
        <ele>1439</ele>
        <time>2009-07-09T10:19:59Z</time>
      </trkpt>
      <trkpt lat="44.15576" lon="3.55339">
        <ele>1432</ele>
        <time>2009-07-09T10:20:03Z</time>
      </trkpt>
      <trkpt lat="44.1558" lon="3.55333">
        <ele>1431</ele>
        <time>2009-07-09T10:20:04Z</time>
      </trkpt>
      <trkpt lat="44.15587" lon="3.5532">
        <ele>1430</ele>
        <time>2009-07-09T10:20:06Z</time>
      </trkpt>
      <trkpt lat="44.156" lon="3.55299">
        <ele>1427</ele>
        <time>2009-07-09T10:20:09Z</time>
      </trkpt>
      <trkpt lat="44.1562" lon="3.55272">
        <ele>1422</ele>
        <time>2009-07-09T10:20:13Z</time>
      </trkpt>
      <trkpt lat="44.15624" lon="3.55265">
        <ele>1420</ele>
        <time>2009-07-09T10:20:14Z</time>
      </trkpt>
      <trkpt lat="44.15635" lon="3.55234">
        <ele>1419</ele>
        <time>2009-07-09T10:20:18Z</time>
      </trkpt>
      <trkpt lat="44.15647" lon="3.55215">
        <ele>1413</ele>
        <time>2009-07-09T10:20:21Z</time>
      </trkpt>
      <trkpt lat="44.15663" lon="3.55184">
        <ele>1410</ele>
        <time>2009-07-09T10:20:25Z</time>
      </trkpt>
      <trkpt lat="44.15672" lon="3.55166">
        <ele>1408</ele>
        <time>2009-07-09T10:20:28Z</time>
      </trkpt>
      <trkpt lat="44.15684" lon="3.55131">
        <ele>1405</ele>
        <time>2009-07-09T10:20:37Z</time>
      </trkpt>
      <trkpt lat="44.15692" lon="3.55124">
        <ele>1403</ele>
        <time>2009-07-09T10:20:42Z</time>
      </trkpt>
      <trkpt lat="44.15697" lon="3.55123">
        <ele>1402</ele>
        <time>2009-07-09T10:20:44Z</time>
      </trkpt>
      <trkpt lat="44.15712" lon="3.5513">
        <ele>1398</ele>
        <time>2009-07-09T10:20:50Z</time>
      </trkpt>
      <trkpt lat="44.15719" lon="3.55143">
        <ele>1395</ele>
        <time>2009-07-09T10:20:55Z</time>
      </trkpt>
      <trkpt lat="44.15719" lon="3.55146">
        <ele>1395</ele>
        <time>2009-07-09T10:20:56Z</time>
      </trkpt>
      <trkpt lat="44.15732" lon="3.55184">
        <ele>1393</ele>
        <time>2009-07-09T10:21:07Z</time>
      </trkpt>
      <trkpt lat="44.15735" lon="3.55194">
        <ele>1392</ele>
        <time>2009-07-09T10:21:10Z</time>
      </trkpt>
      <trkpt lat="44.15738" lon="3.55196">
        <ele>1391</ele>
        <time>2009-07-09T10:21:12Z</time>
      </trkpt>
      <trkpt lat="44.1574" lon="3.552">
        <ele>1390</ele>
        <time>2009-07-09T10:21:14Z</time>
      </trkpt>
      <trkpt lat="44.15744" lon="3.55205">
        <ele>1388</ele>
        <time>2009-07-09T10:21:16Z</time>
      </trkpt>
      <trkpt lat="44.15746" lon="3.55212">
        <ele>1387</ele>
        <time>2009-07-09T10:21:18Z</time>
      </trkpt>
      <trkpt lat="44.1575" lon="3.55222">
        <ele>1387</ele>
        <time>2009-07-09T10:21:30Z</time>
      </trkpt>
      <trkpt lat="44.1575" lon="3.55223">
        <ele>1386</ele>
        <time>2009-07-09T10:21:34Z</time>
      </trkpt>
      <trkpt lat="44.15756" lon="3.55226">
        <ele>1385</ele>
        <time>2009-07-09T10:21:41Z</time>
      </trkpt>
      <trkpt lat="44.1576" lon="3.55225">
        <ele>1384</ele>
        <time>2009-07-09T10:21:46Z</time>
      </trkpt>
      <trkpt lat="44.15764" lon="3.55226">
        <ele>1381</ele>
        <time>2009-07-09T10:21:49Z</time>
      </trkpt>
      <trkpt lat="44.15766" lon="3.55229">
        <ele>1382</ele>
        <time>2009-07-09T10:21:54Z</time>
      </trkpt>
      <trkpt lat="44.15776" lon="3.55252">
        <ele>1377</ele>
        <time>2009-07-09T10:22:01Z</time>
      </trkpt>
      <trkpt lat="44.15777" lon="3.55256">
        <ele>1377</ele>
        <time>2009-07-09T10:22:02Z</time>
      </trkpt>
      <trkpt lat="44.15778" lon="3.55259">
        <ele>1375</ele>
        <time>2009-07-09T10:22:03Z</time>
      </trkpt>
      <trkpt lat="44.15787" lon="3.55264">
        <ele>1374</ele>
        <time>2009-07-09T10:22:07Z</time>
      </trkpt>
      <trkpt lat="44.15798" lon="3.55262">
        <ele>1371</ele>
        <time>2009-07-09T10:22:12Z</time>
      </trkpt>
      <trkpt lat="44.158" lon="3.55261">
        <ele>1370</ele>
        <time>2009-07-09T10:22:13Z</time>
      </trkpt>
      <trkpt lat="44.15805" lon="3.55259">
        <ele>1369</ele>
        <time>2009-07-09T10:22:16Z</time>
      </trkpt>
      <trkpt lat="44.15812" lon="3.55261">
        <ele>1367</ele>
        <time>2009-07-09T10:22:25Z</time>
      </trkpt>
      <trkpt lat="44.15813" lon="3.55261">
        <ele>1366</ele>
        <time>2009-07-09T10:22:27Z</time>
      </trkpt>
      <trkpt lat="44.1582" lon="3.55259">
        <ele>1363</ele>
        <time>2009-07-09T10:22:36Z</time>
      </trkpt>
      <trkpt lat="44.15825" lon="3.55255">
        <ele>1361</ele>
        <time>2009-07-09T10:22:42Z</time>
      </trkpt>
      <trkpt lat="44.15826" lon="3.55255">
        <ele>1362</ele>
        <time>2009-07-09T10:22:43Z</time>
      </trkpt>
      <trkpt lat="44.15833" lon="3.55246">
        <ele>1358</ele>
        <time>2009-07-09T10:22:57Z</time>
      </trkpt>
      <trkpt lat="44.15838" lon="3.55243">
        <ele>1357</ele>
        <time>2009-07-09T10:23:13Z</time>
      </trkpt>
      <trkpt lat="44.15841" lon="3.55242">
        <ele>1356</ele>
        <time>2009-07-09T10:23:17Z</time>
      </trkpt>
      <trkpt lat="44.15847" lon="3.55237">
        <ele>1352</ele>
        <time>2009-07-09T10:23:24Z</time>
      </trkpt>
      <trkpt lat="44.15848" lon="3.55237">
        <ele>1352</ele>
        <time>2009-07-09T10:23:25Z</time>
      </trkpt>
      <trkpt lat="44.15855" lon="3.55228">
        <ele>1350</ele>
        <time>2009-07-09T10:23:37Z</time>
      </trkpt>
      <trkpt lat="44.15858" lon="3.55228">
        <ele>1348</ele>
        <time>2009-07-09T10:23:42Z</time>
      </trkpt>
      <trkpt lat="44.15865" lon="3.55229">
        <ele>1346</ele>
        <time>2009-07-09T10:23:53Z</time>
      </trkpt>
      <trkpt lat="44.15873" lon="3.55225">
        <ele>1344</ele>
        <time>2009-07-09T10:24:03Z</time>
      </trkpt>
      <trkpt lat="44.15877" lon="3.55224">
        <ele>1340</ele>
        <time>2009-07-09T10:24:08Z</time>
      </trkpt>
      <trkpt lat="44.15887" lon="3.55222">
        <ele>1338</ele>
        <time>2009-07-09T10:24:23Z</time>
      </trkpt>
      <trkpt lat="44.15889" lon="3.55223">
        <ele>1337</ele>
        <time>2009-07-09T10:24:25Z</time>
      </trkpt>
      <trkpt lat="44.15895" lon="3.55225">
        <ele>1335</ele>
        <time>2009-07-09T10:24:36Z</time>
      </trkpt>
      <trkpt lat="44.159" lon="3.55226">
        <ele>1334</ele>
        <time>2009-07-09T10:24:45Z</time>
      </trkpt>
      <trkpt lat="44.15906" lon="3.55223">
        <ele>1331</ele>
        <time>2009-07-09T10:24:52Z</time>
      </trkpt>
      <trkpt lat="44.15912" lon="3.5522">
        <ele>1330</ele>
        <time>2009-07-09T10:25:05Z</time>
      </trkpt>
      <trkpt lat="44.15918" lon="3.55218">
        <ele>1327</ele>
        <time>2009-07-09T10:25:15Z</time>
      </trkpt>
      <trkpt lat="44.15924" lon="3.55217">
        <ele>1325</ele>
        <time>2009-07-09T10:25:22Z</time>
      </trkpt>
      <trkpt lat="44.15926" lon="3.55218">
        <ele>1324</ele>
        <time>2009-07-09T10:25:25Z</time>
      </trkpt>
      <trkpt lat="44.15929" lon="3.55215">
        <ele>1323</ele>
        <time>2009-07-09T10:25:31Z</time>
      </trkpt>
      <trkpt lat="44.15941" lon="3.55211">
        <ele>1317</ele>
        <time>2009-07-09T10:25:36Z</time>
      </trkpt>
      <trkpt lat="44.1596" lon="3.55205">
        <ele>1312</ele>
        <time>2009-07-09T10:25:41Z</time>
      </trkpt>
      <trkpt lat="44.15965" lon="3.55204">
        <ele>1312</ele>
        <time>2009-07-09T10:25:42Z</time>
      </trkpt>
      <trkpt lat="44.15973" lon="3.55203">
        <ele>1311</ele>
        <time>2009-07-09T10:25:44Z</time>
      </trkpt>
      <trkpt lat="44.15986" lon="3.55196">
        <ele>1306</ele>
        <time>2009-07-09T10:25:50Z</time>
      </trkpt>
      <trkpt lat="44.15995" lon="3.55189">
        <ele>1304</ele>
        <time>2009-07-09T10:25:53Z</time>
      </trkpt>
      <trkpt lat="44.16" lon="3.55188">
        <ele>1303</ele>
        <time>2009-07-09T10:25:55Z</time>
      </trkpt>
      <trkpt lat="44.16013" lon="3.55187">
        <ele>1301</ele>
        <time>2009-07-09T10:26:02Z</time>
      </trkpt>
      <trkpt lat="44.16024" lon="3.55176">
        <ele>1298</ele>
        <time>2009-07-09T10:26:09Z</time>
      </trkpt>
      <trkpt lat="44.16026" lon="3.55173">
        <ele>1297</ele>
        <time>2009-07-09T10:26:10Z</time>
      </trkpt>
      <trkpt lat="44.16035" lon="3.55165">
        <ele>1293</ele>
        <time>2009-07-09T10:26:13Z</time>
      </trkpt>
      <trkpt lat="44.16055" lon="3.55154">
        <ele>1291</ele>
        <time>2009-07-09T10:26:23Z</time>
      </trkpt>
      <trkpt lat="44.16065" lon="3.55148">
        <ele>1288</ele>
        <time>2009-07-09T10:26:27Z</time>
      </trkpt>
      <trkpt lat="44.16081" lon="3.5514">
        <ele>1284</ele>
        <time>2009-07-09T10:26:35Z</time>
      </trkpt>
      <trkpt lat="44.1609" lon="3.55124">
        <ele>1279</ele>
        <time>2009-07-09T10:26:40Z</time>
      </trkpt>
      <trkpt lat="44.16099" lon="3.55116">
        <ele>1276</ele>
        <time>2009-07-09T10:26:44Z</time>
      </trkpt>
      <trkpt lat="44.16103" lon="3.55108">
        <ele>1275</ele>
        <time>2009-07-09T10:26:46Z</time>
      </trkpt>
      <trkpt lat="44.16114" lon="3.5509">
        <ele>1274</ele>
        <time>2009-07-09T10:26:50Z</time>
      </trkpt>
      <trkpt lat="44.16125" lon="3.5508">
        <ele>1273</ele>
        <time>2009-07-09T10:26:53Z</time>
      </trkpt>
      <trkpt lat="44.16141" lon="3.55066">
        <ele>1269</ele>
        <time>2009-07-09T10:26:58Z</time>
      </trkpt>
      <trkpt lat="44.16145" lon="3.5506">
        <ele>1268</ele>
        <time>2009-07-09T10:27:00Z</time>
      </trkpt>
      <trkpt lat="44.16153" lon="3.55053">
        <ele>1265</ele>
        <time>2009-07-09T10:27:03Z</time>
      </trkpt>
      <trkpt lat="44.16154" lon="3.55052">
        <ele>1264</ele>
        <time>2009-07-09T10:27:04Z</time>
      </trkpt>
      <trkpt lat="44.16175" lon="3.55047">
        <ele>1261</ele>
        <time>2009-07-09T10:27:11Z</time>
      </trkpt>
      <trkpt lat="44.16192" lon="3.55043">
        <ele>1257</ele>
        <time>2009-07-09T10:27:15Z</time>
      </trkpt>
      <trkpt lat="44.16197" lon="3.55041">
        <ele>1257</ele>
        <time>2009-07-09T10:27:16Z</time>
      </trkpt>
      <trkpt lat="44.16216" lon="3.55035">
        <ele>1255</ele>
        <time>2009-07-09T10:27:23Z</time>
      </trkpt>
      <trkpt lat="44.16227" lon="3.55028">
        <ele>1254</ele>
        <time>2009-07-09T10:27:26Z</time>
      </trkpt>
      <trkpt lat="44.1625" lon="3.55022">
        <ele>1251</ele>
        <time>2009-07-09T10:27:32Z</time>
      </trkpt>
      <trkpt lat="44.16255" lon="3.55022">
        <ele>1250</ele>
        <time>2009-07-09T10:27:33Z</time>
      </trkpt>
      <trkpt lat="44.16272" lon="3.55008">
        <ele>1246</ele>
        <time>2009-07-09T10:27:37Z</time>
      </trkpt>
      <trkpt lat="44.16281" lon="3.54998">
        <ele>1245</ele>
        <time>2009-07-09T10:27:39Z</time>
      </trkpt>
      <trkpt lat="44.16292" lon="3.54989">
        <ele>1244</ele>
        <time>2009-07-09T10:27:42Z</time>
      </trkpt>
      <trkpt lat="44.16298" lon="3.54976">
        <ele>1244</ele>
        <time>2009-07-09T10:27:45Z</time>
      </trkpt>
      <trkpt lat="44.16311" lon="3.54959">
        <ele>1240</ele>
        <time>2009-07-09T10:27:49Z</time>
      </trkpt>
      <trkpt lat="44.16329" lon="3.54956">
        <ele>1235</ele>
        <time>2009-07-09T10:27:54Z</time>
      </trkpt>
      <trkpt lat="44.16348" lon="3.54953">
        <ele>1234</ele>
        <time>2009-07-09T10:28:00Z</time>
      </trkpt>
      <trkpt lat="44.16353" lon="3.54956">
        <ele>1231</ele>
        <time>2009-07-09T10:28:02Z</time>
      </trkpt>
      <trkpt lat="44.16377" lon="3.5495">
        <ele>1226</ele>
        <time>2009-07-09T10:28:08Z</time>
      </trkpt>
      <trkpt lat="44.16387" lon="3.5495">
        <ele>1226</ele>
        <time>2009-07-09T10:28:10Z</time>
      </trkpt>
      <trkpt lat="44.16393" lon="3.54951">
        <ele>1218</ele>
        <time>2009-07-09T10:28:11Z</time>
      </trkpt>
      <trkpt lat="44.16424" lon="3.5495">
        <ele>1212</ele>
        <time>2009-07-09T10:28:19Z</time>
      </trkpt>
      <trkpt lat="44.16427" lon="3.54948">
        <ele>1211</ele>
        <time>2009-07-09T10:28:20Z</time>
      </trkpt>
      <trkpt lat="44.1643" lon="3.54946">
        <ele>1212</ele>
        <time>2009-07-09T10:28:32Z</time>
      </trkpt>
      <trkpt lat="44.1643" lon="3.54947">
        <ele>1212</ele>
        <time>2009-07-09T10:28:48Z</time>
      </trkpt>
      <trkpt lat="44.16429" lon="3.54947">
        <ele>1210</ele>
        <time>2009-07-09T10:29:02Z</time>
      </trkpt>
      <trkpt lat="44.16428" lon="3.54947">
        <ele>1211</ele>
        <time>2009-07-09T10:31:26Z</time>
      </trkpt>
      <trkpt lat="44.16428" lon="3.54946">
        <ele>1211</ele>
        <time>2009-07-09T10:33:05Z</time>
      </trkpt>
      <trkpt lat="44.16428" lon="3.54947">
        <ele>1211</ele>
        <time>2009-07-09T10:33:41Z</time>
      </trkpt>
      <trkpt lat="44.16431" lon="3.54947">
        <ele>1210</ele>
        <time>2009-07-09T10:34:09Z</time>
      </trkpt>
      <trkpt lat="44.16443" lon="3.54951">
        <ele>1210</ele>
        <time>2009-07-09T10:34:15Z</time>
      </trkpt>
      <trkpt lat="44.1645" lon="3.54949">
        <ele>1209</ele>
        <time>2009-07-09T10:34:17Z</time>
      </trkpt>
      <trkpt lat="44.16493" lon="3.54906">
        <ele>1205</ele>
        <time>2009-07-09T10:34:27Z</time>
      </trkpt>
      <trkpt lat="44.16513" lon="3.54887">
        <ele>1204</ele>
        <time>2009-07-09T10:34:31Z</time>
      </trkpt>
      <trkpt lat="44.16528" lon="3.54874">
        <ele>1205</ele>
        <time>2009-07-09T10:34:34Z</time>
      </trkpt>
      <trkpt lat="44.1656" lon="3.54831">
        <ele>1202</ele>
        <time>2009-07-09T10:34:42Z</time>
      </trkpt>
      <trkpt lat="44.16577" lon="3.548">
        <ele>1203</ele>
        <time>2009-07-09T10:34:51Z</time>
      </trkpt>
      <trkpt lat="44.16578" lon="3.54799">
        <ele>1203</ele>
        <time>2009-07-09T10:35:15Z</time>
      </trkpt>
      <trkpt lat="44.16577" lon="3.54799">
        <ele>1204</ele>
        <time>2009-07-09T10:35:37Z</time>
      </trkpt>
      <trkpt lat="44.16579" lon="3.54797">
        <ele>1202</ele>
        <time>2009-07-09T10:36:16Z</time>
      </trkpt>
      <trkpt lat="44.16579" lon="3.54796">
        <ele>1205</ele>
        <time>2009-07-09T10:37:46Z</time>
      </trkpt>
      <trkpt lat="44.16582" lon="3.54793">
        <ele>1203</ele>
        <time>2009-07-09T10:41:44Z</time>
      </trkpt>
      <trkpt lat="44.16577" lon="3.54796">
        <ele>1202</ele>
        <time>2009-07-09T10:42:37Z</time>
      </trkpt>
    </trkseg>
  </trk>
</gpx>